<?xml version="1.0" encoding="UTF-8" standalone="no" ?>
<gpx xmlns="http://www.topografix.com/GPX/1/1" xmlns:xsi="http://www.w3.org/2001/XMLSchema-instance" xsi:schemaLocation="http://www.topografix.com/GPX/1/1 http://www.topografix.com/GPX/1/1/gpx.xsd" version="1.1" creator="VisuGPX - https://www.visugpx.com">
  <metadata>
    <name>la lance par la combe de sauve</name>
    <desc><![CDATA[combe de sauce, sommet, retour par le col de lachaud, col de la pause, col de  venterol]]></desc>
  </metadata>
  <trk>
    <name><![CDATA[23-AVR-15 04:29:30 PM]]></name>
    <trkseg>
      <trkpt lat="44.40969" lon="5.11174">
        <ele>505.31</ele>
        <time>2015-04-23T06:56:21Z</time>
      </trkpt>
      <trkpt lat="44.40968" lon="5.11174">
        <ele>505.79</ele>
        <time>2015-04-23T06:56:52Z</time>
      </trkpt>
      <trkpt lat="44.40969" lon="5.11174">
        <ele>505.79</ele>
        <time>2015-04-23T06:57:12Z</time>
      </trkpt>
      <trkpt lat="44.40968" lon="5.11173">
        <ele>506.27</ele>
        <time>2015-04-23T06:57:32Z</time>
      </trkpt>
      <trkpt lat="44.40969" lon="5.11174">
        <ele>506.27</ele>
        <time>2015-04-23T06:57:46Z</time>
      </trkpt>
      <trkpt lat="44.40967" lon="5.11172">
        <ele>507.23</ele>
        <time>2015-04-23T06:58:03Z</time>
      </trkpt>
      <trkpt lat="44.40967" lon="5.11171">
        <ele>507.71</ele>
        <time>2015-04-23T06:58:26Z</time>
      </trkpt>
      <trkpt lat="44.40968" lon="5.11172">
        <ele>508.67</ele>
        <time>2015-04-23T06:58:45Z</time>
      </trkpt>
      <trkpt lat="44.40967" lon="5.11171">
        <ele>508.19</ele>
        <time>2015-04-23T06:59:00Z</time>
      </trkpt>
      <trkpt lat="44.40967" lon="5.11172">
        <ele>507.71</ele>
        <time>2015-04-23T06:59:19Z</time>
      </trkpt>
      <trkpt lat="44.40967" lon="5.11172">
        <ele>507.71</ele>
        <time>2015-04-23T06:59:42Z</time>
      </trkpt>
      <trkpt lat="44.40968" lon="5.11177">
        <ele>505.31</ele>
        <time>2015-04-23T06:59:55Z</time>
      </trkpt>
      <trkpt lat="44.40968" lon="5.11178">
        <ele>503.39</ele>
        <time>2015-04-23T07:00:16Z</time>
      </trkpt>
      <trkpt lat="44.40968" lon="5.11177">
        <ele>503.87</ele>
        <time>2015-04-23T07:00:34Z</time>
      </trkpt>
      <trkpt lat="44.40968" lon="5.11176">
        <ele>503.87</ele>
        <time>2015-04-23T07:00:54Z</time>
      </trkpt>
      <trkpt lat="44.40968" lon="5.11176">
        <ele>503.87</ele>
        <time>2015-04-23T07:01:08Z</time>
      </trkpt>
      <trkpt lat="44.40967" lon="5.11176">
        <ele>503.87</ele>
        <time>2015-04-23T07:01:32Z</time>
      </trkpt>
      <trkpt lat="44.40966" lon="5.11176">
        <ele>504.83</ele>
        <time>2015-04-23T07:01:53Z</time>
      </trkpt>
      <trkpt lat="44.40966" lon="5.11176">
        <ele>505.31</ele>
        <time>2015-04-23T07:02:08Z</time>
      </trkpt>
      <trkpt lat="44.40966" lon="5.11175">
        <ele>505.31</ele>
        <time>2015-04-23T07:02:26Z</time>
      </trkpt>
      <trkpt lat="44.40966" lon="5.11173">
        <ele>505.31</ele>
        <time>2015-04-23T07:02:46Z</time>
      </trkpt>
      <trkpt lat="44.40966" lon="5.11172">
        <ele>505.79</ele>
        <time>2015-04-23T07:03:11Z</time>
      </trkpt>
      <trkpt lat="44.40966" lon="5.11172">
        <ele>506.27</ele>
        <time>2015-04-23T07:03:28Z</time>
      </trkpt>
      <trkpt lat="44.40965" lon="5.11164">
        <ele>505.31</ele>
        <time>2015-04-23T07:03:50Z</time>
      </trkpt>
      <trkpt lat="44.4096" lon="5.11144">
        <ele>504.35</ele>
        <time>2015-04-23T07:04:10Z</time>
      </trkpt>
      <trkpt lat="44.40955" lon="5.11125">
        <ele>504.83</ele>
        <time>2015-04-23T07:04:28Z</time>
      </trkpt>
      <trkpt lat="44.40957" lon="5.11108">
        <ele>505.79</ele>
        <time>2015-04-23T07:04:45Z</time>
      </trkpt>
      <trkpt lat="44.40969" lon="5.11094">
        <ele>510.6</ele>
        <time>2015-04-23T07:05:04Z</time>
      </trkpt>
      <trkpt lat="44.40981" lon="5.11085">
        <ele>514.92</ele>
        <time>2015-04-23T07:05:23Z</time>
      </trkpt>
      <trkpt lat="44.40994" lon="5.11072">
        <ele>518.77</ele>
        <time>2015-04-23T07:05:44Z</time>
      </trkpt>
      <trkpt lat="44.41005" lon="5.11055">
        <ele>520.21</ele>
        <time>2015-04-23T07:06:04Z</time>
      </trkpt>
      <trkpt lat="44.41022" lon="5.11037">
        <ele>523.09</ele>
        <time>2015-04-23T07:06:27Z</time>
      </trkpt>
      <trkpt lat="44.41038" lon="5.11023">
        <ele>525.5</ele>
        <time>2015-04-23T07:06:45Z</time>
      </trkpt>
      <trkpt lat="44.41051" lon="5.11007">
        <ele>525.98</ele>
        <time>2015-04-23T07:07:06Z</time>
      </trkpt>
      <trkpt lat="44.41057" lon="5.10982">
        <ele>528.86</ele>
        <time>2015-04-23T07:07:25Z</time>
      </trkpt>
      <trkpt lat="44.41061" lon="5.10971">
        <ele>530.79</ele>
        <time>2015-04-23T07:07:38Z</time>
      </trkpt>
      <trkpt lat="44.41062" lon="5.10952">
        <ele>533.19</ele>
        <time>2015-04-23T07:07:53Z</time>
      </trkpt>
      <trkpt lat="44.41059" lon="5.1093">
        <ele>534.15</ele>
        <time>2015-04-23T07:08:12Z</time>
      </trkpt>
      <trkpt lat="44.41063" lon="5.10907">
        <ele>536.55</ele>
        <time>2015-04-23T07:08:28Z</time>
      </trkpt>
      <trkpt lat="44.41059" lon="5.10882">
        <ele>537.03</ele>
        <time>2015-04-23T07:08:48Z</time>
      </trkpt>
      <trkpt lat="44.41053" lon="5.10858">
        <ele>537.03</ele>
        <time>2015-04-23T07:09:08Z</time>
      </trkpt>
      <trkpt lat="44.41048" lon="5.10849">
        <ele>537.51</ele>
        <time>2015-04-23T07:09:26Z</time>
      </trkpt>
      <trkpt lat="44.41033" lon="5.10829">
        <ele>538.48</ele>
        <time>2015-04-23T07:09:48Z</time>
      </trkpt>
      <trkpt lat="44.41036" lon="5.10812">
        <ele>538.48</ele>
        <time>2015-04-23T07:10:02Z</time>
      </trkpt>
      <trkpt lat="44.41051" lon="5.10791">
        <ele>539.44</ele>
        <time>2015-04-23T07:10:19Z</time>
      </trkpt>
      <trkpt lat="44.41067" lon="5.10772">
        <ele>541.36</ele>
        <time>2015-04-23T07:10:40Z</time>
      </trkpt>
      <trkpt lat="44.41068" lon="5.10771">
        <ele>541.36</ele>
        <time>2015-04-23T07:10:41Z</time>
      </trkpt>
      <trkpt lat="44.41081" lon="5.10754">
        <ele>542.8</ele>
        <time>2015-04-23T07:11:00Z</time>
      </trkpt>
      <trkpt lat="44.41094" lon="5.10743">
        <ele>544.24</ele>
        <time>2015-04-23T07:11:17Z</time>
      </trkpt>
      <trkpt lat="44.41095" lon="5.10742">
        <ele>544.24</ele>
        <time>2015-04-23T07:11:19Z</time>
      </trkpt>
      <trkpt lat="44.41107" lon="5.10723">
        <ele>546.17</ele>
        <time>2015-04-23T07:11:37Z</time>
      </trkpt>
      <trkpt lat="44.41122" lon="5.10705">
        <ele>547.61</ele>
        <time>2015-04-23T07:11:58Z</time>
      </trkpt>
      <trkpt lat="44.41137" lon="5.10685">
        <ele>549.53</ele>
        <time>2015-04-23T07:12:21Z</time>
      </trkpt>
      <trkpt lat="44.41151" lon="5.10675">
        <ele>552.41</ele>
        <time>2015-04-23T07:12:41Z</time>
      </trkpt>
      <trkpt lat="44.41164" lon="5.10666">
        <ele>555.3</ele>
        <time>2015-04-23T07:12:58Z</time>
      </trkpt>
      <trkpt lat="44.41178" lon="5.10658">
        <ele>556.74</ele>
        <time>2015-04-23T07:13:18Z</time>
      </trkpt>
      <trkpt lat="44.41192" lon="5.10646">
        <ele>560.59</ele>
        <time>2015-04-23T07:13:37Z</time>
      </trkpt>
      <trkpt lat="44.41202" lon="5.10633">
        <ele>563.95</ele>
        <time>2015-04-23T07:13:55Z</time>
      </trkpt>
      <trkpt lat="44.41213" lon="5.1062">
        <ele>567.32</ele>
        <time>2015-04-23T07:14:14Z</time>
      </trkpt>
      <trkpt lat="44.4122" lon="5.1061">
        <ele>572.12</ele>
        <time>2015-04-23T07:14:25Z</time>
      </trkpt>
      <trkpt lat="44.41234" lon="5.10592">
        <ele>578.85</ele>
        <time>2015-04-23T07:14:46Z</time>
      </trkpt>
      <trkpt lat="44.41249" lon="5.10578">
        <ele>581.73</ele>
        <time>2015-04-23T07:15:05Z</time>
      </trkpt>
      <trkpt lat="44.41259" lon="5.10556">
        <ele>587.02</ele>
        <time>2015-04-23T07:15:24Z</time>
      </trkpt>
      <trkpt lat="44.41278" lon="5.10545">
        <ele>589.43</ele>
        <time>2015-04-23T07:15:45Z</time>
      </trkpt>
      <trkpt lat="44.41291" lon="5.10532">
        <ele>589.91</ele>
        <time>2015-04-23T07:16:03Z</time>
      </trkpt>
      <trkpt lat="44.41303" lon="5.1052">
        <ele>589.43</ele>
        <time>2015-04-23T07:16:21Z</time>
      </trkpt>
      <trkpt lat="44.41315" lon="5.10503">
        <ele>590.39</ele>
        <time>2015-04-23T07:16:39Z</time>
      </trkpt>
      <trkpt lat="44.41329" lon="5.10491">
        <ele>594.23</ele>
        <time>2015-04-23T07:16:57Z</time>
      </trkpt>
      <trkpt lat="44.41336" lon="5.10482">
        <ele>596.15</ele>
        <time>2015-04-23T07:17:13Z</time>
      </trkpt>
      <trkpt lat="44.41346" lon="5.10474">
        <ele>598.08</ele>
        <time>2015-04-23T07:17:29Z</time>
      </trkpt>
      <trkpt lat="44.41357" lon="5.10459">
        <ele>599.04</ele>
        <time>2015-04-23T07:17:46Z</time>
      </trkpt>
      <trkpt lat="44.41366" lon="5.10447">
        <ele>599.04</ele>
        <time>2015-04-23T07:18:02Z</time>
      </trkpt>
      <trkpt lat="44.41372" lon="5.10426">
        <ele>600</ele>
        <time>2015-04-23T07:18:21Z</time>
      </trkpt>
      <trkpt lat="44.41382" lon="5.10408">
        <ele>602.4</ele>
        <time>2015-04-23T07:18:40Z</time>
      </trkpt>
      <trkpt lat="44.41389" lon="5.10397">
        <ele>602.4</ele>
        <time>2015-04-23T07:18:52Z</time>
      </trkpt>
      <trkpt lat="44.41398" lon="5.10387">
        <ele>602.4</ele>
        <time>2015-04-23T07:19:11Z</time>
      </trkpt>
      <trkpt lat="44.41409" lon="5.10372">
        <ele>601.92</ele>
        <time>2015-04-23T07:19:28Z</time>
      </trkpt>
      <trkpt lat="44.41425" lon="5.10366">
        <ele>601.92</ele>
        <time>2015-04-23T07:19:47Z</time>
      </trkpt>
      <trkpt lat="44.41441" lon="5.10364">
        <ele>604.33</ele>
        <time>2015-04-23T07:20:04Z</time>
      </trkpt>
      <trkpt lat="44.41453" lon="5.10348">
        <ele>608.65</ele>
        <time>2015-04-23T07:20:22Z</time>
      </trkpt>
      <trkpt lat="44.41459" lon="5.10338">
        <ele>610.09</ele>
        <time>2015-04-23T07:20:36Z</time>
      </trkpt>
      <trkpt lat="44.41471" lon="5.10317">
        <ele>616.82</ele>
        <time>2015-04-23T07:20:58Z</time>
      </trkpt>
      <trkpt lat="44.41478" lon="5.10311">
        <ele>618.75</ele>
        <time>2015-04-23T07:21:07Z</time>
      </trkpt>
      <trkpt lat="44.41493" lon="5.10293">
        <ele>621.63</ele>
        <time>2015-04-23T07:21:28Z</time>
      </trkpt>
      <trkpt lat="44.41496" lon="5.10302">
        <ele>624.03</ele>
        <time>2015-04-23T07:21:45Z</time>
      </trkpt>
      <trkpt lat="44.41494" lon="5.10303">
        <ele>624.03</ele>
        <time>2015-04-23T07:22:03Z</time>
      </trkpt>
      <trkpt lat="44.41493" lon="5.10306">
        <ele>624.51</ele>
        <time>2015-04-23T07:22:30Z</time>
      </trkpt>
      <trkpt lat="44.41494" lon="5.10303">
        <ele>628.36</ele>
        <time>2015-04-23T07:22:53Z</time>
      </trkpt>
      <trkpt lat="44.41494" lon="5.103">
        <ele>626.44</ele>
        <time>2015-04-23T07:23:26Z</time>
      </trkpt>
      <trkpt lat="44.41494" lon="5.10303">
        <ele>626.92</ele>
        <time>2015-04-23T07:23:53Z</time>
      </trkpt>
      <trkpt lat="44.41485" lon="5.10324">
        <ele>624.99</ele>
        <time>2015-04-23T07:24:13Z</time>
      </trkpt>
      <trkpt lat="44.41482" lon="5.10327">
        <ele>624.51</ele>
        <time>2015-04-23T07:24:17Z</time>
      </trkpt>
      <trkpt lat="44.41476" lon="5.10346">
        <ele>624.03</ele>
        <time>2015-04-23T07:24:34Z</time>
      </trkpt>
      <trkpt lat="44.41475" lon="5.1037">
        <ele>624.99</ele>
        <time>2015-04-23T07:24:52Z</time>
      </trkpt>
      <trkpt lat="44.41471" lon="5.10383">
        <ele>625.47</ele>
        <time>2015-04-23T07:25:04Z</time>
      </trkpt>
      <trkpt lat="44.41473" lon="5.10398">
        <ele>626.44</ele>
        <time>2015-04-23T07:25:22Z</time>
      </trkpt>
      <trkpt lat="44.41479" lon="5.10397">
        <ele>626.92</ele>
        <time>2015-04-23T07:25:28Z</time>
      </trkpt>
      <trkpt lat="44.41487" lon="5.10383">
        <ele>629.32</ele>
        <time>2015-04-23T07:25:44Z</time>
      </trkpt>
      <trkpt lat="44.415" lon="5.10363">
        <ele>632.2</ele>
        <time>2015-04-23T07:26:05Z</time>
      </trkpt>
      <trkpt lat="44.41511" lon="5.10347">
        <ele>635.57</ele>
        <time>2015-04-23T07:26:22Z</time>
      </trkpt>
      <trkpt lat="44.41523" lon="5.1033">
        <ele>638.93</ele>
        <time>2015-04-23T07:26:39Z</time>
      </trkpt>
      <trkpt lat="44.41535" lon="5.10314">
        <ele>643.26</ele>
        <time>2015-04-23T07:26:59Z</time>
      </trkpt>
      <trkpt lat="44.41539" lon="5.10313">
        <ele>644.7</ele>
        <time>2015-04-23T07:27:04Z</time>
      </trkpt>
      <trkpt lat="44.41551" lon="5.10305">
        <ele>648.07</ele>
        <time>2015-04-23T07:27:21Z</time>
      </trkpt>
      <trkpt lat="44.41552" lon="5.10304">
        <ele>648.07</ele>
        <time>2015-04-23T07:27:22Z</time>
      </trkpt>
      <trkpt lat="44.4156" lon="5.10289">
        <ele>651.43</ele>
        <time>2015-04-23T07:27:38Z</time>
      </trkpt>
      <trkpt lat="44.41565" lon="5.10279">
        <ele>653.35</ele>
        <time>2015-04-23T07:27:48Z</time>
      </trkpt>
      <trkpt lat="44.41575" lon="5.10261">
        <ele>657.68</ele>
        <time>2015-04-23T07:28:08Z</time>
      </trkpt>
      <trkpt lat="44.41584" lon="5.10248">
        <ele>661.52</ele>
        <time>2015-04-23T07:28:24Z</time>
      </trkpt>
      <trkpt lat="44.41596" lon="5.10234">
        <ele>665.85</ele>
        <time>2015-04-23T07:28:43Z</time>
      </trkpt>
      <trkpt lat="44.41607" lon="5.10217">
        <ele>668.25</ele>
        <time>2015-04-23T07:29:00Z</time>
      </trkpt>
      <trkpt lat="44.4162" lon="5.10209">
        <ele>669.7</ele>
        <time>2015-04-23T07:29:18Z</time>
      </trkpt>
      <trkpt lat="44.41626" lon="5.10206">
        <ele>670.66</ele>
        <time>2015-04-23T07:29:24Z</time>
      </trkpt>
      <trkpt lat="44.41643" lon="5.10202">
        <ele>672.1</ele>
        <time>2015-04-23T07:29:42Z</time>
      </trkpt>
      <trkpt lat="44.4165" lon="5.10211">
        <ele>672.1</ele>
        <time>2015-04-23T07:29:51Z</time>
      </trkpt>
      <trkpt lat="44.41661" lon="5.10225">
        <ele>671.14</ele>
        <time>2015-04-23T07:30:08Z</time>
      </trkpt>
      <trkpt lat="44.41672" lon="5.10235">
        <ele>670.18</ele>
        <time>2015-04-23T07:30:26Z</time>
      </trkpt>
      <trkpt lat="44.41682" lon="5.10245">
        <ele>671.14</ele>
        <time>2015-04-23T07:30:42Z</time>
      </trkpt>
      <trkpt lat="44.4169" lon="5.10259">
        <ele>673.54</ele>
        <time>2015-04-23T07:30:58Z</time>
      </trkpt>
      <trkpt lat="44.41701" lon="5.10263">
        <ele>675.94</ele>
        <time>2015-04-23T07:31:14Z</time>
      </trkpt>
      <trkpt lat="44.41711" lon="5.10255">
        <ele>678.83</ele>
        <time>2015-04-23T07:31:31Z</time>
      </trkpt>
      <trkpt lat="44.41724" lon="5.10254">
        <ele>682.19</ele>
        <time>2015-04-23T07:31:51Z</time>
      </trkpt>
      <trkpt lat="44.41727" lon="5.10254">
        <ele>684.12</ele>
        <time>2015-04-23T07:32:13Z</time>
      </trkpt>
      <trkpt lat="44.41739" lon="5.10255">
        <ele>689.4</ele>
        <time>2015-04-23T07:32:32Z</time>
      </trkpt>
      <trkpt lat="44.41753" lon="5.10259">
        <ele>694.69</ele>
        <time>2015-04-23T07:32:52Z</time>
      </trkpt>
      <trkpt lat="44.41757" lon="5.10261">
        <ele>694.69</ele>
        <time>2015-04-23T07:33:12Z</time>
      </trkpt>
      <trkpt lat="44.41772" lon="5.10256">
        <ele>695.17</ele>
        <time>2015-04-23T07:33:29Z</time>
      </trkpt>
      <trkpt lat="44.41784" lon="5.10253">
        <ele>697.57</ele>
        <time>2015-04-23T07:33:46Z</time>
      </trkpt>
      <trkpt lat="44.41791" lon="5.10256">
        <ele>698.05</ele>
        <time>2015-04-23T07:34:04Z</time>
      </trkpt>
      <trkpt lat="44.41796" lon="5.10253">
        <ele>699.98</ele>
        <time>2015-04-23T07:34:28Z</time>
      </trkpt>
      <trkpt lat="44.41806" lon="5.10252">
        <ele>701.42</ele>
        <time>2015-04-23T07:34:48Z</time>
      </trkpt>
      <trkpt lat="44.41818" lon="5.10249">
        <ele>702.38</ele>
        <time>2015-04-23T07:35:08Z</time>
      </trkpt>
      <trkpt lat="44.4182" lon="5.10249">
        <ele>703.34</ele>
        <time>2015-04-23T07:35:30Z</time>
      </trkpt>
      <trkpt lat="44.41823" lon="5.10248">
        <ele>704.3</ele>
        <time>2015-04-23T07:35:51Z</time>
      </trkpt>
      <trkpt lat="44.41834" lon="5.10239">
        <ele>703.82</ele>
        <time>2015-04-23T07:36:12Z</time>
      </trkpt>
      <trkpt lat="44.41851" lon="5.10232">
        <ele>704.78</ele>
        <time>2015-04-23T07:36:34Z</time>
      </trkpt>
      <trkpt lat="44.41867" lon="5.10224">
        <ele>713.92</ele>
        <time>2015-04-23T07:37:01Z</time>
      </trkpt>
      <trkpt lat="44.41877" lon="5.10213">
        <ele>717.76</ele>
        <time>2015-04-23T07:37:21Z</time>
      </trkpt>
      <trkpt lat="44.41881" lon="5.10209">
        <ele>719.68</ele>
        <time>2015-04-23T07:37:40Z</time>
      </trkpt>
      <trkpt lat="44.41887" lon="5.102">
        <ele>720.65</ele>
        <time>2015-04-23T07:38:03Z</time>
      </trkpt>
      <trkpt lat="44.41888" lon="5.10199">
        <ele>722.57</ele>
        <time>2015-04-23T07:38:28Z</time>
      </trkpt>
      <trkpt lat="44.41888" lon="5.10201">
        <ele>723.53</ele>
        <time>2015-04-23T07:38:52Z</time>
      </trkpt>
      <trkpt lat="44.41905" lon="5.10192">
        <ele>722.09</ele>
        <time>2015-04-23T07:39:14Z</time>
      </trkpt>
      <trkpt lat="44.41921" lon="5.10179">
        <ele>723.05</ele>
        <time>2015-04-23T07:39:38Z</time>
      </trkpt>
      <trkpt lat="44.41931" lon="5.10158">
        <ele>730.74</ele>
        <time>2015-04-23T07:40:02Z</time>
      </trkpt>
      <trkpt lat="44.4194" lon="5.10146">
        <ele>734.1</ele>
        <time>2015-04-23T07:40:24Z</time>
      </trkpt>
      <trkpt lat="44.41949" lon="5.10129">
        <ele>736.51</ele>
        <time>2015-04-23T07:40:47Z</time>
      </trkpt>
      <trkpt lat="44.41959" lon="5.10116">
        <ele>738.91</ele>
        <time>2015-04-23T07:41:10Z</time>
      </trkpt>
      <trkpt lat="44.41965" lon="5.10106">
        <ele>740.83</ele>
        <time>2015-04-23T07:41:29Z</time>
      </trkpt>
      <trkpt lat="44.41971" lon="5.1011">
        <ele>742.28</ele>
        <time>2015-04-23T07:41:48Z</time>
      </trkpt>
      <trkpt lat="44.4197" lon="5.10118">
        <ele>743.72</ele>
        <time>2015-04-23T07:42:10Z</time>
      </trkpt>
      <trkpt lat="44.41971" lon="5.10123">
        <ele>744.68</ele>
        <time>2015-04-23T07:42:33Z</time>
      </trkpt>
      <trkpt lat="44.41976" lon="5.10131">
        <ele>741.31</ele>
        <time>2015-04-23T07:42:55Z</time>
      </trkpt>
      <trkpt lat="44.41984" lon="5.10135">
        <ele>749.49</ele>
        <time>2015-04-23T07:43:17Z</time>
      </trkpt>
      <trkpt lat="44.41988" lon="5.10143">
        <ele>751.41</ele>
        <time>2015-04-23T07:43:38Z</time>
      </trkpt>
      <trkpt lat="44.41987" lon="5.1015">
        <ele>751.89</ele>
        <time>2015-04-23T07:44:00Z</time>
      </trkpt>
      <trkpt lat="44.41975" lon="5.1019">
        <ele>751.89</ele>
        <time>2015-04-23T07:44:24Z</time>
      </trkpt>
      <trkpt lat="44.41971" lon="5.10227">
        <ele>751.89</ele>
        <time>2015-04-23T07:44:48Z</time>
      </trkpt>
      <trkpt lat="44.41971" lon="5.10246">
        <ele>753.33</ele>
        <time>2015-04-23T07:45:08Z</time>
      </trkpt>
      <trkpt lat="44.4197" lon="5.10265">
        <ele>756.21</ele>
        <time>2015-04-23T07:45:31Z</time>
      </trkpt>
      <trkpt lat="44.41973" lon="5.10274">
        <ele>760.54</ele>
        <time>2015-04-23T07:45:53Z</time>
      </trkpt>
      <trkpt lat="44.41976" lon="5.10274">
        <ele>762.94</ele>
        <time>2015-04-23T07:46:15Z</time>
      </trkpt>
      <trkpt lat="44.41993" lon="5.10264">
        <ele>765.35</ele>
        <time>2015-04-23T07:46:38Z</time>
      </trkpt>
      <trkpt lat="44.42009" lon="5.10248">
        <ele>768.23</ele>
        <time>2015-04-23T07:46:58Z</time>
      </trkpt>
      <trkpt lat="44.42022" lon="5.10233">
        <ele>769.67</ele>
        <time>2015-04-23T07:47:23Z</time>
      </trkpt>
      <trkpt lat="44.42033" lon="5.10217">
        <ele>772.08</ele>
        <time>2015-04-23T07:47:47Z</time>
      </trkpt>
      <trkpt lat="44.42045" lon="5.10199">
        <ele>779.77</ele>
        <time>2015-04-23T07:48:09Z</time>
      </trkpt>
      <trkpt lat="44.42054" lon="5.10182">
        <ele>786.02</ele>
        <time>2015-04-23T07:48:33Z</time>
      </trkpt>
      <trkpt lat="44.42069" lon="5.10159">
        <ele>794.67</ele>
        <time>2015-04-23T07:48:57Z</time>
      </trkpt>
      <trkpt lat="44.42082" lon="5.10137">
        <ele>798.51</ele>
        <time>2015-04-23T07:49:21Z</time>
      </trkpt>
      <trkpt lat="44.42095" lon="5.10119">
        <ele>802.84</ele>
        <time>2015-04-23T07:49:45Z</time>
      </trkpt>
      <trkpt lat="44.42107" lon="5.10105">
        <ele>804.28</ele>
        <time>2015-04-23T07:50:07Z</time>
      </trkpt>
      <trkpt lat="44.42121" lon="5.10091">
        <ele>808.61</ele>
        <time>2015-04-23T07:50:30Z</time>
      </trkpt>
      <trkpt lat="44.42125" lon="5.10088">
        <ele>811.01</ele>
        <time>2015-04-23T07:50:53Z</time>
      </trkpt>
      <trkpt lat="44.42136" lon="5.10085">
        <ele>813.89</ele>
        <time>2015-04-23T07:51:17Z</time>
      </trkpt>
      <trkpt lat="44.42145" lon="5.10091">
        <ele>820.14</ele>
        <time>2015-04-23T07:51:40Z</time>
      </trkpt>
      <trkpt lat="44.42153" lon="5.10093">
        <ele>823.03</ele>
        <time>2015-04-23T07:52:05Z</time>
      </trkpt>
      <trkpt lat="44.42155" lon="5.10094">
        <ele>824.47</ele>
        <time>2015-04-23T07:52:29Z</time>
      </trkpt>
      <trkpt lat="44.42159" lon="5.10095">
        <ele>825.43</ele>
        <time>2015-04-23T07:52:52Z</time>
      </trkpt>
      <trkpt lat="44.42161" lon="5.10095">
        <ele>825.43</ele>
        <time>2015-04-23T07:53:18Z</time>
      </trkpt>
      <trkpt lat="44.42179" lon="5.10084">
        <ele>828.31</ele>
        <time>2015-04-23T07:53:39Z</time>
      </trkpt>
      <trkpt lat="44.42201" lon="5.1008">
        <ele>835.04</ele>
        <time>2015-04-23T07:54:02Z</time>
      </trkpt>
      <trkpt lat="44.42213" lon="5.10071">
        <ele>839.37</ele>
        <time>2015-04-23T07:54:22Z</time>
      </trkpt>
      <trkpt lat="44.42214" lon="5.1007">
        <ele>840.33</ele>
        <time>2015-04-23T07:54:44Z</time>
      </trkpt>
      <trkpt lat="44.42216" lon="5.10068">
        <ele>840.33</ele>
        <time>2015-04-23T07:55:07Z</time>
      </trkpt>
      <trkpt lat="44.42216" lon="5.10063">
        <ele>842.25</ele>
        <time>2015-04-23T07:55:29Z</time>
      </trkpt>
      <trkpt lat="44.42217" lon="5.10062">
        <ele>842.25</ele>
        <time>2015-04-23T07:55:51Z</time>
      </trkpt>
      <trkpt lat="44.42216" lon="5.10063">
        <ele>842.25</ele>
        <time>2015-04-23T07:56:17Z</time>
      </trkpt>
      <trkpt lat="44.42216" lon="5.10061">
        <ele>842.73</ele>
        <time>2015-04-23T07:56:39Z</time>
      </trkpt>
      <trkpt lat="44.42216" lon="5.10062">
        <ele>842.73</ele>
        <time>2015-04-23T07:57:08Z</time>
      </trkpt>
      <trkpt lat="44.42217" lon="5.10064">
        <ele>843.21</ele>
        <time>2015-04-23T07:57:40Z</time>
      </trkpt>
      <trkpt lat="44.42218" lon="5.10064">
        <ele>843.21</ele>
        <time>2015-04-23T07:58:01Z</time>
      </trkpt>
      <trkpt lat="44.42218" lon="5.10063">
        <ele>843.69</ele>
        <time>2015-04-23T07:58:26Z</time>
      </trkpt>
      <trkpt lat="44.42218" lon="5.10063">
        <ele>844.66</ele>
        <time>2015-04-23T07:58:50Z</time>
      </trkpt>
      <trkpt lat="44.42215" lon="5.10064">
        <ele>848.98</ele>
        <time>2015-04-23T07:59:13Z</time>
      </trkpt>
      <trkpt lat="44.42216" lon="5.10063">
        <ele>849.94</ele>
        <time>2015-04-23T07:59:39Z</time>
      </trkpt>
      <trkpt lat="44.42216" lon="5.10063">
        <ele>849.94</ele>
        <time>2015-04-23T08:00:04Z</time>
      </trkpt>
      <trkpt lat="44.42216" lon="5.10063">
        <ele>850.42</ele>
        <time>2015-04-23T08:00:34Z</time>
      </trkpt>
      <trkpt lat="44.42216" lon="5.10061">
        <ele>850.42</ele>
        <time>2015-04-23T08:00:59Z</time>
      </trkpt>
      <trkpt lat="44.42218" lon="5.1006">
        <ele>851.38</ele>
        <time>2015-04-23T08:01:21Z</time>
      </trkpt>
      <trkpt lat="44.42221" lon="5.10059">
        <ele>851.87</ele>
        <time>2015-04-23T08:01:44Z</time>
      </trkpt>
      <trkpt lat="44.42226" lon="5.10055">
        <ele>851.87</ele>
        <time>2015-04-23T08:02:05Z</time>
      </trkpt>
      <trkpt lat="44.42237" lon="5.10053">
        <ele>851.87</ele>
        <time>2015-04-23T08:02:21Z</time>
      </trkpt>
      <trkpt lat="44.42253" lon="5.10046">
        <ele>852.35</ele>
        <time>2015-04-23T08:02:39Z</time>
      </trkpt>
      <trkpt lat="44.42271" lon="5.10034">
        <ele>851.87</ele>
        <time>2015-04-23T08:02:55Z</time>
      </trkpt>
      <trkpt lat="44.42293" lon="5.10019">
        <ele>851.87</ele>
        <time>2015-04-23T08:03:17Z</time>
      </trkpt>
      <trkpt lat="44.42294" lon="5.10018">
        <ele>851.87</ele>
        <time>2015-04-23T08:03:18Z</time>
      </trkpt>
      <trkpt lat="44.42321" lon="5.10013">
        <ele>851.38</ele>
        <time>2015-04-23T08:03:39Z</time>
      </trkpt>
      <trkpt lat="44.42345" lon="5.10007">
        <ele>850.9</ele>
        <time>2015-04-23T08:04:01Z</time>
      </trkpt>
      <trkpt lat="44.42371" lon="5.09995">
        <ele>850.42</ele>
        <time>2015-04-23T08:04:23Z</time>
      </trkpt>
      <trkpt lat="44.42394" lon="5.09984">
        <ele>849.94</ele>
        <time>2015-04-23T08:04:45Z</time>
      </trkpt>
      <trkpt lat="44.42415" lon="5.09976">
        <ele>849.46</ele>
        <time>2015-04-23T08:05:06Z</time>
      </trkpt>
      <trkpt lat="44.42425" lon="5.09975">
        <ele>849.94</ele>
        <time>2015-04-23T08:05:15Z</time>
      </trkpt>
      <trkpt lat="44.42439" lon="5.09975">
        <ele>849.94</ele>
        <time>2015-04-23T08:05:30Z</time>
      </trkpt>
      <trkpt lat="44.42459" lon="5.0998">
        <ele>849.94</ele>
        <time>2015-04-23T08:05:49Z</time>
      </trkpt>
      <trkpt lat="44.42474" lon="5.0999">
        <ele>849.94</ele>
        <time>2015-04-23T08:06:09Z</time>
      </trkpt>
      <trkpt lat="44.42482" lon="5.10008">
        <ele>848.5</ele>
        <time>2015-04-23T08:06:28Z</time>
      </trkpt>
      <trkpt lat="44.42494" lon="5.10031">
        <ele>845.62</ele>
        <time>2015-04-23T08:06:47Z</time>
      </trkpt>
      <trkpt lat="44.42495" lon="5.10035">
        <ele>845.62</ele>
        <time>2015-04-23T08:06:50Z</time>
      </trkpt>
      <trkpt lat="44.42507" lon="5.10056">
        <ele>845.62</ele>
        <time>2015-04-23T08:07:07Z</time>
      </trkpt>
      <trkpt lat="44.42511" lon="5.10058">
        <ele>845.14</ele>
        <time>2015-04-23T08:07:11Z</time>
      </trkpt>
      <trkpt lat="44.42533" lon="5.10068">
        <ele>844.66</ele>
        <time>2015-04-23T08:07:31Z</time>
      </trkpt>
      <trkpt lat="44.42551" lon="5.10083">
        <ele>843.69</ele>
        <time>2015-04-23T08:07:50Z</time>
      </trkpt>
      <trkpt lat="44.4257" lon="5.10102">
        <ele>842.73</ele>
        <time>2015-04-23T08:08:11Z</time>
      </trkpt>
      <trkpt lat="44.42577" lon="5.10119">
        <ele>841.29</ele>
        <time>2015-04-23T08:08:25Z</time>
      </trkpt>
      <trkpt lat="44.42589" lon="5.10141">
        <ele>840.81</ele>
        <time>2015-04-23T08:08:41Z</time>
      </trkpt>
      <trkpt lat="44.42597" lon="5.10156">
        <ele>839.37</ele>
        <time>2015-04-23T08:08:52Z</time>
      </trkpt>
      <trkpt lat="44.426" lon="5.10162">
        <ele>838.89</ele>
        <time>2015-04-23T08:08:56Z</time>
      </trkpt>
      <trkpt lat="44.42611" lon="5.10187">
        <ele>837.93</ele>
        <time>2015-04-23T08:09:14Z</time>
      </trkpt>
      <trkpt lat="44.42625" lon="5.10207">
        <ele>836.48</ele>
        <time>2015-04-23T08:09:32Z</time>
      </trkpt>
      <trkpt lat="44.42648" lon="5.10223">
        <ele>836.96</ele>
        <time>2015-04-23T08:09:52Z</time>
      </trkpt>
      <trkpt lat="44.42648" lon="5.10224">
        <ele>836.96</ele>
        <time>2015-04-23T08:09:53Z</time>
      </trkpt>
      <trkpt lat="44.42652" lon="5.10241">
        <ele>836.96</ele>
        <time>2015-04-23T08:10:08Z</time>
      </trkpt>
      <trkpt lat="44.42659" lon="5.10257">
        <ele>837.45</ele>
        <time>2015-04-23T08:10:25Z</time>
      </trkpt>
      <trkpt lat="44.4266" lon="5.10257">
        <ele>837.45</ele>
        <time>2015-04-23T08:10:26Z</time>
      </trkpt>
      <trkpt lat="44.4268" lon="5.10257">
        <ele>837.93</ele>
        <time>2015-04-23T08:10:49Z</time>
      </trkpt>
      <trkpt lat="44.42695" lon="5.10263">
        <ele>839.37</ele>
        <time>2015-04-23T08:11:08Z</time>
      </trkpt>
      <trkpt lat="44.42709" lon="5.1027">
        <ele>840.81</ele>
        <time>2015-04-23T08:11:33Z</time>
      </trkpt>
      <trkpt lat="44.42715" lon="5.1027">
        <ele>841.77</ele>
        <time>2015-04-23T08:11:55Z</time>
      </trkpt>
      <trkpt lat="44.4272" lon="5.10272">
        <ele>843.69</ele>
        <time>2015-04-23T08:12:17Z</time>
      </trkpt>
      <trkpt lat="44.42724" lon="5.10275">
        <ele>845.62</ele>
        <time>2015-04-23T08:12:39Z</time>
      </trkpt>
      <trkpt lat="44.42728" lon="5.10277">
        <ele>846.58</ele>
        <time>2015-04-23T08:13:00Z</time>
      </trkpt>
      <trkpt lat="44.42729" lon="5.10277">
        <ele>845.62</ele>
        <time>2015-04-23T08:13:20Z</time>
      </trkpt>
      <trkpt lat="44.42731" lon="5.10278">
        <ele>844.18</ele>
        <time>2015-04-23T08:13:42Z</time>
      </trkpt>
      <trkpt lat="44.42732" lon="5.10278">
        <ele>842.73</ele>
        <time>2015-04-23T08:14:02Z</time>
      </trkpt>
      <trkpt lat="44.42735" lon="5.10278">
        <ele>841.29</ele>
        <time>2015-04-23T08:14:25Z</time>
      </trkpt>
      <trkpt lat="44.42737" lon="5.10279">
        <ele>838.89</ele>
        <time>2015-04-23T08:14:46Z</time>
      </trkpt>
      <trkpt lat="44.42738" lon="5.1028">
        <ele>836.96</ele>
        <time>2015-04-23T08:15:10Z</time>
      </trkpt>
      <trkpt lat="44.4274" lon="5.10281">
        <ele>835.52</ele>
        <time>2015-04-23T08:15:33Z</time>
      </trkpt>
      <trkpt lat="44.42743" lon="5.10282">
        <ele>836</ele>
        <time>2015-04-23T08:15:53Z</time>
      </trkpt>
      <trkpt lat="44.42787" lon="5.10312">
        <ele>839.85</ele>
        <time>2015-04-23T08:16:17Z</time>
      </trkpt>
      <trkpt lat="44.42809" lon="5.10333">
        <ele>842.73</ele>
        <time>2015-04-23T08:16:38Z</time>
      </trkpt>
      <trkpt lat="44.42813" lon="5.1034">
        <ele>843.21</ele>
        <time>2015-04-23T08:17:01Z</time>
      </trkpt>
      <trkpt lat="44.42817" lon="5.10342">
        <ele>843.21</ele>
        <time>2015-04-23T08:17:24Z</time>
      </trkpt>
      <trkpt lat="44.4288" lon="5.10368">
        <ele>877.82</ele>
        <time>2015-04-23T08:17:47Z</time>
      </trkpt>
      <trkpt lat="44.429" lon="5.10366">
        <ele>888.88</ele>
        <time>2015-04-23T08:18:08Z</time>
      </trkpt>
      <trkpt lat="44.42907" lon="5.10373">
        <ele>892.72</ele>
        <time>2015-04-23T08:18:27Z</time>
      </trkpt>
      <trkpt lat="44.42921" lon="5.10373">
        <ele>896.09</ele>
        <time>2015-04-23T08:18:46Z</time>
      </trkpt>
      <trkpt lat="44.42935" lon="5.10375">
        <ele>899.93</ele>
        <time>2015-04-23T08:19:06Z</time>
      </trkpt>
      <trkpt lat="44.42945" lon="5.10376">
        <ele>903.3</ele>
        <time>2015-04-23T08:19:26Z</time>
      </trkpt>
      <trkpt lat="44.42948" lon="5.10377">
        <ele>907.14</ele>
        <time>2015-04-23T08:19:45Z</time>
      </trkpt>
      <trkpt lat="44.42952" lon="5.10381">
        <ele>907.14</ele>
        <time>2015-04-23T08:20:07Z</time>
      </trkpt>
      <trkpt lat="44.42953" lon="5.10382">
        <ele>906.66</ele>
        <time>2015-04-23T08:20:28Z</time>
      </trkpt>
      <trkpt lat="44.42955" lon="5.10382">
        <ele>906.66</ele>
        <time>2015-04-23T08:20:51Z</time>
      </trkpt>
      <trkpt lat="44.42956" lon="5.10384">
        <ele>906.18</ele>
        <time>2015-04-23T08:21:13Z</time>
      </trkpt>
      <trkpt lat="44.42957" lon="5.10385">
        <ele>905.7</ele>
        <time>2015-04-23T08:21:34Z</time>
      </trkpt>
      <trkpt lat="44.42958" lon="5.10385">
        <ele>905.22</ele>
        <time>2015-04-23T08:21:55Z</time>
      </trkpt>
      <trkpt lat="44.42959" lon="5.10388">
        <ele>904.74</ele>
        <time>2015-04-23T08:22:17Z</time>
      </trkpt>
      <trkpt lat="44.42961" lon="5.1039">
        <ele>904.26</ele>
        <time>2015-04-23T08:22:37Z</time>
      </trkpt>
      <trkpt lat="44.43052" lon="5.10395">
        <ele>943.19</ele>
        <time>2015-04-23T08:23:02Z</time>
      </trkpt>
      <trkpt lat="44.43072" lon="5.10387">
        <ele>955.69</ele>
        <time>2015-04-23T08:23:23Z</time>
      </trkpt>
      <trkpt lat="44.43078" lon="5.10385">
        <ele>960.01</ele>
        <time>2015-04-23T08:23:41Z</time>
      </trkpt>
      <trkpt lat="44.43083" lon="5.10382">
        <ele>959.05</ele>
        <time>2015-04-23T08:24:07Z</time>
      </trkpt>
      <trkpt lat="44.43093" lon="5.10377">
        <ele>960.98</ele>
        <time>2015-04-23T08:24:27Z</time>
      </trkpt>
      <trkpt lat="44.431" lon="5.10371">
        <ele>964.34</ele>
        <time>2015-04-23T08:24:52Z</time>
      </trkpt>
      <trkpt lat="44.43103" lon="5.10372">
        <ele>965.3</ele>
        <time>2015-04-23T08:25:16Z</time>
      </trkpt>
      <trkpt lat="44.43108" lon="5.10372">
        <ele>966.74</ele>
        <time>2015-04-23T08:25:38Z</time>
      </trkpt>
      <trkpt lat="44.4311" lon="5.10374">
        <ele>969.15</ele>
        <time>2015-04-23T08:26:06Z</time>
      </trkpt>
      <trkpt lat="44.43112" lon="5.10373">
        <ele>969.15</ele>
        <time>2015-04-23T08:26:35Z</time>
      </trkpt>
      <trkpt lat="44.43115" lon="5.10373">
        <ele>969.63</ele>
        <time>2015-04-23T08:27:09Z</time>
      </trkpt>
      <trkpt lat="44.43115" lon="5.10372">
        <ele>972.03</ele>
        <time>2015-04-23T08:27:39Z</time>
      </trkpt>
      <trkpt lat="44.43116" lon="5.10373">
        <ele>972.03</ele>
        <time>2015-04-23T08:28:07Z</time>
      </trkpt>
      <trkpt lat="44.43117" lon="5.10373">
        <ele>972.51</ele>
        <time>2015-04-23T08:28:30Z</time>
      </trkpt>
      <trkpt lat="44.43128" lon="5.10367">
        <ele>972.51</ele>
        <time>2015-04-23T08:28:52Z</time>
      </trkpt>
      <trkpt lat="44.43137" lon="5.10361">
        <ele>973.47</ele>
        <time>2015-04-23T08:29:13Z</time>
      </trkpt>
      <trkpt lat="44.43142" lon="5.10358">
        <ele>973.47</ele>
        <time>2015-04-23T08:29:37Z</time>
      </trkpt>
      <trkpt lat="44.43146" lon="5.10356">
        <ele>973.47</ele>
        <time>2015-04-23T08:30:03Z</time>
      </trkpt>
      <trkpt lat="44.43154" lon="5.10351">
        <ele>973.47</ele>
        <time>2015-04-23T08:30:23Z</time>
      </trkpt>
      <trkpt lat="44.4316" lon="5.10347">
        <ele>972.99</ele>
        <time>2015-04-23T08:30:45Z</time>
      </trkpt>
      <trkpt lat="44.43168" lon="5.10339">
        <ele>972.99</ele>
        <time>2015-04-23T08:31:09Z</time>
      </trkpt>
      <trkpt lat="44.43173" lon="5.10334">
        <ele>973.95</ele>
        <time>2015-04-23T08:31:33Z</time>
      </trkpt>
      <trkpt lat="44.43177" lon="5.10329">
        <ele>975.39</ele>
        <time>2015-04-23T08:31:58Z</time>
      </trkpt>
      <trkpt lat="44.43181" lon="5.10324">
        <ele>976.84</ele>
        <time>2015-04-23T08:32:23Z</time>
      </trkpt>
      <trkpt lat="44.43185" lon="5.10317">
        <ele>979.72</ele>
        <time>2015-04-23T08:32:49Z</time>
      </trkpt>
      <trkpt lat="44.43189" lon="5.10311">
        <ele>981.64</ele>
        <time>2015-04-23T08:33:12Z</time>
      </trkpt>
      <trkpt lat="44.43194" lon="5.10305">
        <ele>983.09</ele>
        <time>2015-04-23T08:33:34Z</time>
      </trkpt>
      <trkpt lat="44.43204" lon="5.10293">
        <ele>987.89</ele>
        <time>2015-04-23T08:34:01Z</time>
      </trkpt>
      <trkpt lat="44.43208" lon="5.10289">
        <ele>988.85</ele>
        <time>2015-04-23T08:34:29Z</time>
      </trkpt>
      <trkpt lat="44.43213" lon="5.10282">
        <ele>990.3</ele>
        <time>2015-04-23T08:35:00Z</time>
      </trkpt>
      <trkpt lat="44.43215" lon="5.10278">
        <ele>993.66</ele>
        <time>2015-04-23T08:35:23Z</time>
      </trkpt>
      <trkpt lat="44.43218" lon="5.10275">
        <ele>995.1</ele>
        <time>2015-04-23T08:35:48Z</time>
      </trkpt>
      <trkpt lat="44.43222" lon="5.10272">
        <ele>996.54</ele>
        <time>2015-04-23T08:36:13Z</time>
      </trkpt>
      <trkpt lat="44.43225" lon="5.1027">
        <ele>997.51</ele>
        <time>2015-04-23T08:36:30Z</time>
      </trkpt>
      <trkpt lat="44.43231" lon="5.10269">
        <ele>998.47</ele>
        <time>2015-04-23T08:36:51Z</time>
      </trkpt>
      <trkpt lat="44.43264" lon="5.10248">
        <ele>1001.83</ele>
        <time>2015-04-23T08:37:10Z</time>
      </trkpt>
      <trkpt lat="44.433" lon="5.10235">
        <ele>1016.73</ele>
        <time>2015-04-23T08:37:29Z</time>
      </trkpt>
      <trkpt lat="44.43304" lon="5.1023">
        <ele>1021.06</ele>
        <time>2015-04-23T08:37:46Z</time>
      </trkpt>
      <trkpt lat="44.43319" lon="5.1022">
        <ele>1024.42</ele>
        <time>2015-04-23T08:38:03Z</time>
      </trkpt>
      <trkpt lat="44.43327" lon="5.10215">
        <ele>1028.75</ele>
        <time>2015-04-23T08:38:34Z</time>
      </trkpt>
      <trkpt lat="44.4332" lon="5.10212">
        <ele>1043.17</ele>
        <time>2015-04-23T08:38:53Z</time>
      </trkpt>
      <trkpt lat="44.43318" lon="5.10217">
        <ele>1046.53</ele>
        <time>2015-04-23T08:39:07Z</time>
      </trkpt>
      <trkpt lat="44.43317" lon="5.10217">
        <ele>1047.49</ele>
        <time>2015-04-23T08:39:26Z</time>
      </trkpt>
      <trkpt lat="44.43317" lon="5.10217">
        <ele>1047.97</ele>
        <time>2015-04-23T08:39:44Z</time>
      </trkpt>
      <trkpt lat="44.43317" lon="5.10218">
        <ele>1047.97</ele>
        <time>2015-04-23T08:40:00Z</time>
      </trkpt>
      <trkpt lat="44.43322" lon="5.10221">
        <ele>1048.45</ele>
        <time>2015-04-23T08:40:17Z</time>
      </trkpt>
      <trkpt lat="44.43327" lon="5.10222">
        <ele>1048.45</ele>
        <time>2015-04-23T08:40:31Z</time>
      </trkpt>
      <trkpt lat="44.43339" lon="5.10216">
        <ele>1050.86</ele>
        <time>2015-04-23T08:40:48Z</time>
      </trkpt>
      <trkpt lat="44.43349" lon="5.10211">
        <ele>1054.22</ele>
        <time>2015-04-23T08:41:04Z</time>
      </trkpt>
      <trkpt lat="44.43358" lon="5.1021">
        <ele>1058.07</ele>
        <time>2015-04-23T08:41:20Z</time>
      </trkpt>
      <trkpt lat="44.4337" lon="5.10207">
        <ele>1060.47</ele>
        <time>2015-04-23T08:41:37Z</time>
      </trkpt>
      <trkpt lat="44.43384" lon="5.10202">
        <ele>1064.32</ele>
        <time>2015-04-23T08:41:55Z</time>
      </trkpt>
      <trkpt lat="44.43397" lon="5.10199">
        <ele>1069.12</ele>
        <time>2015-04-23T08:42:11Z</time>
      </trkpt>
      <trkpt lat="44.43409" lon="5.10198">
        <ele>1071.53</ele>
        <time>2015-04-23T08:42:24Z</time>
      </trkpt>
      <trkpt lat="44.4342" lon="5.10198">
        <ele>1073.45</ele>
        <time>2015-04-23T08:42:36Z</time>
      </trkpt>
      <trkpt lat="44.43434" lon="5.10199">
        <ele>1074.41</ele>
        <time>2015-04-23T08:42:52Z</time>
      </trkpt>
      <trkpt lat="44.43439" lon="5.102">
        <ele>1074.41</ele>
        <time>2015-04-23T08:42:57Z</time>
      </trkpt>
      <trkpt lat="44.43459" lon="5.10204">
        <ele>1074.41</ele>
        <time>2015-04-23T08:43:15Z</time>
      </trkpt>
      <trkpt lat="44.43473" lon="5.10212">
        <ele>1075.37</ele>
        <time>2015-04-23T08:43:31Z</time>
      </trkpt>
      <trkpt lat="44.43485" lon="5.10223">
        <ele>1076.81</ele>
        <time>2015-04-23T08:43:47Z</time>
      </trkpt>
      <trkpt lat="44.43487" lon="5.10228">
        <ele>1077.29</ele>
        <time>2015-04-23T08:43:52Z</time>
      </trkpt>
      <trkpt lat="44.43492" lon="5.10239">
        <ele>1077.29</ele>
        <time>2015-04-23T08:44:04Z</time>
      </trkpt>
      <trkpt lat="44.43497" lon="5.1025">
        <ele>1077.78</ele>
        <time>2015-04-23T08:44:16Z</time>
      </trkpt>
      <trkpt lat="44.43503" lon="5.10261">
        <ele>1080.66</ele>
        <time>2015-04-23T08:44:31Z</time>
      </trkpt>
      <trkpt lat="44.43512" lon="5.10272">
        <ele>1080.66</ele>
        <time>2015-04-23T08:44:45Z</time>
      </trkpt>
      <trkpt lat="44.43514" lon="5.10274">
        <ele>1080.66</ele>
        <time>2015-04-23T08:44:47Z</time>
      </trkpt>
      <trkpt lat="44.43524" lon="5.10281">
        <ele>1081.14</ele>
        <time>2015-04-23T08:45:01Z</time>
      </trkpt>
      <trkpt lat="44.43534" lon="5.1029">
        <ele>1083.54</ele>
        <time>2015-04-23T08:45:14Z</time>
      </trkpt>
      <trkpt lat="44.43544" lon="5.10299">
        <ele>1088.83</ele>
        <time>2015-04-23T08:45:29Z</time>
      </trkpt>
      <trkpt lat="44.43553" lon="5.10305">
        <ele>1091.23</ele>
        <time>2015-04-23T08:45:38Z</time>
      </trkpt>
      <trkpt lat="44.43567" lon="5.10321">
        <ele>1091.71</ele>
        <time>2015-04-23T08:45:57Z</time>
      </trkpt>
      <trkpt lat="44.43577" lon="5.10336">
        <ele>1092.68</ele>
        <time>2015-04-23T08:46:13Z</time>
      </trkpt>
      <trkpt lat="44.43586" lon="5.10349">
        <ele>1093.16</ele>
        <time>2015-04-23T08:46:28Z</time>
      </trkpt>
      <trkpt lat="44.43596" lon="5.10362">
        <ele>1094.12</ele>
        <time>2015-04-23T08:46:46Z</time>
      </trkpt>
      <trkpt lat="44.43608" lon="5.10367">
        <ele>1095.56</ele>
        <time>2015-04-23T08:47:00Z</time>
      </trkpt>
      <trkpt lat="44.43624" lon="5.10376">
        <ele>1097</ele>
        <time>2015-04-23T08:47:18Z</time>
      </trkpt>
      <trkpt lat="44.43639" lon="5.10382">
        <ele>1097.48</ele>
        <time>2015-04-23T08:47:35Z</time>
      </trkpt>
      <trkpt lat="44.43657" lon="5.10391">
        <ele>1098.92</ele>
        <time>2015-04-23T08:47:53Z</time>
      </trkpt>
      <trkpt lat="44.43671" lon="5.10398">
        <ele>1099.4</ele>
        <time>2015-04-23T08:48:09Z</time>
      </trkpt>
      <trkpt lat="44.43681" lon="5.10406">
        <ele>1099.89</ele>
        <time>2015-04-23T08:48:24Z</time>
      </trkpt>
      <trkpt lat="44.43691" lon="5.10417">
        <ele>1101.81</ele>
        <time>2015-04-23T08:48:39Z</time>
      </trkpt>
      <trkpt lat="44.43694" lon="5.10418">
        <ele>1101.81</ele>
        <time>2015-04-23T08:48:42Z</time>
      </trkpt>
      <trkpt lat="44.43704" lon="5.1043">
        <ele>1102.29</ele>
        <time>2015-04-23T08:48:57Z</time>
      </trkpt>
      <trkpt lat="44.43712" lon="5.10435">
        <ele>1102.77</ele>
        <time>2015-04-23T08:49:18Z</time>
      </trkpt>
      <trkpt lat="44.43719" lon="5.10446">
        <ele>1101.81</ele>
        <time>2015-04-23T08:49:33Z</time>
      </trkpt>
      <trkpt lat="44.4373" lon="5.10463">
        <ele>1099.4</ele>
        <time>2015-04-23T08:49:49Z</time>
      </trkpt>
      <trkpt lat="44.43748" lon="5.1048">
        <ele>1098.92</ele>
        <time>2015-04-23T08:50:07Z</time>
      </trkpt>
      <trkpt lat="44.43765" lon="5.10494">
        <ele>1096.04</ele>
        <time>2015-04-23T08:50:27Z</time>
      </trkpt>
      <trkpt lat="44.43786" lon="5.10502">
        <ele>1098.44</ele>
        <time>2015-04-23T08:50:42Z</time>
      </trkpt>
      <trkpt lat="44.43806" lon="5.1051">
        <ele>1099.4</ele>
        <time>2015-04-23T08:51:00Z</time>
      </trkpt>
      <trkpt lat="44.43822" lon="5.10515">
        <ele>1100.85</ele>
        <time>2015-04-23T08:51:16Z</time>
      </trkpt>
      <trkpt lat="44.43829" lon="5.10518">
        <ele>1101.81</ele>
        <time>2015-04-23T08:51:32Z</time>
      </trkpt>
      <trkpt lat="44.43838" lon="5.10526">
        <ele>1103.25</ele>
        <time>2015-04-23T08:51:47Z</time>
      </trkpt>
      <trkpt lat="44.4385" lon="5.10534">
        <ele>1103.25</ele>
        <time>2015-04-23T08:52:03Z</time>
      </trkpt>
      <trkpt lat="44.43865" lon="5.10539">
        <ele>1103.25</ele>
        <time>2015-04-23T08:52:17Z</time>
      </trkpt>
      <trkpt lat="44.43876" lon="5.10543">
        <ele>1102.77</ele>
        <time>2015-04-23T08:52:35Z</time>
      </trkpt>
      <trkpt lat="44.43888" lon="5.10549">
        <ele>1100.37</ele>
        <time>2015-04-23T08:52:53Z</time>
      </trkpt>
      <trkpt lat="44.43906" lon="5.1056">
        <ele>1101.33</ele>
        <time>2015-04-23T08:53:11Z</time>
      </trkpt>
      <trkpt lat="44.43919" lon="5.10566">
        <ele>1102.29</ele>
        <time>2015-04-23T08:53:28Z</time>
      </trkpt>
      <trkpt lat="44.43926" lon="5.10574">
        <ele>1104.21</ele>
        <time>2015-04-23T08:53:47Z</time>
      </trkpt>
      <trkpt lat="44.43934" lon="5.10585">
        <ele>1106.61</ele>
        <time>2015-04-23T08:54:08Z</time>
      </trkpt>
      <trkpt lat="44.43942" lon="5.10595">
        <ele>1108.54</ele>
        <time>2015-04-23T08:54:25Z</time>
      </trkpt>
      <trkpt lat="44.43943" lon="5.10604">
        <ele>1110.94</ele>
        <time>2015-04-23T08:54:42Z</time>
      </trkpt>
      <trkpt lat="44.4395" lon="5.10614">
        <ele>1114.31</ele>
        <time>2015-04-23T08:54:57Z</time>
      </trkpt>
      <trkpt lat="44.43961" lon="5.10625">
        <ele>1117.19</ele>
        <time>2015-04-23T08:55:13Z</time>
      </trkpt>
      <trkpt lat="44.4397" lon="5.10639">
        <ele>1121.03</ele>
        <time>2015-04-23T08:55:33Z</time>
      </trkpt>
      <trkpt lat="44.43981" lon="5.10648">
        <ele>1124.4</ele>
        <time>2015-04-23T08:55:48Z</time>
      </trkpt>
      <trkpt lat="44.43987" lon="5.10659">
        <ele>1125.36</ele>
        <time>2015-04-23T08:56:01Z</time>
      </trkpt>
      <trkpt lat="44.43991" lon="5.10662">
        <ele>1126.8</ele>
        <time>2015-04-23T08:56:19Z</time>
      </trkpt>
      <trkpt lat="44.44004" lon="5.10661">
        <ele>1126.32</ele>
        <time>2015-04-23T08:56:35Z</time>
      </trkpt>
      <trkpt lat="44.4401" lon="5.10653">
        <ele>1124.88</ele>
        <time>2015-04-23T08:56:52Z</time>
      </trkpt>
      <trkpt lat="44.44015" lon="5.10648">
        <ele>1123.44</ele>
        <time>2015-04-23T08:57:00Z</time>
      </trkpt>
      <trkpt lat="44.44025" lon="5.1065">
        <ele>1122.48</ele>
        <time>2015-04-23T08:57:15Z</time>
      </trkpt>
      <trkpt lat="44.44033" lon="5.10649">
        <ele>1124.88</ele>
        <time>2015-04-23T08:57:33Z</time>
      </trkpt>
      <trkpt lat="44.44044" lon="5.10649">
        <ele>1125.84</ele>
        <time>2015-04-23T08:57:50Z</time>
      </trkpt>
      <trkpt lat="44.44051" lon="5.10652">
        <ele>1127.28</ele>
        <time>2015-04-23T08:58:06Z</time>
      </trkpt>
      <trkpt lat="44.44057" lon="5.10662">
        <ele>1128.73</ele>
        <time>2015-04-23T08:58:25Z</time>
      </trkpt>
      <trkpt lat="44.4406" lon="5.10666">
        <ele>1131.61</ele>
        <time>2015-04-23T08:58:40Z</time>
      </trkpt>
      <trkpt lat="44.44067" lon="5.10667">
        <ele>1134.01</ele>
        <time>2015-04-23T08:58:58Z</time>
      </trkpt>
      <trkpt lat="44.44075" lon="5.10666">
        <ele>1137.86</ele>
        <time>2015-04-23T08:59:14Z</time>
      </trkpt>
      <trkpt lat="44.44081" lon="5.10668">
        <ele>1139.78</ele>
        <time>2015-04-23T08:59:28Z</time>
      </trkpt>
      <trkpt lat="44.44089" lon="5.10674">
        <ele>1142.18</ele>
        <time>2015-04-23T08:59:47Z</time>
      </trkpt>
      <trkpt lat="44.44093" lon="5.1068">
        <ele>1145.55</ele>
        <time>2015-04-23T09:00:04Z</time>
      </trkpt>
      <trkpt lat="44.44095" lon="5.1068">
        <ele>1147.47</ele>
        <time>2015-04-23T09:00:20Z</time>
      </trkpt>
      <trkpt lat="44.44094" lon="5.1068">
        <ele>1148.91</ele>
        <time>2015-04-23T09:00:44Z</time>
      </trkpt>
      <trkpt lat="44.44097" lon="5.10681">
        <ele>1150.35</ele>
        <time>2015-04-23T09:01:02Z</time>
      </trkpt>
      <trkpt lat="44.44101" lon="5.1068">
        <ele>1151.8</ele>
        <time>2015-04-23T09:01:23Z</time>
      </trkpt>
      <trkpt lat="44.44105" lon="5.10681">
        <ele>1152.76</ele>
        <time>2015-04-23T09:01:42Z</time>
      </trkpt>
      <trkpt lat="44.44106" lon="5.10681">
        <ele>1153.24</ele>
        <time>2015-04-23T09:02:07Z</time>
      </trkpt>
      <trkpt lat="44.44106" lon="5.1068">
        <ele>1153.72</ele>
        <time>2015-04-23T09:02:32Z</time>
      </trkpt>
      <trkpt lat="44.44107" lon="5.10679">
        <ele>1154.68</ele>
        <time>2015-04-23T09:02:49Z</time>
      </trkpt>
      <trkpt lat="44.44115" lon="5.10676">
        <ele>1157.08</ele>
        <time>2015-04-23T09:03:05Z</time>
      </trkpt>
      <trkpt lat="44.44121" lon="5.10678">
        <ele>1159.01</ele>
        <time>2015-04-23T09:03:21Z</time>
      </trkpt>
      <trkpt lat="44.44127" lon="5.10677">
        <ele>1161.41</ele>
        <time>2015-04-23T09:03:34Z</time>
      </trkpt>
      <trkpt lat="44.44137" lon="5.10674">
        <ele>1162.85</ele>
        <time>2015-04-23T09:03:52Z</time>
      </trkpt>
      <trkpt lat="44.44138" lon="5.10674">
        <ele>1163.81</ele>
        <time>2015-04-23T09:04:13Z</time>
      </trkpt>
      <trkpt lat="44.44138" lon="5.10674">
        <ele>1165.26</ele>
        <time>2015-04-23T09:04:34Z</time>
      </trkpt>
      <trkpt lat="44.44139" lon="5.10674">
        <ele>1166.22</ele>
        <time>2015-04-23T09:05:01Z</time>
      </trkpt>
      <trkpt lat="44.44137" lon="5.10676">
        <ele>1166.7</ele>
        <time>2015-04-23T09:05:13Z</time>
      </trkpt>
      <trkpt lat="44.44138" lon="5.10676">
        <ele>1166.7</ele>
        <time>2015-04-23T09:05:36Z</time>
      </trkpt>
      <trkpt lat="44.44145" lon="5.10668">
        <ele>1165.74</ele>
        <time>2015-04-23T09:05:53Z</time>
      </trkpt>
      <trkpt lat="44.44148" lon="5.10666">
        <ele>1166.7</ele>
        <time>2015-04-23T09:06:15Z</time>
      </trkpt>
      <trkpt lat="44.4415" lon="5.10666">
        <ele>1167.66</ele>
        <time>2015-04-23T09:06:36Z</time>
      </trkpt>
      <trkpt lat="44.4416" lon="5.10663">
        <ele>1170.06</ele>
        <time>2015-04-23T09:06:53Z</time>
      </trkpt>
      <trkpt lat="44.4417" lon="5.10662">
        <ele>1172.95</ele>
        <time>2015-04-23T09:07:09Z</time>
      </trkpt>
      <trkpt lat="44.44177" lon="5.10658">
        <ele>1173.43</ele>
        <time>2015-04-23T09:07:24Z</time>
      </trkpt>
      <trkpt lat="44.44187" lon="5.10655">
        <ele>1172.95</ele>
        <time>2015-04-23T09:07:39Z</time>
      </trkpt>
      <trkpt lat="44.44194" lon="5.10653">
        <ele>1172.95</ele>
        <time>2015-04-23T09:07:57Z</time>
      </trkpt>
      <trkpt lat="44.4421" lon="5.10648">
        <ele>1172.47</ele>
        <time>2015-04-23T09:08:12Z</time>
      </trkpt>
      <trkpt lat="44.44221" lon="5.10645">
        <ele>1171.98</ele>
        <time>2015-04-23T09:08:26Z</time>
      </trkpt>
      <trkpt lat="44.44229" lon="5.10642">
        <ele>1171.98</ele>
        <time>2015-04-23T09:08:41Z</time>
      </trkpt>
      <trkpt lat="44.44242" lon="5.1064">
        <ele>1171.98</ele>
        <time>2015-04-23T09:08:55Z</time>
      </trkpt>
      <trkpt lat="44.44253" lon="5.10636">
        <ele>1171.02</ele>
        <time>2015-04-23T09:09:09Z</time>
      </trkpt>
      <trkpt lat="44.4426" lon="5.10633">
        <ele>1171.98</ele>
        <time>2015-04-23T09:09:22Z</time>
      </trkpt>
      <trkpt lat="44.44266" lon="5.10629">
        <ele>1171.98</ele>
        <time>2015-04-23T09:09:42Z</time>
      </trkpt>
      <trkpt lat="44.44279" lon="5.10628">
        <ele>1171.98</ele>
        <time>2015-04-23T09:10:02Z</time>
      </trkpt>
      <trkpt lat="44.44287" lon="5.10627">
        <ele>1171.5</ele>
        <time>2015-04-23T09:10:15Z</time>
      </trkpt>
      <trkpt lat="44.44294" lon="5.10626">
        <ele>1171.02</ele>
        <time>2015-04-23T09:10:31Z</time>
      </trkpt>
      <trkpt lat="44.44306" lon="5.10626">
        <ele>1170.06</ele>
        <time>2015-04-23T09:10:46Z</time>
      </trkpt>
      <trkpt lat="44.44316" lon="5.10628">
        <ele>1170.06</ele>
        <time>2015-04-23T09:11:00Z</time>
      </trkpt>
      <trkpt lat="44.4433" lon="5.10627">
        <ele>1172.47</ele>
        <time>2015-04-23T09:11:15Z</time>
      </trkpt>
      <trkpt lat="44.44344" lon="5.10623">
        <ele>1172.47</ele>
        <time>2015-04-23T09:11:32Z</time>
      </trkpt>
      <trkpt lat="44.44354" lon="5.10617">
        <ele>1171.02</ele>
        <time>2015-04-23T09:11:45Z</time>
      </trkpt>
      <trkpt lat="44.44365" lon="5.10614">
        <ele>1168.62</ele>
        <time>2015-04-23T09:11:59Z</time>
      </trkpt>
      <trkpt lat="44.44376" lon="5.10608">
        <ele>1168.14</ele>
        <time>2015-04-23T09:12:13Z</time>
      </trkpt>
      <trkpt lat="44.44387" lon="5.10599">
        <ele>1167.66</ele>
        <time>2015-04-23T09:12:29Z</time>
      </trkpt>
      <trkpt lat="44.44392" lon="5.1059">
        <ele>1167.18</ele>
        <time>2015-04-23T09:12:41Z</time>
      </trkpt>
      <trkpt lat="44.44398" lon="5.10586">
        <ele>1166.22</ele>
        <time>2015-04-23T09:12:54Z</time>
      </trkpt>
      <trkpt lat="44.44404" lon="5.10581">
        <ele>1166.22</ele>
        <time>2015-04-23T09:13:06Z</time>
      </trkpt>
      <trkpt lat="44.44415" lon="5.10584">
        <ele>1166.22</ele>
        <time>2015-04-23T09:13:26Z</time>
      </trkpt>
      <trkpt lat="44.44429" lon="5.10577">
        <ele>1168.14</ele>
        <time>2015-04-23T09:13:42Z</time>
      </trkpt>
      <trkpt lat="44.4444" lon="5.10571">
        <ele>1168.62</ele>
        <time>2015-04-23T09:13:58Z</time>
      </trkpt>
      <trkpt lat="44.4445" lon="5.10566">
        <ele>1169.58</ele>
        <time>2015-04-23T09:14:13Z</time>
      </trkpt>
      <trkpt lat="44.44456" lon="5.10561">
        <ele>1170.06</ele>
        <time>2015-04-23T09:14:21Z</time>
      </trkpt>
      <trkpt lat="44.44468" lon="5.10554">
        <ele>1171.02</ele>
        <time>2015-04-23T09:14:36Z</time>
      </trkpt>
      <trkpt lat="44.44477" lon="5.10554">
        <ele>1172.47</ele>
        <time>2015-04-23T09:14:53Z</time>
      </trkpt>
      <trkpt lat="44.44484" lon="5.10555">
        <ele>1173.43</ele>
        <time>2015-04-23T09:15:10Z</time>
      </trkpt>
      <trkpt lat="44.44486" lon="5.10554">
        <ele>1172.95</ele>
        <time>2015-04-23T09:15:30Z</time>
      </trkpt>
      <trkpt lat="44.44486" lon="5.10554">
        <ele>1172.47</ele>
        <time>2015-04-23T09:15:57Z</time>
      </trkpt>
      <trkpt lat="44.44487" lon="5.10554">
        <ele>1172.95</ele>
        <time>2015-04-23T09:16:20Z</time>
      </trkpt>
      <trkpt lat="44.44487" lon="5.10554">
        <ele>1173.43</ele>
        <time>2015-04-23T09:16:38Z</time>
      </trkpt>
      <trkpt lat="44.44487" lon="5.10554">
        <ele>1173.43</ele>
        <time>2015-04-23T09:16:55Z</time>
      </trkpt>
      <trkpt lat="44.44487" lon="5.10554">
        <ele>1174.39</ele>
        <time>2015-04-23T09:17:28Z</time>
      </trkpt>
      <trkpt lat="44.44487" lon="5.10554">
        <ele>1174.39</ele>
        <time>2015-04-23T09:17:42Z</time>
      </trkpt>
      <trkpt lat="44.44487" lon="5.10554">
        <ele>1174.39</ele>
        <time>2015-04-23T09:18:03Z</time>
      </trkpt>
      <trkpt lat="44.44487" lon="5.10554">
        <ele>1174.87</ele>
        <time>2015-04-23T09:18:21Z</time>
      </trkpt>
      <trkpt lat="44.44487" lon="5.10554">
        <ele>1174.39</ele>
        <time>2015-04-23T09:18:33Z</time>
      </trkpt>
      <trkpt lat="44.4449" lon="5.10549">
        <ele>1171.98</ele>
        <time>2015-04-23T09:18:49Z</time>
      </trkpt>
      <trkpt lat="44.44494" lon="5.10543">
        <ele>1169.1</ele>
        <time>2015-04-23T09:19:02Z</time>
      </trkpt>
      <trkpt lat="44.44501" lon="5.10537">
        <ele>1167.66</ele>
        <time>2015-04-23T09:19:16Z</time>
      </trkpt>
      <trkpt lat="44.4451" lon="5.10531">
        <ele>1169.1</ele>
        <time>2015-04-23T09:19:32Z</time>
      </trkpt>
      <trkpt lat="44.44519" lon="5.10525">
        <ele>1168.62</ele>
        <time>2015-04-23T09:19:47Z</time>
      </trkpt>
      <trkpt lat="44.44529" lon="5.10519">
        <ele>1168.62</ele>
        <time>2015-04-23T09:20:01Z</time>
      </trkpt>
      <trkpt lat="44.44535" lon="5.10508">
        <ele>1167.18</ele>
        <time>2015-04-23T09:20:15Z</time>
      </trkpt>
      <trkpt lat="44.4454" lon="5.10501">
        <ele>1166.7</ele>
        <time>2015-04-23T09:20:29Z</time>
      </trkpt>
      <trkpt lat="44.44546" lon="5.10495">
        <ele>1164.77</ele>
        <time>2015-04-23T09:20:43Z</time>
      </trkpt>
      <trkpt lat="44.44547" lon="5.10492">
        <ele>1164.77</ele>
        <time>2015-04-23T09:20:57Z</time>
      </trkpt>
      <trkpt lat="44.44552" lon="5.10487">
        <ele>1163.33</ele>
        <time>2015-04-23T09:21:09Z</time>
      </trkpt>
      <trkpt lat="44.44559" lon="5.10484">
        <ele>1164.29</ele>
        <time>2015-04-23T09:21:22Z</time>
      </trkpt>
      <trkpt lat="44.44568" lon="5.10479">
        <ele>1163.33</ele>
        <time>2015-04-23T09:21:37Z</time>
      </trkpt>
      <trkpt lat="44.44574" lon="5.10477">
        <ele>1159.49</ele>
        <time>2015-04-23T09:21:49Z</time>
      </trkpt>
      <trkpt lat="44.44585" lon="5.1047">
        <ele>1158.05</ele>
        <time>2015-04-23T09:22:04Z</time>
      </trkpt>
      <trkpt lat="44.44594" lon="5.10465">
        <ele>1154.68</ele>
        <time>2015-04-23T09:22:20Z</time>
      </trkpt>
      <trkpt lat="44.44601" lon="5.10457">
        <ele>1153.24</ele>
        <time>2015-04-23T09:22:33Z</time>
      </trkpt>
      <trkpt lat="44.4461" lon="5.10453">
        <ele>1152.28</ele>
        <time>2015-04-23T09:22:46Z</time>
      </trkpt>
      <trkpt lat="44.44621" lon="5.10449">
        <ele>1150.35</ele>
        <time>2015-04-23T09:23:00Z</time>
      </trkpt>
      <trkpt lat="44.44634" lon="5.10441">
        <ele>1148.43</ele>
        <time>2015-04-23T09:23:16Z</time>
      </trkpt>
      <trkpt lat="44.44641" lon="5.10432">
        <ele>1147.47</ele>
        <time>2015-04-23T09:23:28Z</time>
      </trkpt>
      <trkpt lat="44.44649" lon="5.10422">
        <ele>1147.47</ele>
        <time>2015-04-23T09:23:40Z</time>
      </trkpt>
      <trkpt lat="44.44661" lon="5.10409">
        <ele>1146.03</ele>
        <time>2015-04-23T09:23:57Z</time>
      </trkpt>
      <trkpt lat="44.44666" lon="5.10405">
        <ele>1147.47</ele>
        <time>2015-04-23T09:24:11Z</time>
      </trkpt>
      <trkpt lat="44.44675" lon="5.10394">
        <ele>1149.87</ele>
        <time>2015-04-23T09:24:28Z</time>
      </trkpt>
      <trkpt lat="44.44682" lon="5.10383">
        <ele>1150.35</ele>
        <time>2015-04-23T09:24:42Z</time>
      </trkpt>
      <trkpt lat="44.4469" lon="5.10374">
        <ele>1151.8</ele>
        <time>2015-04-23T09:24:56Z</time>
      </trkpt>
      <trkpt lat="44.44697" lon="5.10365">
        <ele>1152.28</ele>
        <time>2015-04-23T09:25:10Z</time>
      </trkpt>
      <trkpt lat="44.44703" lon="5.10362">
        <ele>1155.16</ele>
        <time>2015-04-23T09:25:26Z</time>
      </trkpt>
      <trkpt lat="44.4471" lon="5.10361">
        <ele>1157.08</ele>
        <time>2015-04-23T09:25:40Z</time>
      </trkpt>
      <trkpt lat="44.44715" lon="5.10358">
        <ele>1159.97</ele>
        <time>2015-04-23T09:25:54Z</time>
      </trkpt>
      <trkpt lat="44.44725" lon="5.10354">
        <ele>1162.85</ele>
        <time>2015-04-23T09:26:11Z</time>
      </trkpt>
      <trkpt lat="44.44733" lon="5.10351">
        <ele>1164.77</ele>
        <time>2015-04-23T09:26:30Z</time>
      </trkpt>
      <trkpt lat="44.44742" lon="5.10346">
        <ele>1167.18</ele>
        <time>2015-04-23T09:26:46Z</time>
      </trkpt>
      <trkpt lat="44.44748" lon="5.10343">
        <ele>1169.1</ele>
        <time>2015-04-23T09:27:04Z</time>
      </trkpt>
      <trkpt lat="44.44749" lon="5.10343">
        <ele>1169.58</ele>
        <time>2015-04-23T09:27:26Z</time>
      </trkpt>
      <trkpt lat="44.44755" lon="5.10338">
        <ele>1171.5</ele>
        <time>2015-04-23T09:27:40Z</time>
      </trkpt>
      <trkpt lat="44.4476" lon="5.10334">
        <ele>1175.35</ele>
        <time>2015-04-23T09:27:53Z</time>
      </trkpt>
      <trkpt lat="44.4477" lon="5.10331">
        <ele>1178.23</ele>
        <time>2015-04-23T09:28:10Z</time>
      </trkpt>
      <trkpt lat="44.44779" lon="5.10328">
        <ele>1181.12</ele>
        <time>2015-04-23T09:28:26Z</time>
      </trkpt>
      <trkpt lat="44.44789" lon="5.10324">
        <ele>1183.04</ele>
        <time>2015-04-23T09:28:45Z</time>
      </trkpt>
      <trkpt lat="44.44792" lon="5.10322">
        <ele>1183.04</ele>
        <time>2015-04-23T09:29:03Z</time>
      </trkpt>
      <trkpt lat="44.44799" lon="5.10318">
        <ele>1185.44</ele>
        <time>2015-04-23T09:29:18Z</time>
      </trkpt>
      <trkpt lat="44.44807" lon="5.10313">
        <ele>1188.33</ele>
        <time>2015-04-23T09:29:36Z</time>
      </trkpt>
      <trkpt lat="44.44815" lon="5.10312">
        <ele>1190.73</ele>
        <time>2015-04-23T09:29:53Z</time>
      </trkpt>
      <trkpt lat="44.44825" lon="5.10311">
        <ele>1193.61</ele>
        <time>2015-04-23T09:30:10Z</time>
      </trkpt>
      <trkpt lat="44.44833" lon="5.10309">
        <ele>1196.98</ele>
        <time>2015-04-23T09:30:26Z</time>
      </trkpt>
      <trkpt lat="44.44841" lon="5.10308">
        <ele>1198.42</ele>
        <time>2015-04-23T09:30:40Z</time>
      </trkpt>
      <trkpt lat="44.4485" lon="5.10308">
        <ele>1200.34</ele>
        <time>2015-04-23T09:30:55Z</time>
      </trkpt>
      <trkpt lat="44.44859" lon="5.10304">
        <ele>1203.23</ele>
        <time>2015-04-23T09:31:11Z</time>
      </trkpt>
      <trkpt lat="44.44868" lon="5.10304">
        <ele>1205.63</ele>
        <time>2015-04-23T09:31:27Z</time>
      </trkpt>
      <trkpt lat="44.44868" lon="5.10305">
        <ele>1206.11</ele>
        <time>2015-04-23T09:31:47Z</time>
      </trkpt>
      <trkpt lat="44.44873" lon="5.10299">
        <ele>1206.11</ele>
        <time>2015-04-23T09:32:04Z</time>
      </trkpt>
      <trkpt lat="44.44881" lon="5.10297">
        <ele>1208.03</ele>
        <time>2015-04-23T09:32:20Z</time>
      </trkpt>
      <trkpt lat="44.44888" lon="5.10298">
        <ele>1210.44</ele>
        <time>2015-04-23T09:32:34Z</time>
      </trkpt>
      <trkpt lat="44.44897" lon="5.10299">
        <ele>1212.84</ele>
        <time>2015-04-23T09:32:49Z</time>
      </trkpt>
      <trkpt lat="44.44903" lon="5.10298">
        <ele>1215.24</ele>
        <time>2015-04-23T09:33:07Z</time>
      </trkpt>
      <trkpt lat="44.44905" lon="5.10297">
        <ele>1216.21</ele>
        <time>2015-04-23T09:33:26Z</time>
      </trkpt>
      <trkpt lat="44.44915" lon="5.10296">
        <ele>1217.65</ele>
        <time>2015-04-23T09:33:43Z</time>
      </trkpt>
      <trkpt lat="44.44915" lon="5.10296">
        <ele>1219.09</ele>
        <time>2015-04-23T09:34:01Z</time>
      </trkpt>
      <trkpt lat="44.44916" lon="5.10296">
        <ele>1220.05</ele>
        <time>2015-04-23T09:34:15Z</time>
      </trkpt>
      <trkpt lat="44.44925" lon="5.10294">
        <ele>1221.49</ele>
        <time>2015-04-23T09:34:31Z</time>
      </trkpt>
      <trkpt lat="44.44936" lon="5.10292">
        <ele>1223.9</ele>
        <time>2015-04-23T09:34:47Z</time>
      </trkpt>
      <trkpt lat="44.44945" lon="5.10288">
        <ele>1225.34</ele>
        <time>2015-04-23T09:35:00Z</time>
      </trkpt>
      <trkpt lat="44.44953" lon="5.10283">
        <ele>1227.74</ele>
        <time>2015-04-23T09:35:16Z</time>
      </trkpt>
      <trkpt lat="44.44958" lon="5.10283">
        <ele>1229.18</ele>
        <time>2015-04-23T09:35:32Z</time>
      </trkpt>
      <trkpt lat="44.44965" lon="5.10284">
        <ele>1231.11</ele>
        <time>2015-04-23T09:35:48Z</time>
      </trkpt>
      <trkpt lat="44.44969" lon="5.10283">
        <ele>1232.07</ele>
        <time>2015-04-23T09:36:17Z</time>
      </trkpt>
      <trkpt lat="44.4498" lon="5.10282">
        <ele>1236.39</ele>
        <time>2015-04-23T09:36:33Z</time>
      </trkpt>
      <trkpt lat="44.4499" lon="5.10283">
        <ele>1238.32</ele>
        <time>2015-04-23T09:36:49Z</time>
      </trkpt>
      <trkpt lat="44.44999" lon="5.10281">
        <ele>1240.72</ele>
        <time>2015-04-23T09:37:05Z</time>
      </trkpt>
      <trkpt lat="44.45008" lon="5.10273">
        <ele>1239.28</ele>
        <time>2015-04-23T09:37:21Z</time>
      </trkpt>
      <trkpt lat="44.45018" lon="5.10268">
        <ele>1242.16</ele>
        <time>2015-04-23T09:37:35Z</time>
      </trkpt>
      <trkpt lat="44.45024" lon="5.10266">
        <ele>1246.01</ele>
        <time>2015-04-23T09:37:47Z</time>
      </trkpt>
      <trkpt lat="44.45032" lon="5.10258">
        <ele>1247.45</ele>
        <time>2015-04-23T09:38:03Z</time>
      </trkpt>
      <trkpt lat="44.45042" lon="5.10254">
        <ele>1250.81</ele>
        <time>2015-04-23T09:38:20Z</time>
      </trkpt>
      <trkpt lat="44.45052" lon="5.10247">
        <ele>1254.18</ele>
        <time>2015-04-23T09:38:34Z</time>
      </trkpt>
      <trkpt lat="44.45059" lon="5.10242">
        <ele>1255.62</ele>
        <time>2015-04-23T09:38:50Z</time>
      </trkpt>
      <trkpt lat="44.45066" lon="5.1024">
        <ele>1256.1</ele>
        <time>2015-04-23T09:39:04Z</time>
      </trkpt>
      <trkpt lat="44.45072" lon="5.10238">
        <ele>1257.54</ele>
        <time>2015-04-23T09:39:15Z</time>
      </trkpt>
      <trkpt lat="44.45081" lon="5.10236">
        <ele>1258.5</ele>
        <time>2015-04-23T09:39:30Z</time>
      </trkpt>
      <trkpt lat="44.45094" lon="5.10234">
        <ele>1260.43</ele>
        <time>2015-04-23T09:39:46Z</time>
      </trkpt>
      <trkpt lat="44.45106" lon="5.10235">
        <ele>1261.87</ele>
        <time>2015-04-23T09:40:02Z</time>
      </trkpt>
      <trkpt lat="44.45115" lon="5.10233">
        <ele>1264.27</ele>
        <time>2015-04-23T09:40:18Z</time>
      </trkpt>
      <trkpt lat="44.45127" lon="5.10233">
        <ele>1268.12</ele>
        <time>2015-04-23T09:40:40Z</time>
      </trkpt>
      <trkpt lat="44.45138" lon="5.10228">
        <ele>1270.52</ele>
        <time>2015-04-23T09:40:56Z</time>
      </trkpt>
      <trkpt lat="44.45152" lon="5.10223">
        <ele>1272.44</ele>
        <time>2015-04-23T09:41:15Z</time>
      </trkpt>
      <trkpt lat="44.45164" lon="5.10219">
        <ele>1274.36</ele>
        <time>2015-04-23T09:41:33Z</time>
      </trkpt>
      <trkpt lat="44.45179" lon="5.10216">
        <ele>1277.73</ele>
        <time>2015-04-23T09:41:53Z</time>
      </trkpt>
      <trkpt lat="44.45187" lon="5.10214">
        <ele>1280.13</ele>
        <time>2015-04-23T09:42:09Z</time>
      </trkpt>
      <trkpt lat="44.45193" lon="5.10215">
        <ele>1281.57</ele>
        <time>2015-04-23T09:42:22Z</time>
      </trkpt>
      <trkpt lat="44.45198" lon="5.10213">
        <ele>1283.02</ele>
        <time>2015-04-23T09:42:41Z</time>
      </trkpt>
      <trkpt lat="44.45208" lon="5.10213">
        <ele>1285.42</ele>
        <time>2015-04-23T09:42:56Z</time>
      </trkpt>
      <trkpt lat="44.45218" lon="5.10211">
        <ele>1289.75</ele>
        <time>2015-04-23T09:43:13Z</time>
      </trkpt>
      <trkpt lat="44.45227" lon="5.10209">
        <ele>1292.15</ele>
        <time>2015-04-23T09:43:27Z</time>
      </trkpt>
      <trkpt lat="44.45235" lon="5.10208">
        <ele>1294.07</ele>
        <time>2015-04-23T09:43:41Z</time>
      </trkpt>
      <trkpt lat="44.45242" lon="5.10205">
        <ele>1295.99</ele>
        <time>2015-04-23T09:43:54Z</time>
      </trkpt>
      <trkpt lat="44.45252" lon="5.10203">
        <ele>1298.88</ele>
        <time>2015-04-23T09:44:09Z</time>
      </trkpt>
      <trkpt lat="44.45259" lon="5.10201">
        <ele>1300.8</ele>
        <time>2015-04-23T09:44:21Z</time>
      </trkpt>
      <trkpt lat="44.45267" lon="5.10199">
        <ele>1303.2</ele>
        <time>2015-04-23T09:44:34Z</time>
      </trkpt>
      <trkpt lat="44.45276" lon="5.10196">
        <ele>1305.13</ele>
        <time>2015-04-23T09:44:48Z</time>
      </trkpt>
      <trkpt lat="44.45287" lon="5.10194">
        <ele>1306.57</ele>
        <time>2015-04-23T09:45:04Z</time>
      </trkpt>
      <trkpt lat="44.45291" lon="5.10199">
        <ele>1307.05</ele>
        <time>2015-04-23T09:45:18Z</time>
      </trkpt>
      <trkpt lat="44.45296" lon="5.10196">
        <ele>1307.53</ele>
        <time>2015-04-23T09:45:31Z</time>
      </trkpt>
      <trkpt lat="44.45307" lon="5.10189">
        <ele>1309.45</ele>
        <time>2015-04-23T09:45:45Z</time>
      </trkpt>
      <trkpt lat="44.45315" lon="5.10185">
        <ele>1310.41</ele>
        <time>2015-04-23T09:45:55Z</time>
      </trkpt>
      <trkpt lat="44.4532" lon="5.10184">
        <ele>1311.86</ele>
        <time>2015-04-23T09:46:04Z</time>
      </trkpt>
      <trkpt lat="44.45329" lon="5.10183">
        <ele>1313.3</ele>
        <time>2015-04-23T09:46:16Z</time>
      </trkpt>
      <trkpt lat="44.45338" lon="5.10179">
        <ele>1313.78</ele>
        <time>2015-04-23T09:46:29Z</time>
      </trkpt>
      <trkpt lat="44.45345" lon="5.10179">
        <ele>1315.22</ele>
        <time>2015-04-23T09:46:41Z</time>
      </trkpt>
      <trkpt lat="44.45347" lon="5.10178">
        <ele>1315.7</ele>
        <time>2015-04-23T09:46:44Z</time>
      </trkpt>
      <trkpt lat="44.45351" lon="5.10182">
        <ele>1317.14</ele>
        <time>2015-04-23T09:46:54Z</time>
      </trkpt>
      <trkpt lat="44.45361" lon="5.10181">
        <ele>1318.1</ele>
        <time>2015-04-23T09:47:06Z</time>
      </trkpt>
      <trkpt lat="44.45368" lon="5.1018">
        <ele>1318.1</ele>
        <time>2015-04-23T09:47:16Z</time>
      </trkpt>
      <trkpt lat="44.45374" lon="5.1018">
        <ele>1319.07</ele>
        <time>2015-04-23T09:47:27Z</time>
      </trkpt>
      <trkpt lat="44.45377" lon="5.1018">
        <ele>1319.55</ele>
        <time>2015-04-23T09:47:30Z</time>
      </trkpt>
      <trkpt lat="44.45387" lon="5.10179">
        <ele>1320.03</ele>
        <time>2015-04-23T09:47:40Z</time>
      </trkpt>
      <trkpt lat="44.45399" lon="5.10179">
        <ele>1321.95</ele>
        <time>2015-04-23T09:47:52Z</time>
      </trkpt>
      <trkpt lat="44.45409" lon="5.10182">
        <ele>1321.47</ele>
        <time>2015-04-23T09:48:02Z</time>
      </trkpt>
      <trkpt lat="44.45418" lon="5.10181">
        <ele>1320.99</ele>
        <time>2015-04-23T09:48:13Z</time>
      </trkpt>
      <trkpt lat="44.45429" lon="5.10183">
        <ele>1320.51</ele>
        <time>2015-04-23T09:48:25Z</time>
      </trkpt>
      <trkpt lat="44.45441" lon="5.10181">
        <ele>1320.99</ele>
        <time>2015-04-23T09:48:37Z</time>
      </trkpt>
      <trkpt lat="44.45446" lon="5.10179">
        <ele>1321.47</ele>
        <time>2015-04-23T09:48:42Z</time>
      </trkpt>
      <trkpt lat="44.45458" lon="5.10178">
        <ele>1324.83</ele>
        <time>2015-04-23T09:48:54Z</time>
      </trkpt>
      <trkpt lat="44.45468" lon="5.10177">
        <ele>1324.83</ele>
        <time>2015-04-23T09:49:05Z</time>
      </trkpt>
      <trkpt lat="44.45477" lon="5.10177">
        <ele>1324.83</ele>
        <time>2015-04-23T09:49:16Z</time>
      </trkpt>
      <trkpt lat="44.4549" lon="5.10177">
        <ele>1326.76</ele>
        <time>2015-04-23T09:49:30Z</time>
      </trkpt>
      <trkpt lat="44.45502" lon="5.10177">
        <ele>1329.64</ele>
        <time>2015-04-23T09:49:43Z</time>
      </trkpt>
      <trkpt lat="44.45508" lon="5.10178">
        <ele>1331.56</ele>
        <time>2015-04-23T09:49:55Z</time>
      </trkpt>
      <trkpt lat="44.45518" lon="5.10178">
        <ele>1333.01</ele>
        <time>2015-04-23T09:50:07Z</time>
      </trkpt>
      <trkpt lat="44.45524" lon="5.10183">
        <ele>1333.49</ele>
        <time>2015-04-23T09:50:20Z</time>
      </trkpt>
      <trkpt lat="44.45524" lon="5.10183">
        <ele>1333.49</ele>
        <time>2015-04-23T09:50:41Z</time>
      </trkpt>
      <trkpt lat="44.45525" lon="5.10183">
        <ele>1333.97</ele>
        <time>2015-04-23T09:51:04Z</time>
      </trkpt>
      <trkpt lat="44.45525" lon="5.10183">
        <ele>1333.97</ele>
        <time>2015-04-23T09:51:27Z</time>
      </trkpt>
      <trkpt lat="44.45525" lon="5.10183">
        <ele>1333.97</ele>
        <time>2015-04-23T09:51:46Z</time>
      </trkpt>
      <trkpt lat="44.45525" lon="5.10183">
        <ele>1333.49</ele>
        <time>2015-04-23T09:52:02Z</time>
      </trkpt>
      <trkpt lat="44.45525" lon="5.10183">
        <ele>1333.49</ele>
        <time>2015-04-23T09:52:29Z</time>
      </trkpt>
      <trkpt lat="44.45525" lon="5.10183">
        <ele>1333.49</ele>
        <time>2015-04-23T09:52:47Z</time>
      </trkpt>
      <trkpt lat="44.45525" lon="5.10183">
        <ele>1333.49</ele>
        <time>2015-04-23T09:53:05Z</time>
      </trkpt>
      <trkpt lat="44.45525" lon="5.10183">
        <ele>1333.49</ele>
        <time>2015-04-23T09:53:19Z</time>
      </trkpt>
      <trkpt lat="44.45525" lon="5.10183">
        <ele>1333.49</ele>
        <time>2015-04-23T09:53:47Z</time>
      </trkpt>
      <trkpt lat="44.45525" lon="5.10183">
        <ele>1333.49</ele>
        <time>2015-04-23T09:54:14Z</time>
      </trkpt>
      <trkpt lat="44.45525" lon="5.10183">
        <ele>1333.49</ele>
        <time>2015-04-23T09:54:40Z</time>
      </trkpt>
      <trkpt lat="44.45525" lon="5.10183">
        <ele>1333.01</ele>
        <time>2015-04-23T09:55:09Z</time>
      </trkpt>
      <trkpt lat="44.45525" lon="5.10183">
        <ele>1333.01</ele>
        <time>2015-04-23T09:55:30Z</time>
      </trkpt>
      <trkpt lat="44.45525" lon="5.10184">
        <ele>1333.01</ele>
        <time>2015-04-23T09:55:58Z</time>
      </trkpt>
      <trkpt lat="44.45525" lon="5.10183">
        <ele>1332.52</ele>
        <time>2015-04-23T09:56:21Z</time>
      </trkpt>
      <trkpt lat="44.45526" lon="5.10182">
        <ele>1332.52</ele>
        <time>2015-04-23T09:56:38Z</time>
      </trkpt>
      <trkpt lat="44.45528" lon="5.10182">
        <ele>1332.52</ele>
        <time>2015-04-23T09:56:52Z</time>
      </trkpt>
      <trkpt lat="44.45528" lon="5.10182">
        <ele>1332.52</ele>
        <time>2015-04-23T09:57:11Z</time>
      </trkpt>
      <trkpt lat="44.45529" lon="5.10182">
        <ele>1332.52</ele>
        <time>2015-04-23T09:57:37Z</time>
      </trkpt>
      <trkpt lat="44.45528" lon="5.10181">
        <ele>1332.52</ele>
        <time>2015-04-23T09:57:52Z</time>
      </trkpt>
      <trkpt lat="44.45527" lon="5.10182">
        <ele>1332.52</ele>
        <time>2015-04-23T09:58:13Z</time>
      </trkpt>
      <trkpt lat="44.45527" lon="5.10183">
        <ele>1332.52</ele>
        <time>2015-04-23T09:58:33Z</time>
      </trkpt>
      <trkpt lat="44.45527" lon="5.10184">
        <ele>1332.52</ele>
        <time>2015-04-23T09:58:56Z</time>
      </trkpt>
      <trkpt lat="44.45526" lon="5.10183">
        <ele>1332.52</ele>
        <time>2015-04-23T09:59:20Z</time>
      </trkpt>
      <trkpt lat="44.45524" lon="5.1018">
        <ele>1333.49</ele>
        <time>2015-04-23T09:59:45Z</time>
      </trkpt>
      <trkpt lat="44.45526" lon="5.10185">
        <ele>1333.97</ele>
        <time>2015-04-23T10:00:04Z</time>
      </trkpt>
      <trkpt lat="44.45526" lon="5.10184">
        <ele>1333.97</ele>
        <time>2015-04-23T10:00:27Z</time>
      </trkpt>
      <trkpt lat="44.45525" lon="5.10183">
        <ele>1333.49</ele>
        <time>2015-04-23T10:00:42Z</time>
      </trkpt>
      <trkpt lat="44.45525" lon="5.10183">
        <ele>1333.49</ele>
        <time>2015-04-23T10:01:00Z</time>
      </trkpt>
      <trkpt lat="44.45526" lon="5.10183">
        <ele>1333.49</ele>
        <time>2015-04-23T10:01:24Z</time>
      </trkpt>
      <trkpt lat="44.45526" lon="5.10184">
        <ele>1333.49</ele>
        <time>2015-04-23T10:01:51Z</time>
      </trkpt>
      <trkpt lat="44.45526" lon="5.10184">
        <ele>1333.49</ele>
        <time>2015-04-23T10:02:13Z</time>
      </trkpt>
      <trkpt lat="44.45527" lon="5.10185">
        <ele>1333.49</ele>
        <time>2015-04-23T10:02:37Z</time>
      </trkpt>
      <trkpt lat="44.45526" lon="5.10184">
        <ele>1333.49</ele>
        <time>2015-04-23T10:03:02Z</time>
      </trkpt>
      <trkpt lat="44.45526" lon="5.10184">
        <ele>1333.01</ele>
        <time>2015-04-23T10:03:25Z</time>
      </trkpt>
      <trkpt lat="44.45526" lon="5.10184">
        <ele>1333.01</ele>
        <time>2015-04-23T10:03:51Z</time>
      </trkpt>
      <trkpt lat="44.45526" lon="5.10184">
        <ele>1333.01</ele>
        <time>2015-04-23T10:04:17Z</time>
      </trkpt>
      <trkpt lat="44.45526" lon="5.10184">
        <ele>1333.49</ele>
        <time>2015-04-23T10:04:45Z</time>
      </trkpt>
      <trkpt lat="44.45526" lon="5.10184">
        <ele>1333.49</ele>
        <time>2015-04-23T10:05:08Z</time>
      </trkpt>
      <trkpt lat="44.45526" lon="5.10183">
        <ele>1333.49</ele>
        <time>2015-04-23T10:05:38Z</time>
      </trkpt>
      <trkpt lat="44.45523" lon="5.10179">
        <ele>1333.97</ele>
        <time>2015-04-23T10:06:05Z</time>
      </trkpt>
      <trkpt lat="44.45523" lon="5.10179">
        <ele>1333.97</ele>
        <time>2015-04-23T10:06:29Z</time>
      </trkpt>
      <trkpt lat="44.45523" lon="5.10179">
        <ele>1334.45</ele>
        <time>2015-04-23T10:06:53Z</time>
      </trkpt>
      <trkpt lat="44.45523" lon="5.1018">
        <ele>1334.45</ele>
        <time>2015-04-23T10:07:22Z</time>
      </trkpt>
      <trkpt lat="44.45523" lon="5.1018">
        <ele>1333.97</ele>
        <time>2015-04-23T10:07:50Z</time>
      </trkpt>
      <trkpt lat="44.45523" lon="5.1018">
        <ele>1333.97</ele>
        <time>2015-04-23T10:08:27Z</time>
      </trkpt>
      <trkpt lat="44.45524" lon="5.1018">
        <ele>1334.45</ele>
        <time>2015-04-23T10:09:00Z</time>
      </trkpt>
      <trkpt lat="44.45524" lon="5.10181">
        <ele>1334.45</ele>
        <time>2015-04-23T10:09:27Z</time>
      </trkpt>
      <trkpt lat="44.45526" lon="5.10185">
        <ele>1334.45</ele>
        <time>2015-04-23T10:10:00Z</time>
      </trkpt>
      <trkpt lat="44.45526" lon="5.10185">
        <ele>1334.93</ele>
        <time>2015-04-23T10:10:31Z</time>
      </trkpt>
      <trkpt lat="44.45526" lon="5.10184">
        <ele>1334.93</ele>
        <time>2015-04-23T10:11:04Z</time>
      </trkpt>
      <trkpt lat="44.45526" lon="5.10183">
        <ele>1334.93</ele>
        <time>2015-04-23T10:11:27Z</time>
      </trkpt>
      <trkpt lat="44.45525" lon="5.10183">
        <ele>1335.41</ele>
        <time>2015-04-23T10:12:03Z</time>
      </trkpt>
      <trkpt lat="44.45525" lon="5.10182">
        <ele>1335.89</ele>
        <time>2015-04-23T10:12:24Z</time>
      </trkpt>
      <trkpt lat="44.45525" lon="5.10182">
        <ele>1335.89</ele>
        <time>2015-04-23T10:12:58Z</time>
      </trkpt>
      <trkpt lat="44.45526" lon="5.10183">
        <ele>1335.89</ele>
        <time>2015-04-23T10:13:29Z</time>
      </trkpt>
      <trkpt lat="44.45525" lon="5.10183">
        <ele>1335.89</ele>
        <time>2015-04-23T10:13:56Z</time>
      </trkpt>
      <trkpt lat="44.45526" lon="5.10184">
        <ele>1335.89</ele>
        <time>2015-04-23T10:14:27Z</time>
      </trkpt>
      <trkpt lat="44.45526" lon="5.10184">
        <ele>1335.41</ele>
        <time>2015-04-23T10:15:01Z</time>
      </trkpt>
      <trkpt lat="44.45526" lon="5.10185">
        <ele>1334.93</ele>
        <time>2015-04-23T10:15:29Z</time>
      </trkpt>
      <trkpt lat="44.45526" lon="5.10184">
        <ele>1334.93</ele>
        <time>2015-04-23T10:15:58Z</time>
      </trkpt>
      <trkpt lat="44.45526" lon="5.10184">
        <ele>1334.45</ele>
        <time>2015-04-23T10:16:28Z</time>
      </trkpt>
      <trkpt lat="44.45525" lon="5.10181">
        <ele>1334.93</ele>
        <time>2015-04-23T10:17:02Z</time>
      </trkpt>
      <trkpt lat="44.45525" lon="5.10179">
        <ele>1335.41</ele>
        <time>2015-04-23T10:17:27Z</time>
      </trkpt>
      <trkpt lat="44.45525" lon="5.10181">
        <ele>1335.41</ele>
        <time>2015-04-23T10:18:01Z</time>
      </trkpt>
      <trkpt lat="44.45526" lon="5.10182">
        <ele>1335.41</ele>
        <time>2015-04-23T10:18:27Z</time>
      </trkpt>
      <trkpt lat="44.45525" lon="5.10181">
        <ele>1335.41</ele>
        <time>2015-04-23T10:18:53Z</time>
      </trkpt>
      <trkpt lat="44.45525" lon="5.10182">
        <ele>1335.41</ele>
        <time>2015-04-23T10:19:19Z</time>
      </trkpt>
      <trkpt lat="44.45526" lon="5.10183">
        <ele>1335.41</ele>
        <time>2015-04-23T10:19:43Z</time>
      </trkpt>
      <trkpt lat="44.45526" lon="5.10182">
        <ele>1335.41</ele>
        <time>2015-04-23T10:20:20Z</time>
      </trkpt>
      <trkpt lat="44.45526" lon="5.10182">
        <ele>1335.41</ele>
        <time>2015-04-23T10:20:53Z</time>
      </trkpt>
      <trkpt lat="44.45526" lon="5.10182">
        <ele>1335.41</ele>
        <time>2015-04-23T10:21:25Z</time>
      </trkpt>
      <trkpt lat="44.45526" lon="5.10182">
        <ele>1335.41</ele>
        <time>2015-04-23T10:21:53Z</time>
      </trkpt>
      <trkpt lat="44.45526" lon="5.10182">
        <ele>1335.41</ele>
        <time>2015-04-23T10:22:25Z</time>
      </trkpt>
      <trkpt lat="44.45526" lon="5.10183">
        <ele>1334.45</ele>
        <time>2015-04-23T10:23:03Z</time>
      </trkpt>
      <trkpt lat="44.45526" lon="5.10182">
        <ele>1333.49</ele>
        <time>2015-04-23T10:23:31Z</time>
      </trkpt>
      <trkpt lat="44.45526" lon="5.10182">
        <ele>1333.01</ele>
        <time>2015-04-23T10:23:48Z</time>
      </trkpt>
      <trkpt lat="44.45526" lon="5.10182">
        <ele>1333.01</ele>
        <time>2015-04-23T10:24:16Z</time>
      </trkpt>
      <trkpt lat="44.45525" lon="5.1018">
        <ele>1332.52</ele>
        <time>2015-04-23T10:24:38Z</time>
      </trkpt>
      <trkpt lat="44.45526" lon="5.10182">
        <ele>1332.52</ele>
        <time>2015-04-23T10:25:13Z</time>
      </trkpt>
      <trkpt lat="44.45526" lon="5.10179">
        <ele>1331.56</ele>
        <time>2015-04-23T10:25:41Z</time>
      </trkpt>
      <trkpt lat="44.45526" lon="5.1018">
        <ele>1330.6</ele>
        <time>2015-04-23T10:26:08Z</time>
      </trkpt>
      <trkpt lat="44.45526" lon="5.1018">
        <ele>1329.64</ele>
        <time>2015-04-23T10:26:41Z</time>
      </trkpt>
      <trkpt lat="44.45526" lon="5.1018">
        <ele>1329.64</ele>
        <time>2015-04-23T10:27:16Z</time>
      </trkpt>
      <trkpt lat="44.45526" lon="5.10181">
        <ele>1330.12</ele>
        <time>2015-04-23T10:27:49Z</time>
      </trkpt>
      <trkpt lat="44.45526" lon="5.10181">
        <ele>1330.12</ele>
        <time>2015-04-23T10:28:15Z</time>
      </trkpt>
      <trkpt lat="44.45526" lon="5.10181">
        <ele>1330.12</ele>
        <time>2015-04-23T10:28:40Z</time>
      </trkpt>
      <trkpt lat="44.45526" lon="5.10181">
        <ele>1329.64</ele>
        <time>2015-04-23T10:29:08Z</time>
      </trkpt>
      <trkpt lat="44.45526" lon="5.10182">
        <ele>1329.64</ele>
        <time>2015-04-23T10:29:29Z</time>
      </trkpt>
      <trkpt lat="44.45526" lon="5.10183">
        <ele>1329.64</ele>
        <time>2015-04-23T10:29:50Z</time>
      </trkpt>
      <trkpt lat="44.45526" lon="5.10183">
        <ele>1330.12</ele>
        <time>2015-04-23T10:30:09Z</time>
      </trkpt>
      <trkpt lat="44.45526" lon="5.10184">
        <ele>1330.12</ele>
        <time>2015-04-23T10:30:33Z</time>
      </trkpt>
      <trkpt lat="44.45526" lon="5.10184">
        <ele>1330.6</ele>
        <time>2015-04-23T10:31:02Z</time>
      </trkpt>
      <trkpt lat="44.45526" lon="5.10184">
        <ele>1331.08</ele>
        <time>2015-04-23T10:31:25Z</time>
      </trkpt>
      <trkpt lat="44.45526" lon="5.10183">
        <ele>1330.6</ele>
        <time>2015-04-23T10:31:45Z</time>
      </trkpt>
      <trkpt lat="44.45526" lon="5.10183">
        <ele>1330.6</ele>
        <time>2015-04-23T10:32:15Z</time>
      </trkpt>
      <trkpt lat="44.45526" lon="5.10184">
        <ele>1331.08</ele>
        <time>2015-04-23T10:32:46Z</time>
      </trkpt>
      <trkpt lat="44.45526" lon="5.10184">
        <ele>1331.08</ele>
        <time>2015-04-23T10:33:15Z</time>
      </trkpt>
      <trkpt lat="44.45526" lon="5.10184">
        <ele>1331.08</ele>
        <time>2015-04-23T10:33:46Z</time>
      </trkpt>
      <trkpt lat="44.45526" lon="5.10184">
        <ele>1330.6</ele>
        <time>2015-04-23T10:34:12Z</time>
      </trkpt>
      <trkpt lat="44.45526" lon="5.10184">
        <ele>1331.08</ele>
        <time>2015-04-23T10:34:47Z</time>
      </trkpt>
      <trkpt lat="44.45526" lon="5.10183">
        <ele>1331.08</ele>
        <time>2015-04-23T10:35:18Z</time>
      </trkpt>
      <trkpt lat="44.45526" lon="5.10183">
        <ele>1331.08</ele>
        <time>2015-04-23T10:35:49Z</time>
      </trkpt>
      <trkpt lat="44.45526" lon="5.10183">
        <ele>1331.56</ele>
        <time>2015-04-23T10:36:19Z</time>
      </trkpt>
      <trkpt lat="44.45526" lon="5.10183">
        <ele>1331.56</ele>
        <time>2015-04-23T10:36:36Z</time>
      </trkpt>
      <trkpt lat="44.45526" lon="5.10184">
        <ele>1331.56</ele>
        <time>2015-04-23T10:37:06Z</time>
      </trkpt>
      <trkpt lat="44.45526" lon="5.10184">
        <ele>1331.08</ele>
        <time>2015-04-23T10:37:38Z</time>
      </trkpt>
      <trkpt lat="44.45526" lon="5.10184">
        <ele>1331.08</ele>
        <time>2015-04-23T10:38:09Z</time>
      </trkpt>
      <trkpt lat="44.45526" lon="5.10183">
        <ele>1331.08</ele>
        <time>2015-04-23T10:38:45Z</time>
      </trkpt>
      <trkpt lat="44.45526" lon="5.10183">
        <ele>1330.6</ele>
        <time>2015-04-23T10:39:32Z</time>
      </trkpt>
      <trkpt lat="44.45526" lon="5.10184">
        <ele>1330.6</ele>
        <time>2015-04-23T10:40:09Z</time>
      </trkpt>
      <trkpt lat="44.45525" lon="5.10183">
        <ele>1330.6</ele>
        <time>2015-04-23T10:40:49Z</time>
      </trkpt>
      <trkpt lat="44.45525" lon="5.10183">
        <ele>1330.6</ele>
        <time>2015-04-23T10:41:29Z</time>
      </trkpt>
      <trkpt lat="44.45525" lon="5.10183">
        <ele>1330.6</ele>
        <time>2015-04-23T10:42:02Z</time>
      </trkpt>
      <trkpt lat="44.45525" lon="5.10183">
        <ele>1330.6</ele>
        <time>2015-04-23T10:42:43Z</time>
      </trkpt>
      <trkpt lat="44.45525" lon="5.10183">
        <ele>1330.6</ele>
        <time>2015-04-23T10:43:15Z</time>
      </trkpt>
      <trkpt lat="44.45525" lon="5.10183">
        <ele>1330.6</ele>
        <time>2015-04-23T10:43:50Z</time>
      </trkpt>
      <trkpt lat="44.45525" lon="5.10183">
        <ele>1331.08</ele>
        <time>2015-04-23T10:44:28Z</time>
      </trkpt>
      <trkpt lat="44.45525" lon="5.10183">
        <ele>1331.08</ele>
        <time>2015-04-23T10:45:00Z</time>
      </trkpt>
      <trkpt lat="44.45525" lon="5.10183">
        <ele>1331.08</ele>
        <time>2015-04-23T10:45:24Z</time>
      </trkpt>
      <trkpt lat="44.45525" lon="5.10183">
        <ele>1331.08</ele>
        <time>2015-04-23T10:45:54Z</time>
      </trkpt>
      <trkpt lat="44.45526" lon="5.10183">
        <ele>1331.08</ele>
        <time>2015-04-23T10:46:25Z</time>
      </trkpt>
      <trkpt lat="44.45526" lon="5.10183">
        <ele>1331.08</ele>
        <time>2015-04-23T10:46:59Z</time>
      </trkpt>
      <trkpt lat="44.45526" lon="5.10183">
        <ele>1331.56</ele>
        <time>2015-04-23T10:47:32Z</time>
      </trkpt>
      <trkpt lat="44.45526" lon="5.10182">
        <ele>1331.56</ele>
        <time>2015-04-23T10:48:04Z</time>
      </trkpt>
      <trkpt lat="44.45526" lon="5.10183">
        <ele>1332.04</ele>
        <time>2015-04-23T10:48:44Z</time>
      </trkpt>
      <trkpt lat="44.45526" lon="5.10183">
        <ele>1332.04</ele>
        <time>2015-04-23T10:49:03Z</time>
      </trkpt>
      <trkpt lat="44.45526" lon="5.10182">
        <ele>1332.04</ele>
        <time>2015-04-23T10:49:23Z</time>
      </trkpt>
      <trkpt lat="44.45526" lon="5.10182">
        <ele>1332.04</ele>
        <time>2015-04-23T10:49:52Z</time>
      </trkpt>
      <trkpt lat="44.45523" lon="5.10181">
        <ele>1333.01</ele>
        <time>2015-04-23T10:50:17Z</time>
      </trkpt>
      <trkpt lat="44.45516" lon="5.10178">
        <ele>1333.01</ele>
        <time>2015-04-23T10:50:32Z</time>
      </trkpt>
      <trkpt lat="44.45512" lon="5.10178">
        <ele>1333.01</ele>
        <time>2015-04-23T10:50:56Z</time>
      </trkpt>
      <trkpt lat="44.45504" lon="5.10177">
        <ele>1332.04</ele>
        <time>2015-04-23T10:51:13Z</time>
      </trkpt>
      <trkpt lat="44.45495" lon="5.10177">
        <ele>1330.6</ele>
        <time>2015-04-23T10:51:29Z</time>
      </trkpt>
      <trkpt lat="44.45491" lon="5.10178">
        <ele>1329.16</ele>
        <time>2015-04-23T10:51:44Z</time>
      </trkpt>
      <trkpt lat="44.45489" lon="5.10177">
        <ele>1329.16</ele>
        <time>2015-04-23T10:52:07Z</time>
      </trkpt>
      <trkpt lat="44.45484" lon="5.10176">
        <ele>1327.72</ele>
        <time>2015-04-23T10:52:15Z</time>
      </trkpt>
      <trkpt lat="44.45473" lon="5.10173">
        <ele>1325.8</ele>
        <time>2015-04-23T10:52:31Z</time>
      </trkpt>
      <trkpt lat="44.45459" lon="5.10174">
        <ele>1324.35</ele>
        <time>2015-04-23T10:52:46Z</time>
      </trkpt>
      <trkpt lat="44.45452" lon="5.10177">
        <ele>1323.87</ele>
        <time>2015-04-23T10:52:54Z</time>
      </trkpt>
      <trkpt lat="44.45434" lon="5.10178">
        <ele>1321.47</ele>
        <time>2015-04-23T10:53:13Z</time>
      </trkpt>
      <trkpt lat="44.45422" lon="5.10176">
        <ele>1320.99</ele>
        <time>2015-04-23T10:53:24Z</time>
      </trkpt>
      <trkpt lat="44.45404" lon="5.10178">
        <ele>1320.03</ele>
        <time>2015-04-23T10:53:41Z</time>
      </trkpt>
      <trkpt lat="44.4539" lon="5.10177">
        <ele>1320.51</ele>
        <time>2015-04-23T10:53:56Z</time>
      </trkpt>
      <trkpt lat="44.45376" lon="5.10177">
        <ele>1318.59</ele>
        <time>2015-04-23T10:54:13Z</time>
      </trkpt>
      <trkpt lat="44.45366" lon="5.10178">
        <ele>1317.14</ele>
        <time>2015-04-23T10:54:28Z</time>
      </trkpt>
      <trkpt lat="44.45354" lon="5.10178">
        <ele>1317.14</ele>
        <time>2015-04-23T10:54:44Z</time>
      </trkpt>
      <trkpt lat="44.45351" lon="5.10177">
        <ele>1317.14</ele>
        <time>2015-04-23T10:55:02Z</time>
      </trkpt>
      <trkpt lat="44.45342" lon="5.10176">
        <ele>1315.22</ele>
        <time>2015-04-23T10:55:17Z</time>
      </trkpt>
      <trkpt lat="44.45338" lon="5.10178">
        <ele>1314.74</ele>
        <time>2015-04-23T10:55:31Z</time>
      </trkpt>
      <trkpt lat="44.45326" lon="5.10181">
        <ele>1312.82</ele>
        <time>2015-04-23T10:55:48Z</time>
      </trkpt>
      <trkpt lat="44.45313" lon="5.10187">
        <ele>1310.9</ele>
        <time>2015-04-23T10:56:06Z</time>
      </trkpt>
      <trkpt lat="44.45304" lon="5.10192">
        <ele>1310.41</ele>
        <time>2015-04-23T10:56:24Z</time>
      </trkpt>
      <trkpt lat="44.45298" lon="5.10194">
        <ele>1308.97</ele>
        <time>2015-04-23T10:56:39Z</time>
      </trkpt>
      <trkpt lat="44.4529" lon="5.10196">
        <ele>1307.53</ele>
        <time>2015-04-23T10:56:54Z</time>
      </trkpt>
      <trkpt lat="44.4528" lon="5.10196">
        <ele>1304.65</ele>
        <time>2015-04-23T10:57:11Z</time>
      </trkpt>
      <trkpt lat="44.45268" lon="5.10198">
        <ele>1301.28</ele>
        <time>2015-04-23T10:57:26Z</time>
      </trkpt>
      <trkpt lat="44.45262" lon="5.10201">
        <ele>1299.36</ele>
        <time>2015-04-23T10:57:41Z</time>
      </trkpt>
      <trkpt lat="44.45255" lon="5.10201">
        <ele>1298.4</ele>
        <time>2015-04-23T10:57:58Z</time>
      </trkpt>
      <trkpt lat="44.4524" lon="5.10204">
        <ele>1295.51</ele>
        <time>2015-04-23T10:58:14Z</time>
      </trkpt>
      <trkpt lat="44.45233" lon="5.10205">
        <ele>1293.59</ele>
        <time>2015-04-23T10:58:30Z</time>
      </trkpt>
      <trkpt lat="44.45227" lon="5.10207">
        <ele>1292.63</ele>
        <time>2015-04-23T10:58:55Z</time>
      </trkpt>
      <trkpt lat="44.45213" lon="5.10209">
        <ele>1289.27</ele>
        <time>2015-04-23T10:59:12Z</time>
      </trkpt>
      <trkpt lat="44.45198" lon="5.10213">
        <ele>1284.94</ele>
        <time>2015-04-23T10:59:28Z</time>
      </trkpt>
      <trkpt lat="44.45182" lon="5.10216">
        <ele>1281.09</ele>
        <time>2015-04-23T10:59:45Z</time>
      </trkpt>
      <trkpt lat="44.45165" lon="5.10218">
        <ele>1276.29</ele>
        <time>2015-04-23T11:00:02Z</time>
      </trkpt>
      <trkpt lat="44.45151" lon="5.10223">
        <ele>1273.88</ele>
        <time>2015-04-23T11:00:18Z</time>
      </trkpt>
      <trkpt lat="44.45142" lon="5.10226">
        <ele>1272.92</ele>
        <time>2015-04-23T11:00:29Z</time>
      </trkpt>
      <trkpt lat="44.45129" lon="5.1023">
        <ele>1269.56</ele>
        <time>2015-04-23T11:00:45Z</time>
      </trkpt>
      <trkpt lat="44.45116" lon="5.10231">
        <ele>1267.64</ele>
        <time>2015-04-23T11:01:03Z</time>
      </trkpt>
      <trkpt lat="44.4511" lon="5.10233">
        <ele>1265.23</ele>
        <time>2015-04-23T11:01:18Z</time>
      </trkpt>
      <trkpt lat="44.45101" lon="5.10232">
        <ele>1262.35</ele>
        <time>2015-04-23T11:01:33Z</time>
      </trkpt>
      <trkpt lat="44.45089" lon="5.10233">
        <ele>1260.43</ele>
        <time>2015-04-23T11:01:48Z</time>
      </trkpt>
      <trkpt lat="44.45076" lon="5.10235">
        <ele>1257.06</ele>
        <time>2015-04-23T11:02:06Z</time>
      </trkpt>
      <trkpt lat="44.45065" lon="5.10238">
        <ele>1256.1</ele>
        <time>2015-04-23T11:02:24Z</time>
      </trkpt>
      <trkpt lat="44.45054" lon="5.10246">
        <ele>1253.22</ele>
        <time>2015-04-23T11:02:39Z</time>
      </trkpt>
      <trkpt lat="44.45044" lon="5.10251">
        <ele>1252.74</ele>
        <time>2015-04-23T11:02:55Z</time>
      </trkpt>
      <trkpt lat="44.45035" lon="5.10254">
        <ele>1251.77</ele>
        <time>2015-04-23T11:03:09Z</time>
      </trkpt>
      <trkpt lat="44.45028" lon="5.10259">
        <ele>1251.29</ele>
        <time>2015-04-23T11:03:22Z</time>
      </trkpt>
      <trkpt lat="44.45018" lon="5.10265">
        <ele>1248.89</ele>
        <time>2015-04-23T11:03:41Z</time>
      </trkpt>
      <trkpt lat="44.45008" lon="5.10271">
        <ele>1248.41</ele>
        <time>2015-04-23T11:03:57Z</time>
      </trkpt>
      <trkpt lat="44.45001" lon="5.10277">
        <ele>1247.45</ele>
        <time>2015-04-23T11:04:12Z</time>
      </trkpt>
      <trkpt lat="44.44992" lon="5.10279">
        <ele>1245.53</ele>
        <time>2015-04-23T11:04:27Z</time>
      </trkpt>
      <trkpt lat="44.44983" lon="5.10279">
        <ele>1243.12</ele>
        <time>2015-04-23T11:04:46Z</time>
      </trkpt>
      <trkpt lat="44.44969" lon="5.10281">
        <ele>1239.76</ele>
        <time>2015-04-23T11:05:07Z</time>
      </trkpt>
      <trkpt lat="44.4496" lon="5.10282">
        <ele>1237.83</ele>
        <time>2015-04-23T11:05:23Z</time>
      </trkpt>
      <trkpt lat="44.44953" lon="5.1028">
        <ele>1235.91</ele>
        <time>2015-04-23T11:05:38Z</time>
      </trkpt>
      <trkpt lat="44.44948" lon="5.10284">
        <ele>1234.95</ele>
        <time>2015-04-23T11:05:52Z</time>
      </trkpt>
      <trkpt lat="44.4494" lon="5.10288">
        <ele>1232.55</ele>
        <time>2015-04-23T11:06:08Z</time>
      </trkpt>
      <trkpt lat="44.44932" lon="5.10292">
        <ele>1229.66</ele>
        <time>2015-04-23T11:06:24Z</time>
      </trkpt>
      <trkpt lat="44.44924" lon="5.10293">
        <ele>1227.74</ele>
        <time>2015-04-23T11:06:39Z</time>
      </trkpt>
      <trkpt lat="44.44915" lon="5.10295">
        <ele>1226.3</ele>
        <time>2015-04-23T11:06:56Z</time>
      </trkpt>
      <trkpt lat="44.44908" lon="5.10295">
        <ele>1223.9</ele>
        <time>2015-04-23T11:07:09Z</time>
      </trkpt>
      <trkpt lat="44.44898" lon="5.10295">
        <ele>1221.01</ele>
        <time>2015-04-23T11:07:26Z</time>
      </trkpt>
      <trkpt lat="44.44891" lon="5.10297">
        <ele>1218.13</ele>
        <time>2015-04-23T11:07:40Z</time>
      </trkpt>
      <trkpt lat="44.44886" lon="5.10296">
        <ele>1215.72</ele>
        <time>2015-04-23T11:07:54Z</time>
      </trkpt>
      <trkpt lat="44.44881" lon="5.10296">
        <ele>1214.76</ele>
        <time>2015-04-23T11:08:09Z</time>
      </trkpt>
      <trkpt lat="44.44878" lon="5.10295">
        <ele>1213.8</ele>
        <time>2015-04-23T11:08:24Z</time>
      </trkpt>
      <trkpt lat="44.44864" lon="5.103">
        <ele>1210.92</ele>
        <time>2015-04-23T11:08:40Z</time>
      </trkpt>
      <trkpt lat="44.44852" lon="5.10304">
        <ele>1209</ele>
        <time>2015-04-23T11:08:55Z</time>
      </trkpt>
      <trkpt lat="44.44842" lon="5.10307">
        <ele>1205.63</ele>
        <time>2015-04-23T11:09:11Z</time>
      </trkpt>
      <trkpt lat="44.44831" lon="5.10306">
        <ele>1201.79</ele>
        <time>2015-04-23T11:09:29Z</time>
      </trkpt>
      <trkpt lat="44.44822" lon="5.10308">
        <ele>1199.38</ele>
        <time>2015-04-23T11:09:45Z</time>
      </trkpt>
      <trkpt lat="44.44817" lon="5.10309">
        <ele>1197.46</ele>
        <time>2015-04-23T11:09:59Z</time>
      </trkpt>
      <trkpt lat="44.44813" lon="5.10311">
        <ele>1196.5</ele>
        <time>2015-04-23T11:10:15Z</time>
      </trkpt>
      <trkpt lat="44.44804" lon="5.10315">
        <ele>1194.09</ele>
        <time>2015-04-23T11:10:30Z</time>
      </trkpt>
      <trkpt lat="44.44796" lon="5.10318">
        <ele>1191.21</ele>
        <time>2015-04-23T11:10:45Z</time>
      </trkpt>
      <trkpt lat="44.4479" lon="5.10322">
        <ele>1186.88</ele>
        <time>2015-04-23T11:11:00Z</time>
      </trkpt>
      <trkpt lat="44.44782" lon="5.10325">
        <ele>1184.96</ele>
        <time>2015-04-23T11:11:16Z</time>
      </trkpt>
      <trkpt lat="44.44772" lon="5.10326">
        <ele>1184</ele>
        <time>2015-04-23T11:11:33Z</time>
      </trkpt>
      <trkpt lat="44.44766" lon="5.10329">
        <ele>1182.56</ele>
        <time>2015-04-23T11:11:48Z</time>
      </trkpt>
      <trkpt lat="44.4476" lon="5.10333">
        <ele>1180.16</ele>
        <time>2015-04-23T11:12:03Z</time>
      </trkpt>
      <trkpt lat="44.44755" lon="5.10336">
        <ele>1178.23</ele>
        <time>2015-04-23T11:12:15Z</time>
      </trkpt>
      <trkpt lat="44.44746" lon="5.10341">
        <ele>1173.43</ele>
        <time>2015-04-23T11:12:31Z</time>
      </trkpt>
      <trkpt lat="44.44739" lon="5.10343">
        <ele>1171.02</ele>
        <time>2015-04-23T11:12:46Z</time>
      </trkpt>
      <trkpt lat="44.44733" lon="5.10344">
        <ele>1169.58</ele>
        <time>2015-04-23T11:13:00Z</time>
      </trkpt>
      <trkpt lat="44.44727" lon="5.10348">
        <ele>1167.66</ele>
        <time>2015-04-23T11:13:17Z</time>
      </trkpt>
      <trkpt lat="44.44718" lon="5.10354">
        <ele>1163.81</ele>
        <time>2015-04-23T11:13:34Z</time>
      </trkpt>
      <trkpt lat="44.44709" lon="5.10359">
        <ele>1161.41</ele>
        <time>2015-04-23T11:13:50Z</time>
      </trkpt>
      <trkpt lat="44.44705" lon="5.10359">
        <ele>1160.93</ele>
        <time>2015-04-23T11:14:07Z</time>
      </trkpt>
      <trkpt lat="44.44698" lon="5.10368">
        <ele>1159.49</ele>
        <time>2015-04-23T11:14:22Z</time>
      </trkpt>
      <trkpt lat="44.4469" lon="5.10376">
        <ele>1156.6</ele>
        <time>2015-04-23T11:14:37Z</time>
      </trkpt>
      <trkpt lat="44.44685" lon="5.10384">
        <ele>1155.64</ele>
        <time>2015-04-23T11:14:45Z</time>
      </trkpt>
      <trkpt lat="44.4468" lon="5.1039">
        <ele>1155.64</ele>
        <time>2015-04-23T11:14:52Z</time>
      </trkpt>
      <trkpt lat="44.44669" lon="5.10401">
        <ele>1153.24</ele>
        <time>2015-04-23T11:15:08Z</time>
      </trkpt>
      <trkpt lat="44.44653" lon="5.10415">
        <ele>1151.8</ele>
        <time>2015-04-23T11:15:24Z</time>
      </trkpt>
      <trkpt lat="44.44645" lon="5.10426">
        <ele>1151.8</ele>
        <time>2015-04-23T11:15:36Z</time>
      </trkpt>
      <trkpt lat="44.4463" lon="5.1044">
        <ele>1150.35</ele>
        <time>2015-04-23T11:15:52Z</time>
      </trkpt>
      <trkpt lat="44.44625" lon="5.10444">
        <ele>1150.84</ele>
        <time>2015-04-23T11:15:58Z</time>
      </trkpt>
      <trkpt lat="44.44613" lon="5.10451">
        <ele>1152.76</ele>
        <time>2015-04-23T11:16:12Z</time>
      </trkpt>
      <trkpt lat="44.446" lon="5.10457">
        <ele>1155.64</ele>
        <time>2015-04-23T11:16:28Z</time>
      </trkpt>
      <trkpt lat="44.44591" lon="5.10465">
        <ele>1157.56</ele>
        <time>2015-04-23T11:16:44Z</time>
      </trkpt>
      <trkpt lat="44.44587" lon="5.10468">
        <ele>1158.53</ele>
        <time>2015-04-23T11:16:59Z</time>
      </trkpt>
      <trkpt lat="44.44587" lon="5.10468">
        <ele>1159.01</ele>
        <time>2015-04-23T11:17:24Z</time>
      </trkpt>
      <trkpt lat="44.44587" lon="5.10469">
        <ele>1159.01</ele>
        <time>2015-04-23T11:17:47Z</time>
      </trkpt>
      <trkpt lat="44.44586" lon="5.10469">
        <ele>1159.01</ele>
        <time>2015-04-23T11:18:11Z</time>
      </trkpt>
      <trkpt lat="44.44583" lon="5.1047">
        <ele>1159.01</ele>
        <time>2015-04-23T11:18:26Z</time>
      </trkpt>
      <trkpt lat="44.44579" lon="5.10475">
        <ele>1159.97</ele>
        <time>2015-04-23T11:18:44Z</time>
      </trkpt>
      <trkpt lat="44.4457" lon="5.10476">
        <ele>1159.49</ele>
        <time>2015-04-23T11:19:02Z</time>
      </trkpt>
      <trkpt lat="44.44556" lon="5.10484">
        <ele>1159.01</ele>
        <time>2015-04-23T11:19:20Z</time>
      </trkpt>
      <trkpt lat="44.44551" lon="5.10491">
        <ele>1163.33</ele>
        <time>2015-04-23T11:19:44Z</time>
      </trkpt>
      <trkpt lat="44.44551" lon="5.10493">
        <ele>1162.85</ele>
        <time>2015-04-23T11:20:14Z</time>
      </trkpt>
      <trkpt lat="44.44546" lon="5.10498">
        <ele>1164.29</ele>
        <time>2015-04-23T11:20:39Z</time>
      </trkpt>
      <trkpt lat="44.4454" lon="5.10504">
        <ele>1167.18</ele>
        <time>2015-04-23T11:20:55Z</time>
      </trkpt>
      <trkpt lat="44.44539" lon="5.10507">
        <ele>1167.66</ele>
        <time>2015-04-23T11:21:18Z</time>
      </trkpt>
      <trkpt lat="44.44534" lon="5.10514">
        <ele>1169.58</ele>
        <time>2015-04-23T11:21:35Z</time>
      </trkpt>
      <trkpt lat="44.44525" lon="5.10522">
        <ele>1171.5</ele>
        <time>2015-04-23T11:21:53Z</time>
      </trkpt>
      <trkpt lat="44.4452" lon="5.10522">
        <ele>1171.98</ele>
        <time>2015-04-23T11:22:08Z</time>
      </trkpt>
      <trkpt lat="44.44511" lon="5.10529">
        <ele>1171.98</ele>
        <time>2015-04-23T11:22:26Z</time>
      </trkpt>
      <trkpt lat="44.44504" lon="5.10533">
        <ele>1171.5</ele>
        <time>2015-04-23T11:22:42Z</time>
      </trkpt>
      <trkpt lat="44.44497" lon="5.10537">
        <ele>1171.5</ele>
        <time>2015-04-23T11:22:58Z</time>
      </trkpt>
      <trkpt lat="44.44492" lon="5.10545">
        <ele>1171.5</ele>
        <time>2015-04-23T11:23:15Z</time>
      </trkpt>
      <trkpt lat="44.44481" lon="5.10551">
        <ele>1171.98</ele>
        <time>2015-04-23T11:23:33Z</time>
      </trkpt>
      <trkpt lat="44.44468" lon="5.10553">
        <ele>1172.95</ele>
        <time>2015-04-23T11:23:50Z</time>
      </trkpt>
      <trkpt lat="44.44454" lon="5.10561">
        <ele>1171.5</ele>
        <time>2015-04-23T11:24:08Z</time>
      </trkpt>
      <trkpt lat="44.44448" lon="5.10566">
        <ele>1171.98</ele>
        <time>2015-04-23T11:24:26Z</time>
      </trkpt>
      <trkpt lat="44.44438" lon="5.10569">
        <ele>1171.98</ele>
        <time>2015-04-23T11:24:43Z</time>
      </trkpt>
      <trkpt lat="44.4443" lon="5.10575">
        <ele>1171.5</ele>
        <time>2015-04-23T11:24:58Z</time>
      </trkpt>
      <trkpt lat="44.44421" lon="5.10577">
        <ele>1171.5</ele>
        <time>2015-04-23T11:25:21Z</time>
      </trkpt>
      <trkpt lat="44.44408" lon="5.10579">
        <ele>1171.5</ele>
        <time>2015-04-23T11:25:36Z</time>
      </trkpt>
      <trkpt lat="44.44397" lon="5.10583">
        <ele>1169.58</ele>
        <time>2015-04-23T11:25:53Z</time>
      </trkpt>
      <trkpt lat="44.44392" lon="5.10588">
        <ele>1169.58</ele>
        <time>2015-04-23T11:26:09Z</time>
      </trkpt>
      <trkpt lat="44.44379" lon="5.10603">
        <ele>1171.02</ele>
        <time>2015-04-23T11:26:30Z</time>
      </trkpt>
      <trkpt lat="44.44373" lon="5.10607">
        <ele>1171.5</ele>
        <time>2015-04-23T11:26:44Z</time>
      </trkpt>
      <trkpt lat="44.44359" lon="5.10616">
        <ele>1170.06</ele>
        <time>2015-04-23T11:27:01Z</time>
      </trkpt>
      <trkpt lat="44.44345" lon="5.10621">
        <ele>1170.06</ele>
        <time>2015-04-23T11:27:19Z</time>
      </trkpt>
      <trkpt lat="44.44334" lon="5.10624">
        <ele>1170.54</ele>
        <time>2015-04-23T11:27:34Z</time>
      </trkpt>
      <trkpt lat="44.44328" lon="5.10624">
        <ele>1170.54</ele>
        <time>2015-04-23T11:27:48Z</time>
      </trkpt>
      <trkpt lat="44.44324" lon="5.10623">
        <ele>1170.54</ele>
        <time>2015-04-23T11:28:08Z</time>
      </trkpt>
      <trkpt lat="44.44311" lon="5.10623">
        <ele>1169.58</ele>
        <time>2015-04-23T11:28:25Z</time>
      </trkpt>
      <trkpt lat="44.44294" lon="5.10622">
        <ele>1168.14</ele>
        <time>2015-04-23T11:28:42Z</time>
      </trkpt>
      <trkpt lat="44.4428" lon="5.10625">
        <ele>1166.7</ele>
        <time>2015-04-23T11:28:58Z</time>
      </trkpt>
      <trkpt lat="44.44264" lon="5.10627">
        <ele>1165.26</ele>
        <time>2015-04-23T11:29:14Z</time>
      </trkpt>
      <trkpt lat="44.44251" lon="5.10633">
        <ele>1164.29</ele>
        <time>2015-04-23T11:29:30Z</time>
      </trkpt>
      <trkpt lat="44.44236" lon="5.10637">
        <ele>1164.77</ele>
        <time>2015-04-23T11:29:49Z</time>
      </trkpt>
      <trkpt lat="44.44231" lon="5.10638">
        <ele>1166.7</ele>
        <time>2015-04-23T11:30:05Z</time>
      </trkpt>
      <trkpt lat="44.44226" lon="5.10639">
        <ele>1167.18</ele>
        <time>2015-04-23T11:30:21Z</time>
      </trkpt>
      <trkpt lat="44.44212" lon="5.10646">
        <ele>1171.5</ele>
        <time>2015-04-23T11:30:40Z</time>
      </trkpt>
      <trkpt lat="44.44206" lon="5.1065">
        <ele>1174.87</ele>
        <time>2015-04-23T11:31:07Z</time>
      </trkpt>
      <trkpt lat="44.44199" lon="5.1065">
        <ele>1172.95</ele>
        <time>2015-04-23T11:31:23Z</time>
      </trkpt>
      <trkpt lat="44.44187" lon="5.10652">
        <ele>1172.47</ele>
        <time>2015-04-23T11:31:40Z</time>
      </trkpt>
      <trkpt lat="44.44175" lon="5.10654">
        <ele>1170.06</ele>
        <time>2015-04-23T11:31:56Z</time>
      </trkpt>
      <trkpt lat="44.44168" lon="5.10654">
        <ele>1168.62</ele>
        <time>2015-04-23T11:32:14Z</time>
      </trkpt>
      <trkpt lat="44.44164" lon="5.10655">
        <ele>1169.1</ele>
        <time>2015-04-23T11:32:32Z</time>
      </trkpt>
      <trkpt lat="44.4416" lon="5.10656">
        <ele>1169.1</ele>
        <time>2015-04-23T11:32:45Z</time>
      </trkpt>
      <trkpt lat="44.44156" lon="5.10658">
        <ele>1168.14</ele>
        <time>2015-04-23T11:33:00Z</time>
      </trkpt>
      <trkpt lat="44.4415" lon="5.10662">
        <ele>1167.66</ele>
        <time>2015-04-23T11:33:18Z</time>
      </trkpt>
      <trkpt lat="44.44147" lon="5.10662">
        <ele>1166.22</ele>
        <time>2015-04-23T11:33:35Z</time>
      </trkpt>
      <trkpt lat="44.44141" lon="5.10665">
        <ele>1166.22</ele>
        <time>2015-04-23T11:33:52Z</time>
      </trkpt>
      <trkpt lat="44.44138" lon="5.10664">
        <ele>1163.81</ele>
        <time>2015-04-23T11:34:08Z</time>
      </trkpt>
      <trkpt lat="44.44135" lon="5.10662">
        <ele>1159.97</ele>
        <time>2015-04-23T11:34:26Z</time>
      </trkpt>
      <trkpt lat="44.44131" lon="5.1066">
        <ele>1156.6</ele>
        <time>2015-04-23T11:34:40Z</time>
      </trkpt>
      <trkpt lat="44.44121" lon="5.10659">
        <ele>1154.68</ele>
        <time>2015-04-23T11:34:57Z</time>
      </trkpt>
      <trkpt lat="44.44112" lon="5.10658">
        <ele>1150.84</ele>
        <time>2015-04-23T11:35:12Z</time>
      </trkpt>
      <trkpt lat="44.44097" lon="5.10658">
        <ele>1145.55</ele>
        <time>2015-04-23T11:35:28Z</time>
      </trkpt>
      <trkpt lat="44.44085" lon="5.10656">
        <ele>1141.22</ele>
        <time>2015-04-23T11:35:40Z</time>
      </trkpt>
      <trkpt lat="44.44075" lon="5.10659">
        <ele>1139.3</ele>
        <time>2015-04-23T11:35:59Z</time>
      </trkpt>
      <trkpt lat="44.44064" lon="5.10659">
        <ele>1137.38</ele>
        <time>2015-04-23T11:36:15Z</time>
      </trkpt>
      <trkpt lat="44.44058" lon="5.1066">
        <ele>1135.45</ele>
        <time>2015-04-23T11:36:31Z</time>
      </trkpt>
      <trkpt lat="44.44048" lon="5.10651">
        <ele>1132.57</ele>
        <time>2015-04-23T11:36:47Z</time>
      </trkpt>
      <trkpt lat="44.44038" lon="5.10646">
        <ele>1131.13</ele>
        <time>2015-04-23T11:37:04Z</time>
      </trkpt>
      <trkpt lat="44.44028" lon="5.10645">
        <ele>1129.69</ele>
        <time>2015-04-23T11:37:19Z</time>
      </trkpt>
      <trkpt lat="44.44013" lon="5.1065">
        <ele>1126.8</ele>
        <time>2015-04-23T11:37:35Z</time>
      </trkpt>
      <trkpt lat="44.44006" lon="5.10656">
        <ele>1127.28</ele>
        <time>2015-04-23T11:37:51Z</time>
      </trkpt>
      <trkpt lat="44.43988" lon="5.1066">
        <ele>1128.24</ele>
        <time>2015-04-23T11:38:08Z</time>
      </trkpt>
      <trkpt lat="44.43983" lon="5.10661">
        <ele>1128.73</ele>
        <time>2015-04-23T11:38:22Z</time>
      </trkpt>
      <trkpt lat="44.43981" lon="5.10661">
        <ele>1128.73</ele>
        <time>2015-04-23T11:38:38Z</time>
      </trkpt>
      <trkpt lat="44.43981" lon="5.10662">
        <ele>1128.73</ele>
        <time>2015-04-23T11:39:07Z</time>
      </trkpt>
      <trkpt lat="44.4398" lon="5.10662">
        <ele>1129.21</ele>
        <time>2015-04-23T11:39:32Z</time>
      </trkpt>
      <trkpt lat="44.43979" lon="5.10663">
        <ele>1129.21</ele>
        <time>2015-04-23T11:40:06Z</time>
      </trkpt>
      <trkpt lat="44.43979" lon="5.10663">
        <ele>1129.69</ele>
        <time>2015-04-23T11:40:34Z</time>
      </trkpt>
      <trkpt lat="44.43978" lon="5.10663">
        <ele>1130.17</ele>
        <time>2015-04-23T11:41:07Z</time>
      </trkpt>
      <trkpt lat="44.43978" lon="5.10663">
        <ele>1130.17</ele>
        <time>2015-04-23T11:41:32Z</time>
      </trkpt>
      <trkpt lat="44.43978" lon="5.10663">
        <ele>1130.17</ele>
        <time>2015-04-23T11:41:57Z</time>
      </trkpt>
      <trkpt lat="44.43976" lon="5.10661">
        <ele>1130.65</ele>
        <time>2015-04-23T11:42:24Z</time>
      </trkpt>
      <trkpt lat="44.43968" lon="5.10655">
        <ele>1130.17</ele>
        <time>2015-04-23T11:42:38Z</time>
      </trkpt>
      <trkpt lat="44.43964" lon="5.10657">
        <ele>1130.17</ele>
        <time>2015-04-23T11:42:53Z</time>
      </trkpt>
      <trkpt lat="44.43964" lon="5.10659">
        <ele>1129.69</ele>
        <time>2015-04-23T11:43:10Z</time>
      </trkpt>
      <trkpt lat="44.43965" lon="5.1066">
        <ele>1128.73</ele>
        <time>2015-04-23T11:43:29Z</time>
      </trkpt>
      <trkpt lat="44.43967" lon="5.10662">
        <ele>1127.28</ele>
        <time>2015-04-23T11:43:47Z</time>
      </trkpt>
      <trkpt lat="44.43969" lon="5.1067">
        <ele>1123.44</ele>
        <time>2015-04-23T11:44:02Z</time>
      </trkpt>
      <trkpt lat="44.43968" lon="5.1067">
        <ele>1121.03</ele>
        <time>2015-04-23T11:44:16Z</time>
      </trkpt>
      <trkpt lat="44.43966" lon="5.10674">
        <ele>1118.15</ele>
        <time>2015-04-23T11:44:31Z</time>
      </trkpt>
      <trkpt lat="44.43965" lon="5.10678">
        <ele>1115.75</ele>
        <time>2015-04-23T11:44:44Z</time>
      </trkpt>
      <trkpt lat="44.43964" lon="5.10681">
        <ele>1113.34</ele>
        <time>2015-04-23T11:44:58Z</time>
      </trkpt>
      <trkpt lat="44.43963" lon="5.10683">
        <ele>1111.9</ele>
        <time>2015-04-23T11:45:16Z</time>
      </trkpt>
      <trkpt lat="44.43963" lon="5.10688">
        <ele>1108.06</ele>
        <time>2015-04-23T11:45:30Z</time>
      </trkpt>
      <trkpt lat="44.43967" lon="5.10694">
        <ele>1105.65</ele>
        <time>2015-04-23T11:45:46Z</time>
      </trkpt>
      <trkpt lat="44.43968" lon="5.10696">
        <ele>1104.69</ele>
        <time>2015-04-23T11:46:03Z</time>
      </trkpt>
      <trkpt lat="44.43969" lon="5.10698">
        <ele>1103.73</ele>
        <time>2015-04-23T11:46:20Z</time>
      </trkpt>
      <trkpt lat="44.43975" lon="5.10711">
        <ele>1099.4</ele>
        <time>2015-04-23T11:46:36Z</time>
      </trkpt>
      <trkpt lat="44.43982" lon="5.10719">
        <ele>1097.48</ele>
        <time>2015-04-23T11:46:49Z</time>
      </trkpt>
      <trkpt lat="44.43986" lon="5.10726">
        <ele>1095.56</ele>
        <time>2015-04-23T11:47:07Z</time>
      </trkpt>
      <trkpt lat="44.43989" lon="5.10734">
        <ele>1091.71</ele>
        <time>2015-04-23T11:47:21Z</time>
      </trkpt>
      <trkpt lat="44.43992" lon="5.10739">
        <ele>1091.23</ele>
        <time>2015-04-23T11:47:39Z</time>
      </trkpt>
      <trkpt lat="44.43994" lon="5.10745">
        <ele>1087.87</ele>
        <time>2015-04-23T11:47:54Z</time>
      </trkpt>
      <trkpt lat="44.43997" lon="5.10753">
        <ele>1086.43</ele>
        <time>2015-04-23T11:48:10Z</time>
      </trkpt>
      <trkpt lat="44.43997" lon="5.10753">
        <ele>1085.95</ele>
        <time>2015-04-23T11:48:13Z</time>
      </trkpt>
      <trkpt lat="44.43996" lon="5.1076">
        <ele>1083.06</ele>
        <time>2015-04-23T11:48:26Z</time>
      </trkpt>
      <trkpt lat="44.43996" lon="5.10764">
        <ele>1081.14</ele>
        <time>2015-04-23T11:48:39Z</time>
      </trkpt>
      <trkpt lat="44.43997" lon="5.10773">
        <ele>1076.33</ele>
        <time>2015-04-23T11:48:54Z</time>
      </trkpt>
      <trkpt lat="44.43996" lon="5.10777">
        <ele>1073.45</ele>
        <time>2015-04-23T11:49:07Z</time>
      </trkpt>
      <trkpt lat="44.43995" lon="5.10783">
        <ele>1070.08</ele>
        <time>2015-04-23T11:49:20Z</time>
      </trkpt>
      <trkpt lat="44.43996" lon="5.10795">
        <ele>1068.64</ele>
        <time>2015-04-23T11:49:35Z</time>
      </trkpt>
      <trkpt lat="44.43994" lon="5.10805">
        <ele>1067.68</ele>
        <time>2015-04-23T11:49:50Z</time>
      </trkpt>
      <trkpt lat="44.43992" lon="5.10814">
        <ele>1065.28</ele>
        <time>2015-04-23T11:50:06Z</time>
      </trkpt>
      <trkpt lat="44.43991" lon="5.10819">
        <ele>1063.36</ele>
        <time>2015-04-23T11:50:24Z</time>
      </trkpt>
      <trkpt lat="44.43989" lon="5.10824">
        <ele>1061.91</ele>
        <time>2015-04-23T11:50:39Z</time>
      </trkpt>
      <trkpt lat="44.43988" lon="5.10829">
        <ele>1059.03</ele>
        <time>2015-04-23T11:50:56Z</time>
      </trkpt>
      <trkpt lat="44.43988" lon="5.10836">
        <ele>1058.07</ele>
        <time>2015-04-23T11:51:12Z</time>
      </trkpt>
      <trkpt lat="44.43987" lon="5.1084">
        <ele>1054.22</ele>
        <time>2015-04-23T11:51:25Z</time>
      </trkpt>
      <trkpt lat="44.43985" lon="5.10847">
        <ele>1048.94</ele>
        <time>2015-04-23T11:51:39Z</time>
      </trkpt>
      <trkpt lat="44.43984" lon="5.10854">
        <ele>1045.57</ele>
        <time>2015-04-23T11:51:55Z</time>
      </trkpt>
      <trkpt lat="44.43982" lon="5.10861">
        <ele>1044.13</ele>
        <time>2015-04-23T11:52:11Z</time>
      </trkpt>
      <trkpt lat="44.43979" lon="5.10868">
        <ele>1041.25</ele>
        <time>2015-04-23T11:52:27Z</time>
      </trkpt>
      <trkpt lat="44.43977" lon="5.10874">
        <ele>1038.84</ele>
        <time>2015-04-23T11:52:42Z</time>
      </trkpt>
      <trkpt lat="44.43974" lon="5.10879">
        <ele>1036.92</ele>
        <time>2015-04-23T11:52:59Z</time>
      </trkpt>
      <trkpt lat="44.43973" lon="5.10884">
        <ele>1035.48</ele>
        <time>2015-04-23T11:53:13Z</time>
      </trkpt>
      <trkpt lat="44.43971" lon="5.10893">
        <ele>1031.63</ele>
        <time>2015-04-23T11:53:28Z</time>
      </trkpt>
      <trkpt lat="44.43968" lon="5.10902">
        <ele>1027.31</ele>
        <time>2015-04-23T11:53:43Z</time>
      </trkpt>
      <trkpt lat="44.43967" lon="5.1091">
        <ele>1025.38</ele>
        <time>2015-04-23T11:53:57Z</time>
      </trkpt>
      <trkpt lat="44.43964" lon="5.1092">
        <ele>1023.94</ele>
        <time>2015-04-23T11:54:11Z</time>
      </trkpt>
      <trkpt lat="44.43958" lon="5.10932">
        <ele>1019.62</ele>
        <time>2015-04-23T11:54:24Z</time>
      </trkpt>
      <trkpt lat="44.43943" lon="5.10955">
        <ele>1010.96</ele>
        <time>2015-04-23T11:54:38Z</time>
      </trkpt>
      <trkpt lat="44.43935" lon="5.10974">
        <ele>1007.12</ele>
        <time>2015-04-23T11:54:52Z</time>
      </trkpt>
      <trkpt lat="44.43926" lon="5.10987">
        <ele>1002.31</ele>
        <time>2015-04-23T11:55:06Z</time>
      </trkpt>
      <trkpt lat="44.43919" lon="5.11003">
        <ele>999.91</ele>
        <time>2015-04-23T11:55:19Z</time>
      </trkpt>
      <trkpt lat="44.43905" lon="5.11025">
        <ele>995.1</ele>
        <time>2015-04-23T11:55:33Z</time>
      </trkpt>
      <trkpt lat="44.43901" lon="5.11032">
        <ele>993.66</ele>
        <time>2015-04-23T11:55:48Z</time>
      </trkpt>
      <trkpt lat="44.43889" lon="5.11053">
        <ele>988.85</ele>
        <time>2015-04-23T11:56:02Z</time>
      </trkpt>
      <trkpt lat="44.43886" lon="5.11066">
        <ele>989.81</ele>
        <time>2015-04-23T11:56:18Z</time>
      </trkpt>
      <trkpt lat="44.43879" lon="5.11076">
        <ele>985.97</ele>
        <time>2015-04-23T11:56:34Z</time>
      </trkpt>
      <trkpt lat="44.43872" lon="5.11084">
        <ele>981.64</ele>
        <time>2015-04-23T11:56:43Z</time>
      </trkpt>
      <trkpt lat="44.43853" lon="5.11103">
        <ele>976.84</ele>
        <time>2015-04-23T11:56:58Z</time>
      </trkpt>
      <trkpt lat="44.43845" lon="5.11116">
        <ele>975.88</ele>
        <time>2015-04-23T11:57:08Z</time>
      </trkpt>
      <trkpt lat="44.43835" lon="5.11135">
        <ele>972.03</ele>
        <time>2015-04-23T11:57:24Z</time>
      </trkpt>
      <trkpt lat="44.43827" lon="5.1115">
        <ele>970.59</ele>
        <time>2015-04-23T11:57:37Z</time>
      </trkpt>
      <trkpt lat="44.43817" lon="5.11176">
        <ele>971.07</ele>
        <time>2015-04-23T11:57:53Z</time>
      </trkpt>
      <trkpt lat="44.43814" lon="5.11197">
        <ele>971.07</ele>
        <time>2015-04-23T11:58:08Z</time>
      </trkpt>
      <trkpt lat="44.4381" lon="5.11207">
        <ele>972.51</ele>
        <time>2015-04-23T11:58:23Z</time>
      </trkpt>
      <trkpt lat="44.43807" lon="5.11222">
        <ele>971.55</ele>
        <time>2015-04-23T11:58:39Z</time>
      </trkpt>
      <trkpt lat="44.43806" lon="5.11236">
        <ele>970.11</ele>
        <time>2015-04-23T11:58:53Z</time>
      </trkpt>
      <trkpt lat="44.43806" lon="5.11244">
        <ele>967.7</ele>
        <time>2015-04-23T11:59:07Z</time>
      </trkpt>
      <trkpt lat="44.43804" lon="5.11257">
        <ele>966.26</ele>
        <time>2015-04-23T11:59:23Z</time>
      </trkpt>
      <trkpt lat="44.438" lon="5.11273">
        <ele>963.38</ele>
        <time>2015-04-23T11:59:38Z</time>
      </trkpt>
      <trkpt lat="44.43796" lon="5.11278">
        <ele>962.42</ele>
        <time>2015-04-23T11:59:50Z</time>
      </trkpt>
      <trkpt lat="44.43796" lon="5.11278">
        <ele>962.9</ele>
        <time>2015-04-23T12:00:04Z</time>
      </trkpt>
      <trkpt lat="44.43796" lon="5.11277">
        <ele>962.42</ele>
        <time>2015-04-23T12:00:27Z</time>
      </trkpt>
      <trkpt lat="44.43796" lon="5.11278">
        <ele>963.38</ele>
        <time>2015-04-23T12:00:49Z</time>
      </trkpt>
      <trkpt lat="44.43796" lon="5.11278">
        <ele>963.38</ele>
        <time>2015-04-23T12:01:16Z</time>
      </trkpt>
      <trkpt lat="44.43796" lon="5.11278">
        <ele>963.38</ele>
        <time>2015-04-23T12:01:39Z</time>
      </trkpt>
      <trkpt lat="44.43797" lon="5.11276">
        <ele>963.38</ele>
        <time>2015-04-23T12:01:57Z</time>
      </trkpt>
      <trkpt lat="44.43795" lon="5.11275">
        <ele>963.86</ele>
        <time>2015-04-23T12:02:16Z</time>
      </trkpt>
      <trkpt lat="44.43794" lon="5.11276">
        <ele>964.82</ele>
        <time>2015-04-23T12:02:36Z</time>
      </trkpt>
      <trkpt lat="44.43786" lon="5.11287">
        <ele>965.3</ele>
        <time>2015-04-23T12:02:52Z</time>
      </trkpt>
      <trkpt lat="44.43777" lon="5.11296">
        <ele>962.42</ele>
        <time>2015-04-23T12:03:08Z</time>
      </trkpt>
      <trkpt lat="44.43771" lon="5.11299">
        <ele>958.57</ele>
        <time>2015-04-23T12:03:20Z</time>
      </trkpt>
      <trkpt lat="44.43761" lon="5.11303">
        <ele>954.25</ele>
        <time>2015-04-23T12:03:34Z</time>
      </trkpt>
      <trkpt lat="44.43752" lon="5.1131">
        <ele>950.4</ele>
        <time>2015-04-23T12:03:50Z</time>
      </trkpt>
      <trkpt lat="44.43745" lon="5.11325">
        <ele>945.11</ele>
        <time>2015-04-23T12:04:06Z</time>
      </trkpt>
      <trkpt lat="44.43746" lon="5.11343">
        <ele>940.31</ele>
        <time>2015-04-23T12:04:23Z</time>
      </trkpt>
      <trkpt lat="44.43746" lon="5.11357">
        <ele>939.83</ele>
        <time>2015-04-23T12:04:38Z</time>
      </trkpt>
      <trkpt lat="44.43745" lon="5.11371">
        <ele>937.9</ele>
        <time>2015-04-23T12:04:53Z</time>
      </trkpt>
      <trkpt lat="44.43746" lon="5.11388">
        <ele>934.06</ele>
        <time>2015-04-23T12:05:09Z</time>
      </trkpt>
      <trkpt lat="44.43749" lon="5.114">
        <ele>929.25</ele>
        <time>2015-04-23T12:05:26Z</time>
      </trkpt>
      <trkpt lat="44.43751" lon="5.11408">
        <ele>927.33</ele>
        <time>2015-04-23T12:05:39Z</time>
      </trkpt>
      <trkpt lat="44.43759" lon="5.11427">
        <ele>926.37</ele>
        <time>2015-04-23T12:05:54Z</time>
      </trkpt>
      <trkpt lat="44.43761" lon="5.11431">
        <ele>924.93</ele>
        <time>2015-04-23T12:06:10Z</time>
      </trkpt>
      <trkpt lat="44.43768" lon="5.11445">
        <ele>921.08</ele>
        <time>2015-04-23T12:06:23Z</time>
      </trkpt>
      <trkpt lat="44.43773" lon="5.11452">
        <ele>919.64</ele>
        <time>2015-04-23T12:06:39Z</time>
      </trkpt>
      <trkpt lat="44.43788" lon="5.11452">
        <ele>919.64</ele>
        <time>2015-04-23T12:06:56Z</time>
      </trkpt>
      <trkpt lat="44.4379" lon="5.1147">
        <ele>923</ele>
        <time>2015-04-23T12:07:10Z</time>
      </trkpt>
      <trkpt lat="44.43789" lon="5.1149">
        <ele>923</ele>
        <time>2015-04-23T12:07:25Z</time>
      </trkpt>
      <trkpt lat="44.43795" lon="5.11505">
        <ele>918.68</ele>
        <time>2015-04-23T12:07:42Z</time>
      </trkpt>
      <trkpt lat="44.43792" lon="5.11516">
        <ele>921.56</ele>
        <time>2015-04-23T12:07:56Z</time>
      </trkpt>
      <trkpt lat="44.43787" lon="5.11529">
        <ele>923.48</ele>
        <time>2015-04-23T12:08:09Z</time>
      </trkpt>
      <trkpt lat="44.43786" lon="5.11542">
        <ele>926.85</ele>
        <time>2015-04-23T12:08:23Z</time>
      </trkpt>
      <trkpt lat="44.43783" lon="5.11558">
        <ele>931.65</ele>
        <time>2015-04-23T12:08:37Z</time>
      </trkpt>
      <trkpt lat="44.43781" lon="5.11579">
        <ele>934.06</ele>
        <time>2015-04-23T12:08:53Z</time>
      </trkpt>
      <trkpt lat="44.43779" lon="5.11596">
        <ele>933.58</ele>
        <time>2015-04-23T12:09:07Z</time>
      </trkpt>
      <trkpt lat="44.4378" lon="5.11615">
        <ele>932.14</ele>
        <time>2015-04-23T12:09:21Z</time>
      </trkpt>
      <trkpt lat="44.43778" lon="5.11631">
        <ele>932.62</ele>
        <time>2015-04-23T12:09:35Z</time>
      </trkpt>
      <trkpt lat="44.43782" lon="5.11644">
        <ele>928.29</ele>
        <time>2015-04-23T12:09:49Z</time>
      </trkpt>
      <trkpt lat="44.43785" lon="5.11654">
        <ele>927.81</ele>
        <time>2015-04-23T12:10:08Z</time>
      </trkpt>
      <trkpt lat="44.43788" lon="5.1166">
        <ele>927.33</ele>
        <time>2015-04-23T12:10:22Z</time>
      </trkpt>
      <trkpt lat="44.43791" lon="5.11666">
        <ele>927.33</ele>
        <time>2015-04-23T12:10:32Z</time>
      </trkpt>
      <trkpt lat="44.43796" lon="5.11689">
        <ele>927.33</ele>
        <time>2015-04-23T12:10:47Z</time>
      </trkpt>
      <trkpt lat="44.438" lon="5.11718">
        <ele>930.21</ele>
        <time>2015-04-23T12:11:05Z</time>
      </trkpt>
      <trkpt lat="44.438" lon="5.11724">
        <ele>932.14</ele>
        <time>2015-04-23T12:11:21Z</time>
      </trkpt>
      <trkpt lat="44.438" lon="5.11724">
        <ele>931.17</ele>
        <time>2015-04-23T12:11:41Z</time>
      </trkpt>
      <trkpt lat="44.43799" lon="5.11725">
        <ele>931.65</ele>
        <time>2015-04-23T12:11:57Z</time>
      </trkpt>
      <trkpt lat="44.43799" lon="5.11725">
        <ele>932.14</ele>
        <time>2015-04-23T12:12:14Z</time>
      </trkpt>
      <trkpt lat="44.438" lon="5.11728">
        <ele>932.14</ele>
        <time>2015-04-23T12:12:31Z</time>
      </trkpt>
      <trkpt lat="44.43801" lon="5.11729">
        <ele>932.62</ele>
        <time>2015-04-23T12:12:47Z</time>
      </trkpt>
      <trkpt lat="44.43796" lon="5.11733">
        <ele>932.14</ele>
        <time>2015-04-23T12:13:05Z</time>
      </trkpt>
      <trkpt lat="44.43786" lon="5.11748">
        <ele>931.65</ele>
        <time>2015-04-23T12:13:20Z</time>
      </trkpt>
      <trkpt lat="44.43776" lon="5.11765">
        <ele>932.62</ele>
        <time>2015-04-23T12:13:34Z</time>
      </trkpt>
      <trkpt lat="44.43771" lon="5.11771">
        <ele>933.1</ele>
        <time>2015-04-23T12:13:40Z</time>
      </trkpt>
      <trkpt lat="44.4376" lon="5.11789">
        <ele>935.98</ele>
        <time>2015-04-23T12:13:55Z</time>
      </trkpt>
      <trkpt lat="44.4375" lon="5.11807">
        <ele>937.9</ele>
        <time>2015-04-23T12:14:11Z</time>
      </trkpt>
      <trkpt lat="44.43741" lon="5.11826">
        <ele>940.31</ele>
        <time>2015-04-23T12:14:27Z</time>
      </trkpt>
      <trkpt lat="44.43735" lon="5.11834">
        <ele>941.27</ele>
        <time>2015-04-23T12:14:34Z</time>
      </trkpt>
      <trkpt lat="44.43725" lon="5.11845">
        <ele>941.75</ele>
        <time>2015-04-23T12:14:48Z</time>
      </trkpt>
      <trkpt lat="44.43713" lon="5.11859">
        <ele>941.27</ele>
        <time>2015-04-23T12:15:01Z</time>
      </trkpt>
      <trkpt lat="44.43703" lon="5.11879">
        <ele>943.19</ele>
        <time>2015-04-23T12:15:15Z</time>
      </trkpt>
      <trkpt lat="44.43693" lon="5.119">
        <ele>943.19</ele>
        <time>2015-04-23T12:15:30Z</time>
      </trkpt>
      <trkpt lat="44.43681" lon="5.1192">
        <ele>943.67</ele>
        <time>2015-04-23T12:15:45Z</time>
      </trkpt>
      <trkpt lat="44.43672" lon="5.11937">
        <ele>943.67</ele>
        <time>2015-04-23T12:16:00Z</time>
      </trkpt>
      <trkpt lat="44.4366" lon="5.11949">
        <ele>941.75</ele>
        <time>2015-04-23T12:16:13Z</time>
      </trkpt>
      <trkpt lat="44.43649" lon="5.11958">
        <ele>941.27</ele>
        <time>2015-04-23T12:16:27Z</time>
      </trkpt>
      <trkpt lat="44.43635" lon="5.11967">
        <ele>940.79</ele>
        <time>2015-04-23T12:16:43Z</time>
      </trkpt>
      <trkpt lat="44.43622" lon="5.11974">
        <ele>939.83</ele>
        <time>2015-04-23T12:16:58Z</time>
      </trkpt>
      <trkpt lat="44.43606" lon="5.1198">
        <ele>938.38</ele>
        <time>2015-04-23T12:17:15Z</time>
      </trkpt>
      <trkpt lat="44.43604" lon="5.11982">
        <ele>937.9</ele>
        <time>2015-04-23T12:17:18Z</time>
      </trkpt>
      <trkpt lat="44.43588" lon="5.1199">
        <ele>937.42</ele>
        <time>2015-04-23T12:17:31Z</time>
      </trkpt>
      <trkpt lat="44.43573" lon="5.11986">
        <ele>933.1</ele>
        <time>2015-04-23T12:17:49Z</time>
      </trkpt>
      <trkpt lat="44.43555" lon="5.11991">
        <ele>930.21</ele>
        <time>2015-04-23T12:18:03Z</time>
      </trkpt>
      <trkpt lat="44.4355" lon="5.11996">
        <ele>929.25</ele>
        <time>2015-04-23T12:18:08Z</time>
      </trkpt>
      <trkpt lat="44.4354" lon="5.12018">
        <ele>928.29</ele>
        <time>2015-04-23T12:18:24Z</time>
      </trkpt>
      <trkpt lat="44.43526" lon="5.12026">
        <ele>927.81</ele>
        <time>2015-04-23T12:18:38Z</time>
      </trkpt>
      <trkpt lat="44.43512" lon="5.12031">
        <ele>926.37</ele>
        <time>2015-04-23T12:18:50Z</time>
      </trkpt>
      <trkpt lat="44.43497" lon="5.12033">
        <ele>926.37</ele>
        <time>2015-04-23T12:19:06Z</time>
      </trkpt>
      <trkpt lat="44.43487" lon="5.12037">
        <ele>927.33</ele>
        <time>2015-04-23T12:19:18Z</time>
      </trkpt>
      <trkpt lat="44.43473" lon="5.12052">
        <ele>926.37</ele>
        <time>2015-04-23T12:19:33Z</time>
      </trkpt>
      <trkpt lat="44.43454" lon="5.12061">
        <ele>923</ele>
        <time>2015-04-23T12:19:49Z</time>
      </trkpt>
      <trkpt lat="44.43438" lon="5.12072">
        <ele>921.56</ele>
        <time>2015-04-23T12:20:04Z</time>
      </trkpt>
      <trkpt lat="44.43425" lon="5.12082">
        <ele>919.64</ele>
        <time>2015-04-23T12:20:18Z</time>
      </trkpt>
      <trkpt lat="44.43414" lon="5.12099">
        <ele>915.31</ele>
        <time>2015-04-23T12:20:35Z</time>
      </trkpt>
      <trkpt lat="44.43411" lon="5.12104">
        <ele>914.83</ele>
        <time>2015-04-23T12:20:39Z</time>
      </trkpt>
      <trkpt lat="44.43398" lon="5.12126">
        <ele>912.91</ele>
        <time>2015-04-23T12:20:55Z</time>
      </trkpt>
      <trkpt lat="44.4339" lon="5.12137">
        <ele>910.99</ele>
        <time>2015-04-23T12:21:05Z</time>
      </trkpt>
      <trkpt lat="44.43371" lon="5.1213">
        <ele>906.18</ele>
        <time>2015-04-23T12:21:21Z</time>
      </trkpt>
      <trkpt lat="44.43357" lon="5.12119">
        <ele>899.93</ele>
        <time>2015-04-23T12:21:37Z</time>
      </trkpt>
      <trkpt lat="44.43336" lon="5.1211">
        <ele>897.53</ele>
        <time>2015-04-23T12:21:53Z</time>
      </trkpt>
      <trkpt lat="44.43325" lon="5.12108">
        <ele>895.12</ele>
        <time>2015-04-23T12:22:08Z</time>
      </trkpt>
      <trkpt lat="44.43308" lon="5.12104">
        <ele>891.76</ele>
        <time>2015-04-23T12:22:21Z</time>
      </trkpt>
      <trkpt lat="44.43298" lon="5.12087">
        <ele>886.47</ele>
        <time>2015-04-23T12:22:37Z</time>
      </trkpt>
      <trkpt lat="44.43285" lon="5.12071">
        <ele>881.19</ele>
        <time>2015-04-23T12:22:55Z</time>
      </trkpt>
      <trkpt lat="44.43271" lon="5.1206">
        <ele>877.82</ele>
        <time>2015-04-23T12:23:10Z</time>
      </trkpt>
      <trkpt lat="44.43261" lon="5.12055">
        <ele>875.42</ele>
        <time>2015-04-23T12:23:25Z</time>
      </trkpt>
      <trkpt lat="44.43253" lon="5.12049">
        <ele>881.67</ele>
        <time>2015-04-23T12:23:39Z</time>
      </trkpt>
      <trkpt lat="44.43239" lon="5.12031">
        <ele>889.36</ele>
        <time>2015-04-23T12:23:57Z</time>
      </trkpt>
      <trkpt lat="44.43239" lon="5.1203">
        <ele>894.64</ele>
        <time>2015-04-23T12:24:17Z</time>
      </trkpt>
      <trkpt lat="44.43236" lon="5.12031">
        <ele>896.57</ele>
        <time>2015-04-23T12:24:44Z</time>
      </trkpt>
      <trkpt lat="44.43231" lon="5.12016">
        <ele>897.53</ele>
        <time>2015-04-23T12:24:59Z</time>
      </trkpt>
      <trkpt lat="44.43227" lon="5.12006">
        <ele>897.05</ele>
        <time>2015-04-23T12:25:06Z</time>
      </trkpt>
      <trkpt lat="44.43214" lon="5.11988">
        <ele>894.64</ele>
        <time>2015-04-23T12:25:22Z</time>
      </trkpt>
      <trkpt lat="44.43201" lon="5.11984">
        <ele>892.24</ele>
        <time>2015-04-23T12:25:39Z</time>
      </trkpt>
      <trkpt lat="44.43195" lon="5.11985">
        <ele>889.84</ele>
        <time>2015-04-23T12:25:53Z</time>
      </trkpt>
      <trkpt lat="44.43183" lon="5.11983">
        <ele>884.55</ele>
        <time>2015-04-23T12:26:07Z</time>
      </trkpt>
      <trkpt lat="44.43171" lon="5.11986">
        <ele>880.22</ele>
        <time>2015-04-23T12:26:21Z</time>
      </trkpt>
      <trkpt lat="44.43159" lon="5.11983">
        <ele>879.26</ele>
        <time>2015-04-23T12:26:37Z</time>
      </trkpt>
      <trkpt lat="44.43139" lon="5.11979">
        <ele>875.9</ele>
        <time>2015-04-23T12:26:54Z</time>
      </trkpt>
      <trkpt lat="44.43118" lon="5.11971">
        <ele>871.09</ele>
        <time>2015-04-23T12:27:14Z</time>
      </trkpt>
      <trkpt lat="44.431" lon="5.11964">
        <ele>866.29</ele>
        <time>2015-04-23T12:27:32Z</time>
      </trkpt>
      <trkpt lat="44.43085" lon="5.11958">
        <ele>862.44</ele>
        <time>2015-04-23T12:27:50Z</time>
      </trkpt>
      <trkpt lat="44.43075" lon="5.11955">
        <ele>858.59</ele>
        <time>2015-04-23T12:28:07Z</time>
      </trkpt>
      <trkpt lat="44.43072" lon="5.11954">
        <ele>859.56</ele>
        <time>2015-04-23T12:28:23Z</time>
      </trkpt>
      <trkpt lat="44.43068" lon="5.11955">
        <ele>857.63</ele>
        <time>2015-04-23T12:28:37Z</time>
      </trkpt>
      <trkpt lat="44.43061" lon="5.11959">
        <ele>853.79</ele>
        <time>2015-04-23T12:29:03Z</time>
      </trkpt>
      <trkpt lat="44.43058" lon="5.11962">
        <ele>854.27</ele>
        <time>2015-04-23T12:29:20Z</time>
      </trkpt>
      <trkpt lat="44.4305" lon="5.11981">
        <ele>853.31</ele>
        <time>2015-04-23T12:29:35Z</time>
      </trkpt>
      <trkpt lat="44.43044" lon="5.12003">
        <ele>851.87</ele>
        <time>2015-04-23T12:29:51Z</time>
      </trkpt>
      <trkpt lat="44.4304" lon="5.12022">
        <ele>848.02</ele>
        <time>2015-04-23T12:30:06Z</time>
      </trkpt>
      <trkpt lat="44.43039" lon="5.12029">
        <ele>848.98</ele>
        <time>2015-04-23T12:30:20Z</time>
      </trkpt>
      <trkpt lat="44.43037" lon="5.12035">
        <ele>852.83</ele>
        <time>2015-04-23T12:30:40Z</time>
      </trkpt>
      <trkpt lat="44.43034" lon="5.1205">
        <ele>851.38</ele>
        <time>2015-04-23T12:30:54Z</time>
      </trkpt>
      <trkpt lat="44.43027" lon="5.12075">
        <ele>851.38</ele>
        <time>2015-04-23T12:31:11Z</time>
      </trkpt>
      <trkpt lat="44.43023" lon="5.12097">
        <ele>852.35</ele>
        <time>2015-04-23T12:31:25Z</time>
      </trkpt>
      <trkpt lat="44.43018" lon="5.12119">
        <ele>853.31</ele>
        <time>2015-04-23T12:31:40Z</time>
      </trkpt>
      <trkpt lat="44.43016" lon="5.1214">
        <ele>854.75</ele>
        <time>2015-04-23T12:31:56Z</time>
      </trkpt>
      <trkpt lat="44.43015" lon="5.12154">
        <ele>856.19</ele>
        <time>2015-04-23T12:32:06Z</time>
      </trkpt>
      <trkpt lat="44.43011" lon="5.12177">
        <ele>857.63</ele>
        <time>2015-04-23T12:32:24Z</time>
      </trkpt>
      <trkpt lat="44.43008" lon="5.12187">
        <ele>859.56</ele>
        <time>2015-04-23T12:32:32Z</time>
      </trkpt>
      <trkpt lat="44.43007" lon="5.12192">
        <ele>860.52</ele>
        <time>2015-04-23T12:32:36Z</time>
      </trkpt>
      <trkpt lat="44.43008" lon="5.1221">
        <ele>861.48</ele>
        <time>2015-04-23T12:32:51Z</time>
      </trkpt>
      <trkpt lat="44.43012" lon="5.12231">
        <ele>861.96</ele>
        <time>2015-04-23T12:33:07Z</time>
      </trkpt>
      <trkpt lat="44.43014" lon="5.12251">
        <ele>861.96</ele>
        <time>2015-04-23T12:33:22Z</time>
      </trkpt>
      <trkpt lat="44.43019" lon="5.12271">
        <ele>867.25</ele>
        <time>2015-04-23T12:33:37Z</time>
      </trkpt>
      <trkpt lat="44.43025" lon="5.12289">
        <ele>871.09</ele>
        <time>2015-04-23T12:33:52Z</time>
      </trkpt>
      <trkpt lat="44.43029" lon="5.12306">
        <ele>871.57</ele>
        <time>2015-04-23T12:34:06Z</time>
      </trkpt>
      <trkpt lat="44.43033" lon="5.12325">
        <ele>873.01</ele>
        <time>2015-04-23T12:34:20Z</time>
      </trkpt>
      <trkpt lat="44.43036" lon="5.12343">
        <ele>874.46</ele>
        <time>2015-04-23T12:34:35Z</time>
      </trkpt>
      <trkpt lat="44.4304" lon="5.12358">
        <ele>877.34</ele>
        <time>2015-04-23T12:34:47Z</time>
      </trkpt>
      <trkpt lat="44.43045" lon="5.12378">
        <ele>879.26</ele>
        <time>2015-04-23T12:35:01Z</time>
      </trkpt>
      <trkpt lat="44.43048" lon="5.12393">
        <ele>880.71</ele>
        <time>2015-04-23T12:35:13Z</time>
      </trkpt>
      <trkpt lat="44.43051" lon="5.124">
        <ele>880.71</ele>
        <time>2015-04-23T12:35:19Z</time>
      </trkpt>
      <trkpt lat="44.43057" lon="5.12417">
        <ele>882.15</ele>
        <time>2015-04-23T12:35:33Z</time>
      </trkpt>
      <trkpt lat="44.43065" lon="5.12433">
        <ele>882.63</ele>
        <time>2015-04-23T12:35:46Z</time>
      </trkpt>
      <trkpt lat="44.43068" lon="5.12451">
        <ele>887.43</ele>
        <time>2015-04-23T12:36:00Z</time>
      </trkpt>
      <trkpt lat="44.43075" lon="5.12473">
        <ele>892.24</ele>
        <time>2015-04-23T12:36:18Z</time>
      </trkpt>
      <trkpt lat="44.43076" lon="5.12501">
        <ele>898.49</ele>
        <time>2015-04-23T12:36:37Z</time>
      </trkpt>
      <trkpt lat="44.43077" lon="5.12519">
        <ele>901.37</ele>
        <time>2015-04-23T12:36:52Z</time>
      </trkpt>
      <trkpt lat="44.43081" lon="5.12533">
        <ele>900.89</ele>
        <time>2015-04-23T12:37:04Z</time>
      </trkpt>
      <trkpt lat="44.43084" lon="5.12549">
        <ele>903.78</ele>
        <time>2015-04-23T12:37:18Z</time>
      </trkpt>
      <trkpt lat="44.43085" lon="5.12552">
        <ele>904.26</ele>
        <time>2015-04-23T12:37:21Z</time>
      </trkpt>
      <trkpt lat="44.43088" lon="5.12574">
        <ele>905.7</ele>
        <time>2015-04-23T12:37:36Z</time>
      </trkpt>
      <trkpt lat="44.4309" lon="5.12585">
        <ele>906.18</ele>
        <time>2015-04-23T12:37:44Z</time>
      </trkpt>
      <trkpt lat="44.43093" lon="5.12608">
        <ele>907.62</ele>
        <time>2015-04-23T12:38:01Z</time>
      </trkpt>
      <trkpt lat="44.43094" lon="5.12627">
        <ele>908.1</ele>
        <time>2015-04-23T12:38:15Z</time>
      </trkpt>
      <trkpt lat="44.43103" lon="5.12643">
        <ele>909.54</ele>
        <time>2015-04-23T12:38:31Z</time>
      </trkpt>
      <trkpt lat="44.4311" lon="5.1265">
        <ele>912.43</ele>
        <time>2015-04-23T12:38:43Z</time>
      </trkpt>
      <trkpt lat="44.43119" lon="5.12651">
        <ele>912.91</ele>
        <time>2015-04-23T12:38:53Z</time>
      </trkpt>
      <trkpt lat="44.43127" lon="5.12663">
        <ele>913.39</ele>
        <time>2015-04-23T12:39:08Z</time>
      </trkpt>
      <trkpt lat="44.43136" lon="5.1267">
        <ele>915.79</ele>
        <time>2015-04-23T12:39:25Z</time>
      </trkpt>
      <trkpt lat="44.43147" lon="5.12677">
        <ele>919.64</ele>
        <time>2015-04-23T12:39:43Z</time>
      </trkpt>
      <trkpt lat="44.43155" lon="5.12683">
        <ele>922.04</ele>
        <time>2015-04-23T12:40:00Z</time>
      </trkpt>
      <trkpt lat="44.43163" lon="5.12685">
        <ele>922.52</ele>
        <time>2015-04-23T12:40:14Z</time>
      </trkpt>
      <trkpt lat="44.43169" lon="5.12691">
        <ele>923.96</ele>
        <time>2015-04-23T12:40:28Z</time>
      </trkpt>
      <trkpt lat="44.43177" lon="5.12701">
        <ele>927.33</ele>
        <time>2015-04-23T12:40:42Z</time>
      </trkpt>
      <trkpt lat="44.43183" lon="5.12719">
        <ele>936.94</ele>
        <time>2015-04-23T12:40:57Z</time>
      </trkpt>
      <trkpt lat="44.43188" lon="5.12731">
        <ele>939.83</ele>
        <time>2015-04-23T12:41:11Z</time>
      </trkpt>
      <trkpt lat="44.43191" lon="5.12747">
        <ele>939.83</ele>
        <time>2015-04-23T12:41:28Z</time>
      </trkpt>
      <trkpt lat="44.43196" lon="5.1276">
        <ele>941.75</ele>
        <time>2015-04-23T12:41:47Z</time>
      </trkpt>
      <trkpt lat="44.43201" lon="5.12773">
        <ele>945.11</ele>
        <time>2015-04-23T12:42:04Z</time>
      </trkpt>
      <trkpt lat="44.43204" lon="5.1279">
        <ele>946.56</ele>
        <time>2015-04-23T12:42:18Z</time>
      </trkpt>
      <trkpt lat="44.43205" lon="5.12802">
        <ele>948.96</ele>
        <time>2015-04-23T12:42:32Z</time>
      </trkpt>
      <trkpt lat="44.43211" lon="5.12816">
        <ele>951.84</ele>
        <time>2015-04-23T12:42:47Z</time>
      </trkpt>
      <trkpt lat="44.43217" lon="5.12829">
        <ele>952.8</ele>
        <time>2015-04-23T12:43:01Z</time>
      </trkpt>
      <trkpt lat="44.43226" lon="5.1284">
        <ele>956.17</ele>
        <time>2015-04-23T12:43:19Z</time>
      </trkpt>
      <trkpt lat="44.43234" lon="5.12852">
        <ele>960.01</ele>
        <time>2015-04-23T12:43:37Z</time>
      </trkpt>
      <trkpt lat="44.43243" lon="5.12862">
        <ele>964.34</ele>
        <time>2015-04-23T12:43:52Z</time>
      </trkpt>
      <trkpt lat="44.4324" lon="5.12875">
        <ele>966.26</ele>
        <time>2015-04-23T12:44:05Z</time>
      </trkpt>
      <trkpt lat="44.4324" lon="5.12884">
        <ele>966.74</ele>
        <time>2015-04-23T12:44:13Z</time>
      </trkpt>
      <trkpt lat="44.43241" lon="5.12891">
        <ele>966.26</ele>
        <time>2015-04-23T12:44:18Z</time>
      </trkpt>
      <trkpt lat="44.43236" lon="5.12898">
        <ele>966.74</ele>
        <time>2015-04-23T12:44:24Z</time>
      </trkpt>
      <trkpt lat="44.43222" lon="5.12902">
        <ele>970.59</ele>
        <time>2015-04-23T12:44:40Z</time>
      </trkpt>
      <trkpt lat="44.43204" lon="5.12902">
        <ele>972.03</ele>
        <time>2015-04-23T12:44:57Z</time>
      </trkpt>
      <trkpt lat="44.43189" lon="5.12903">
        <ele>973.47</ele>
        <time>2015-04-23T12:45:13Z</time>
      </trkpt>
      <trkpt lat="44.43178" lon="5.12905">
        <ele>974.43</ele>
        <time>2015-04-23T12:45:27Z</time>
      </trkpt>
      <trkpt lat="44.43164" lon="5.12911">
        <ele>974.91</ele>
        <time>2015-04-23T12:45:42Z</time>
      </trkpt>
      <trkpt lat="44.43164" lon="5.1291">
        <ele>974.43</ele>
        <time>2015-04-23T12:45:58Z</time>
      </trkpt>
      <trkpt lat="44.43166" lon="5.12909">
        <ele>973.95</ele>
        <time>2015-04-23T12:46:16Z</time>
      </trkpt>
      <trkpt lat="44.43166" lon="5.12907">
        <ele>974.43</ele>
        <time>2015-04-23T12:46:41Z</time>
      </trkpt>
      <trkpt lat="44.43166" lon="5.12906">
        <ele>975.39</ele>
        <time>2015-04-23T12:47:08Z</time>
      </trkpt>
      <trkpt lat="44.43166" lon="5.12905">
        <ele>976.36</ele>
        <time>2015-04-23T12:47:37Z</time>
      </trkpt>
      <trkpt lat="44.43168" lon="5.12907">
        <ele>976.36</ele>
        <time>2015-04-23T12:47:57Z</time>
      </trkpt>
      <trkpt lat="44.43167" lon="5.12911">
        <ele>974.91</ele>
        <time>2015-04-23T12:48:23Z</time>
      </trkpt>
      <trkpt lat="44.43168" lon="5.12911">
        <ele>974.43</ele>
        <time>2015-04-23T12:48:38Z</time>
      </trkpt>
      <trkpt lat="44.43168" lon="5.12911">
        <ele>973.47</ele>
        <time>2015-04-23T12:49:04Z</time>
      </trkpt>
      <trkpt lat="44.43168" lon="5.12911">
        <ele>973.95</ele>
        <time>2015-04-23T12:49:32Z</time>
      </trkpt>
      <trkpt lat="44.43167" lon="5.12912">
        <ele>973.95</ele>
        <time>2015-04-23T12:49:57Z</time>
      </trkpt>
      <trkpt lat="44.43167" lon="5.12912">
        <ele>973.47</ele>
        <time>2015-04-23T12:50:22Z</time>
      </trkpt>
      <trkpt lat="44.43167" lon="5.12912">
        <ele>973.47</ele>
        <time>2015-04-23T12:50:38Z</time>
      </trkpt>
      <trkpt lat="44.43166" lon="5.12922">
        <ele>972.03</ele>
        <time>2015-04-23T12:50:50Z</time>
      </trkpt>
      <trkpt lat="44.43163" lon="5.12945">
        <ele>971.07</ele>
        <time>2015-04-23T12:51:08Z</time>
      </trkpt>
      <trkpt lat="44.43163" lon="5.12963">
        <ele>971.07</ele>
        <time>2015-04-23T12:51:22Z</time>
      </trkpt>
      <trkpt lat="44.43161" lon="5.12986">
        <ele>971.55</ele>
        <time>2015-04-23T12:51:38Z</time>
      </trkpt>
      <trkpt lat="44.43161" lon="5.1299">
        <ele>971.55</ele>
        <time>2015-04-23T12:51:42Z</time>
      </trkpt>
      <trkpt lat="44.43156" lon="5.12996">
        <ele>972.03</ele>
        <time>2015-04-23T12:51:48Z</time>
      </trkpt>
      <trkpt lat="44.43141" lon="5.13">
        <ele>973.95</ele>
        <time>2015-04-23T12:52:05Z</time>
      </trkpt>
      <trkpt lat="44.4313" lon="5.13002">
        <ele>976.36</ele>
        <time>2015-04-23T12:52:18Z</time>
      </trkpt>
      <trkpt lat="44.43116" lon="5.13001">
        <ele>978.76</ele>
        <time>2015-04-23T12:52:33Z</time>
      </trkpt>
      <trkpt lat="44.43109" lon="5.12997">
        <ele>980.2</ele>
        <time>2015-04-23T12:52:42Z</time>
      </trkpt>
      <trkpt lat="44.43095" lon="5.12989">
        <ele>982.12</ele>
        <time>2015-04-23T12:52:58Z</time>
      </trkpt>
      <trkpt lat="44.43084" lon="5.12987">
        <ele>983.09</ele>
        <time>2015-04-23T12:53:13Z</time>
      </trkpt>
      <trkpt lat="44.43074" lon="5.12986">
        <ele>984.53</ele>
        <time>2015-04-23T12:53:28Z</time>
      </trkpt>
      <trkpt lat="44.43066" lon="5.12982">
        <ele>990.3</ele>
        <time>2015-04-23T12:53:47Z</time>
      </trkpt>
      <trkpt lat="44.43055" lon="5.12976">
        <ele>994.14</ele>
        <time>2015-04-23T12:54:08Z</time>
      </trkpt>
      <trkpt lat="44.43039" lon="5.12975">
        <ele>997.51</ele>
        <time>2015-04-23T12:54:27Z</time>
      </trkpt>
      <trkpt lat="44.43026" lon="5.12975">
        <ele>998.95</ele>
        <time>2015-04-23T12:54:48Z</time>
      </trkpt>
      <trkpt lat="44.43008" lon="5.12977">
        <ele>997.99</ele>
        <time>2015-04-23T12:55:11Z</time>
      </trkpt>
      <trkpt lat="44.43" lon="5.12982">
        <ele>1001.83</ele>
        <time>2015-04-23T12:55:27Z</time>
      </trkpt>
      <trkpt lat="44.4299" lon="5.12981">
        <ele>1005.2</ele>
        <time>2015-04-23T12:55:45Z</time>
      </trkpt>
      <trkpt lat="44.42975" lon="5.12977">
        <ele>1003.27</ele>
        <time>2015-04-23T12:56:05Z</time>
      </trkpt>
      <trkpt lat="44.42962" lon="5.12976">
        <ele>1001.83</ele>
        <time>2015-04-23T12:56:17Z</time>
      </trkpt>
      <trkpt lat="44.42946" lon="5.12977">
        <ele>1003.27</ele>
        <time>2015-04-23T12:56:33Z</time>
      </trkpt>
      <trkpt lat="44.42938" lon="5.12972">
        <ele>1004.72</ele>
        <time>2015-04-23T12:56:51Z</time>
      </trkpt>
      <trkpt lat="44.42927" lon="5.12961">
        <ele>1005.2</ele>
        <time>2015-04-23T12:57:10Z</time>
      </trkpt>
      <trkpt lat="44.42913" lon="5.12953">
        <ele>1005.68</ele>
        <time>2015-04-23T12:57:27Z</time>
      </trkpt>
      <trkpt lat="44.429" lon="5.12959">
        <ele>1005.2</ele>
        <time>2015-04-23T12:57:43Z</time>
      </trkpt>
      <trkpt lat="44.42884" lon="5.12955">
        <ele>1007.6</ele>
        <time>2015-04-23T12:58:02Z</time>
      </trkpt>
      <trkpt lat="44.42878" lon="5.12953">
        <ele>1009.52</ele>
        <time>2015-04-23T12:58:20Z</time>
      </trkpt>
      <trkpt lat="44.42875" lon="5.12952">
        <ele>1010</ele>
        <time>2015-04-23T12:58:35Z</time>
      </trkpt>
      <trkpt lat="44.42875" lon="5.12951">
        <ele>1010.48</ele>
        <time>2015-04-23T12:58:59Z</time>
      </trkpt>
      <trkpt lat="44.42873" lon="5.12952">
        <ele>1010.96</ele>
        <time>2015-04-23T12:59:33Z</time>
      </trkpt>
      <trkpt lat="44.42874" lon="5.12951">
        <ele>1011.44</ele>
        <time>2015-04-23T13:00:00Z</time>
      </trkpt>
      <trkpt lat="44.42872" lon="5.12948">
        <ele>1011.93</ele>
        <time>2015-04-23T13:00:19Z</time>
      </trkpt>
      <trkpt lat="44.42866" lon="5.12943">
        <ele>1010.96</ele>
        <time>2015-04-23T13:00:37Z</time>
      </trkpt>
      <trkpt lat="44.42865" lon="5.12943">
        <ele>1011.93</ele>
        <time>2015-04-23T13:01:07Z</time>
      </trkpt>
      <trkpt lat="44.42866" lon="5.12944">
        <ele>1012.41</ele>
        <time>2015-04-23T13:01:36Z</time>
      </trkpt>
      <trkpt lat="44.42865" lon="5.12944">
        <ele>1012.41</ele>
        <time>2015-04-23T13:02:01Z</time>
      </trkpt>
      <trkpt lat="44.42865" lon="5.12944">
        <ele>1012.89</ele>
        <time>2015-04-23T13:02:31Z</time>
      </trkpt>
      <trkpt lat="44.42863" lon="5.12943">
        <ele>1012.41</ele>
        <time>2015-04-23T13:02:55Z</time>
      </trkpt>
      <trkpt lat="44.42849" lon="5.1294">
        <ele>1010.96</ele>
        <time>2015-04-23T13:03:13Z</time>
      </trkpt>
      <trkpt lat="44.42835" lon="5.12938">
        <ele>1008.08</ele>
        <time>2015-04-23T13:03:28Z</time>
      </trkpt>
      <trkpt lat="44.42822" lon="5.12935">
        <ele>1006.16</ele>
        <time>2015-04-23T13:03:46Z</time>
      </trkpt>
      <trkpt lat="44.42809" lon="5.12933">
        <ele>1003.27</ele>
        <time>2015-04-23T13:04:04Z</time>
      </trkpt>
      <trkpt lat="44.42796" lon="5.12934">
        <ele>999.43</ele>
        <time>2015-04-23T13:04:19Z</time>
      </trkpt>
      <trkpt lat="44.42783" lon="5.12939">
        <ele>994.62</ele>
        <time>2015-04-23T13:04:37Z</time>
      </trkpt>
      <trkpt lat="44.42775" lon="5.12956">
        <ele>991.26</ele>
        <time>2015-04-23T13:04:56Z</time>
      </trkpt>
      <trkpt lat="44.42766" lon="5.12967">
        <ele>989.33</ele>
        <time>2015-04-23T13:05:13Z</time>
      </trkpt>
      <trkpt lat="44.42766" lon="5.12975">
        <ele>986.93</ele>
        <time>2015-04-23T13:05:30Z</time>
      </trkpt>
      <trkpt lat="44.42765" lon="5.12976">
        <ele>987.41</ele>
        <time>2015-04-23T13:05:48Z</time>
      </trkpt>
      <trkpt lat="44.42764" lon="5.12979">
        <ele>987.41</ele>
        <time>2015-04-23T13:06:08Z</time>
      </trkpt>
      <trkpt lat="44.42755" lon="5.12987">
        <ele>986.45</ele>
        <time>2015-04-23T13:06:25Z</time>
      </trkpt>
      <trkpt lat="44.42745" lon="5.12989">
        <ele>982.6</ele>
        <time>2015-04-23T13:06:39Z</time>
      </trkpt>
      <trkpt lat="44.42724" lon="5.12985">
        <ele>977.32</ele>
        <time>2015-04-23T13:06:57Z</time>
      </trkpt>
      <trkpt lat="44.42704" lon="5.12977">
        <ele>971.07</ele>
        <time>2015-04-23T13:07:13Z</time>
      </trkpt>
      <trkpt lat="44.42682" lon="5.12975">
        <ele>966.26</ele>
        <time>2015-04-23T13:07:33Z</time>
      </trkpt>
      <trkpt lat="44.42667" lon="5.12975">
        <ele>963.38</ele>
        <time>2015-04-23T13:07:50Z</time>
      </trkpt>
      <trkpt lat="44.4265" lon="5.12964">
        <ele>959.53</ele>
        <time>2015-04-23T13:08:09Z</time>
      </trkpt>
      <trkpt lat="44.42637" lon="5.12955">
        <ele>956.17</ele>
        <time>2015-04-23T13:08:24Z</time>
      </trkpt>
      <trkpt lat="44.42623" lon="5.12943">
        <ele>952.32</ele>
        <time>2015-04-23T13:08:41Z</time>
      </trkpt>
      <trkpt lat="44.42616" lon="5.12935">
        <ele>950.88</ele>
        <time>2015-04-23T13:08:51Z</time>
      </trkpt>
      <trkpt lat="44.42602" lon="5.1292">
        <ele>952.8</ele>
        <time>2015-04-23T13:09:07Z</time>
      </trkpt>
      <trkpt lat="44.42591" lon="5.12916">
        <ele>953.28</ele>
        <time>2015-04-23T13:09:22Z</time>
      </trkpt>
      <trkpt lat="44.42582" lon="5.1293">
        <ele>949.44</ele>
        <time>2015-04-23T13:09:39Z</time>
      </trkpt>
      <trkpt lat="44.42577" lon="5.12949">
        <ele>946.56</ele>
        <time>2015-04-23T13:09:55Z</time>
      </trkpt>
      <trkpt lat="44.42573" lon="5.12964">
        <ele>946.56</ele>
        <time>2015-04-23T13:10:09Z</time>
      </trkpt>
      <trkpt lat="44.42571" lon="5.12969">
        <ele>947.52</ele>
        <time>2015-04-23T13:10:27Z</time>
      </trkpt>
      <trkpt lat="44.42569" lon="5.12992">
        <ele>950.4</ele>
        <time>2015-04-23T13:10:46Z</time>
      </trkpt>
      <trkpt lat="44.42563" lon="5.13008">
        <ele>952.8</ele>
        <time>2015-04-23T13:11:07Z</time>
      </trkpt>
      <trkpt lat="44.42557" lon="5.13013">
        <ele>952.8</ele>
        <time>2015-04-23T13:11:25Z</time>
      </trkpt>
      <trkpt lat="44.42546" lon="5.1302">
        <ele>948.48</ele>
        <time>2015-04-23T13:11:40Z</time>
      </trkpt>
      <trkpt lat="44.42538" lon="5.13026">
        <ele>946.56</ele>
        <time>2015-04-23T13:11:57Z</time>
      </trkpt>
      <trkpt lat="44.42533" lon="5.13028">
        <ele>944.63</ele>
        <time>2015-04-23T13:12:15Z</time>
      </trkpt>
      <trkpt lat="44.42525" lon="5.13033">
        <ele>940.79</ele>
        <time>2015-04-23T13:12:33Z</time>
      </trkpt>
      <trkpt lat="44.42513" lon="5.13038">
        <ele>941.27</ele>
        <time>2015-04-23T13:12:51Z</time>
      </trkpt>
      <trkpt lat="44.42504" lon="5.13043">
        <ele>939.35</ele>
        <time>2015-04-23T13:13:07Z</time>
      </trkpt>
      <trkpt lat="44.42491" lon="5.13062">
        <ele>928.77</ele>
        <time>2015-04-23T13:13:27Z</time>
      </trkpt>
      <trkpt lat="44.42481" lon="5.13074">
        <ele>922.04</ele>
        <time>2015-04-23T13:13:45Z</time>
      </trkpt>
      <trkpt lat="44.42476" lon="5.13073">
        <ele>923.48</ele>
        <time>2015-04-23T13:13:54Z</time>
      </trkpt>
      <trkpt lat="44.42472" lon="5.13052">
        <ele>923.48</ele>
        <time>2015-04-23T13:14:09Z</time>
      </trkpt>
      <trkpt lat="44.42473" lon="5.13032">
        <ele>920.6</ele>
        <time>2015-04-23T13:14:24Z</time>
      </trkpt>
      <trkpt lat="44.42482" lon="5.13011">
        <ele>918.2</ele>
        <time>2015-04-23T13:14:42Z</time>
      </trkpt>
      <trkpt lat="44.42494" lon="5.12998">
        <ele>913.39</ele>
        <time>2015-04-23T13:14:58Z</time>
      </trkpt>
      <trkpt lat="44.42489" lon="5.1299">
        <ele>913.39</ele>
        <time>2015-04-23T13:15:13Z</time>
      </trkpt>
      <trkpt lat="44.42478" lon="5.13">
        <ele>910.51</ele>
        <time>2015-04-23T13:15:31Z</time>
      </trkpt>
      <trkpt lat="44.42461" lon="5.13007">
        <ele>909.54</ele>
        <time>2015-04-23T13:15:51Z</time>
      </trkpt>
      <trkpt lat="44.42443" lon="5.13014">
        <ele>906.66</ele>
        <time>2015-04-23T13:16:07Z</time>
      </trkpt>
      <trkpt lat="44.42433" lon="5.13017">
        <ele>903.3</ele>
        <time>2015-04-23T13:16:24Z</time>
      </trkpt>
      <trkpt lat="44.42422" lon="5.13011">
        <ele>904.26</ele>
        <time>2015-04-23T13:16:40Z</time>
      </trkpt>
      <trkpt lat="44.42419" lon="5.1301">
        <ele>905.22</ele>
        <time>2015-04-23T13:17:01Z</time>
      </trkpt>
      <trkpt lat="44.42417" lon="5.13011">
        <ele>905.7</ele>
        <time>2015-04-23T13:17:29Z</time>
      </trkpt>
      <trkpt lat="44.42409" lon="5.13011">
        <ele>906.66</ele>
        <time>2015-04-23T13:17:48Z</time>
      </trkpt>
      <trkpt lat="44.42396" lon="5.13012">
        <ele>904.74</ele>
        <time>2015-04-23T13:18:05Z</time>
      </trkpt>
      <trkpt lat="44.42382" lon="5.13015">
        <ele>901.85</ele>
        <time>2015-04-23T13:18:22Z</time>
      </trkpt>
      <trkpt lat="44.42371" lon="5.13015">
        <ele>898.49</ele>
        <time>2015-04-23T13:18:36Z</time>
      </trkpt>
      <trkpt lat="44.42351" lon="5.13013">
        <ele>893.68</ele>
        <time>2015-04-23T13:18:56Z</time>
      </trkpt>
      <trkpt lat="44.42338" lon="5.13015">
        <ele>890.32</ele>
        <time>2015-04-23T13:19:11Z</time>
      </trkpt>
      <trkpt lat="44.42323" lon="5.13021">
        <ele>887.91</ele>
        <time>2015-04-23T13:19:27Z</time>
      </trkpt>
      <trkpt lat="44.42309" lon="5.1303">
        <ele>885.51</ele>
        <time>2015-04-23T13:19:43Z</time>
      </trkpt>
      <trkpt lat="44.42293" lon="5.13039">
        <ele>882.63</ele>
        <time>2015-04-23T13:20:00Z</time>
      </trkpt>
      <trkpt lat="44.42286" lon="5.13042">
        <ele>882.63</ele>
        <time>2015-04-23T13:20:07Z</time>
      </trkpt>
      <trkpt lat="44.4227" lon="5.1305">
        <ele>883.59</ele>
        <time>2015-04-23T13:20:23Z</time>
      </trkpt>
      <trkpt lat="44.4226" lon="5.13046">
        <ele>882.15</ele>
        <time>2015-04-23T13:20:39Z</time>
      </trkpt>
      <trkpt lat="44.42241" lon="5.13052">
        <ele>877.82</ele>
        <time>2015-04-23T13:20:57Z</time>
      </trkpt>
      <trkpt lat="44.42229" lon="5.13061">
        <ele>874.46</ele>
        <time>2015-04-23T13:21:15Z</time>
      </trkpt>
      <trkpt lat="44.42217" lon="5.13053">
        <ele>873.5</ele>
        <time>2015-04-23T13:21:31Z</time>
      </trkpt>
      <trkpt lat="44.42208" lon="5.13051">
        <ele>872.05</ele>
        <time>2015-04-23T13:21:47Z</time>
      </trkpt>
      <trkpt lat="44.42205" lon="5.13051">
        <ele>872.05</ele>
        <time>2015-04-23T13:22:01Z</time>
      </trkpt>
      <trkpt lat="44.42203" lon="5.13049">
        <ele>871.57</ele>
        <time>2015-04-23T13:22:21Z</time>
      </trkpt>
      <trkpt lat="44.42201" lon="5.13048">
        <ele>871.57</ele>
        <time>2015-04-23T13:22:44Z</time>
      </trkpt>
      <trkpt lat="44.422" lon="5.13048">
        <ele>871.09</ele>
        <time>2015-04-23T13:23:03Z</time>
      </trkpt>
      <trkpt lat="44.422" lon="5.13048">
        <ele>871.09</ele>
        <time>2015-04-23T13:23:24Z</time>
      </trkpt>
      <trkpt lat="44.422" lon="5.13048">
        <ele>871.09</ele>
        <time>2015-04-23T13:23:47Z</time>
      </trkpt>
      <trkpt lat="44.42201" lon="5.13048">
        <ele>870.61</ele>
        <time>2015-04-23T13:24:12Z</time>
      </trkpt>
      <trkpt lat="44.42201" lon="5.13047">
        <ele>870.13</ele>
        <time>2015-04-23T13:24:35Z</time>
      </trkpt>
      <trkpt lat="44.42203" lon="5.13033">
        <ele>869.17</ele>
        <time>2015-04-23T13:24:54Z</time>
      </trkpt>
      <trkpt lat="44.42207" lon="5.13016">
        <ele>866.29</ele>
        <time>2015-04-23T13:25:10Z</time>
      </trkpt>
      <trkpt lat="44.42209" lon="5.13006">
        <ele>864.84</ele>
        <time>2015-04-23T13:25:19Z</time>
      </trkpt>
      <trkpt lat="44.42219" lon="5.12989">
        <ele>863.4</ele>
        <time>2015-04-23T13:25:35Z</time>
      </trkpt>
      <trkpt lat="44.4223" lon="5.12972">
        <ele>858.59</ele>
        <time>2015-04-23T13:25:55Z</time>
      </trkpt>
      <trkpt lat="44.42241" lon="5.12959">
        <ele>855.23</ele>
        <time>2015-04-23T13:26:12Z</time>
      </trkpt>
      <trkpt lat="44.42253" lon="5.12945">
        <ele>849.94</ele>
        <time>2015-04-23T13:26:29Z</time>
      </trkpt>
      <trkpt lat="44.42261" lon="5.12933">
        <ele>846.1</ele>
        <time>2015-04-23T13:26:45Z</time>
      </trkpt>
      <trkpt lat="44.42273" lon="5.12919">
        <ele>845.14</ele>
        <time>2015-04-23T13:27:01Z</time>
      </trkpt>
      <trkpt lat="44.42279" lon="5.12914">
        <ele>844.18</ele>
        <time>2015-04-23T13:27:14Z</time>
      </trkpt>
      <trkpt lat="44.42274" lon="5.1291">
        <ele>847.06</ele>
        <time>2015-04-23T13:27:44Z</time>
      </trkpt>
      <trkpt lat="44.42277" lon="5.12912">
        <ele>847.06</ele>
        <time>2015-04-23T13:28:02Z</time>
      </trkpt>
      <trkpt lat="44.42288" lon="5.129">
        <ele>840.81</ele>
        <time>2015-04-23T13:28:15Z</time>
      </trkpt>
      <trkpt lat="44.423" lon="5.12878">
        <ele>840.81</ele>
        <time>2015-04-23T13:28:30Z</time>
      </trkpt>
      <trkpt lat="44.42307" lon="5.1286">
        <ele>840.81</ele>
        <time>2015-04-23T13:28:42Z</time>
      </trkpt>
      <trkpt lat="44.42315" lon="5.12842">
        <ele>839.85</ele>
        <time>2015-04-23T13:28:57Z</time>
      </trkpt>
      <trkpt lat="44.4233" lon="5.1283">
        <ele>837.45</ele>
        <time>2015-04-23T13:29:14Z</time>
      </trkpt>
      <trkpt lat="44.42337" lon="5.12824">
        <ele>836.96</ele>
        <time>2015-04-23T13:29:21Z</time>
      </trkpt>
      <trkpt lat="44.42354" lon="5.12813">
        <ele>835.04</ele>
        <time>2015-04-23T13:29:38Z</time>
      </trkpt>
      <trkpt lat="44.42373" lon="5.12807">
        <ele>833.12</ele>
        <time>2015-04-23T13:29:55Z</time>
      </trkpt>
      <trkpt lat="44.42391" lon="5.12809">
        <ele>829.76</ele>
        <time>2015-04-23T13:30:12Z</time>
      </trkpt>
      <trkpt lat="44.42403" lon="5.12804">
        <ele>825.91</ele>
        <time>2015-04-23T13:30:26Z</time>
      </trkpt>
      <trkpt lat="44.42416" lon="5.12795">
        <ele>823.03</ele>
        <time>2015-04-23T13:30:40Z</time>
      </trkpt>
      <trkpt lat="44.42428" lon="5.12777">
        <ele>824.47</ele>
        <time>2015-04-23T13:30:55Z</time>
      </trkpt>
      <trkpt lat="44.42432" lon="5.12772">
        <ele>823.99</ele>
        <time>2015-04-23T13:31:00Z</time>
      </trkpt>
      <trkpt lat="44.42449" lon="5.12756">
        <ele>820.14</ele>
        <time>2015-04-23T13:31:19Z</time>
      </trkpt>
      <trkpt lat="44.42463" lon="5.12742">
        <ele>814.37</ele>
        <time>2015-04-23T13:31:37Z</time>
      </trkpt>
      <trkpt lat="44.42477" lon="5.12727">
        <ele>811.97</ele>
        <time>2015-04-23T13:31:53Z</time>
      </trkpt>
      <trkpt lat="44.42488" lon="5.12716">
        <ele>809.57</ele>
        <time>2015-04-23T13:32:06Z</time>
      </trkpt>
      <trkpt lat="44.42493" lon="5.12693">
        <ele>811.01</ele>
        <time>2015-04-23T13:32:20Z</time>
      </trkpt>
      <trkpt lat="44.42485" lon="5.12689">
        <ele>811.01</ele>
        <time>2015-04-23T13:32:30Z</time>
      </trkpt>
      <trkpt lat="44.42468" lon="5.127">
        <ele>808.13</ele>
        <time>2015-04-23T13:32:46Z</time>
      </trkpt>
      <trkpt lat="44.42452" lon="5.12711">
        <ele>808.13</ele>
        <time>2015-04-23T13:33:02Z</time>
      </trkpt>
      <trkpt lat="44.42432" lon="5.12726">
        <ele>807.64</ele>
        <time>2015-04-23T13:33:18Z</time>
      </trkpt>
      <trkpt lat="44.42421" lon="5.12737">
        <ele>806.2</ele>
        <time>2015-04-23T13:33:30Z</time>
      </trkpt>
      <trkpt lat="44.42405" lon="5.12743">
        <ele>804.76</ele>
        <time>2015-04-23T13:33:45Z</time>
      </trkpt>
      <trkpt lat="44.42393" lon="5.12743">
        <ele>806.68</ele>
        <time>2015-04-23T13:33:57Z</time>
      </trkpt>
      <trkpt lat="44.42399" lon="5.12732">
        <ele>803.32</ele>
        <time>2015-04-23T13:34:11Z</time>
      </trkpt>
      <trkpt lat="44.42414" lon="5.12723">
        <ele>800.92</ele>
        <time>2015-04-23T13:34:27Z</time>
      </trkpt>
      <trkpt lat="44.4243" lon="5.1271">
        <ele>798.03</ele>
        <time>2015-04-23T13:34:41Z</time>
      </trkpt>
      <trkpt lat="44.42446" lon="5.12689">
        <ele>789.86</ele>
        <time>2015-04-23T13:35:02Z</time>
      </trkpt>
      <trkpt lat="44.42448" lon="5.12686">
        <ele>790.34</ele>
        <time>2015-04-23T13:35:04Z</time>
      </trkpt>
      <trkpt lat="44.4245" lon="5.12657">
        <ele>793.22</ele>
        <time>2015-04-23T13:35:19Z</time>
      </trkpt>
      <trkpt lat="44.42448" lon="5.12651">
        <ele>794.19</ele>
        <time>2015-04-23T13:35:23Z</time>
      </trkpt>
      <trkpt lat="44.42447" lon="5.12644">
        <ele>793.71</ele>
        <time>2015-04-23T13:35:28Z</time>
      </trkpt>
      <trkpt lat="44.42451" lon="5.12629">
        <ele>791.3</ele>
        <time>2015-04-23T13:35:43Z</time>
      </trkpt>
      <trkpt lat="44.42469" lon="5.12633">
        <ele>786.98</ele>
        <time>2015-04-23T13:36:00Z</time>
      </trkpt>
      <trkpt lat="44.42474" lon="5.12634">
        <ele>785.05</ele>
        <time>2015-04-23T13:36:06Z</time>
      </trkpt>
      <trkpt lat="44.42489" lon="5.12639">
        <ele>782.17</ele>
        <time>2015-04-23T13:36:21Z</time>
      </trkpt>
      <trkpt lat="44.42494" lon="5.12634">
        <ele>780.73</ele>
        <time>2015-04-23T13:36:27Z</time>
      </trkpt>
      <trkpt lat="44.425" lon="5.1262">
        <ele>780.73</ele>
        <time>2015-04-23T13:36:35Z</time>
      </trkpt>
      <trkpt lat="44.42501" lon="5.12585">
        <ele>785.05</ele>
        <time>2015-04-23T13:36:53Z</time>
      </trkpt>
      <trkpt lat="44.425" lon="5.1256">
        <ele>783.61</ele>
        <time>2015-04-23T13:37:10Z</time>
      </trkpt>
      <trkpt lat="44.42503" lon="5.12534">
        <ele>778.81</ele>
        <time>2015-04-23T13:37:29Z</time>
      </trkpt>
      <trkpt lat="44.42503" lon="5.12533">
        <ele>778.81</ele>
        <time>2015-04-23T13:37:30Z</time>
      </trkpt>
      <trkpt lat="44.42506" lon="5.1251">
        <ele>776.4</ele>
        <time>2015-04-23T13:37:46Z</time>
      </trkpt>
      <trkpt lat="44.42508" lon="5.1249">
        <ele>774.48</ele>
        <time>2015-04-23T13:37:58Z</time>
      </trkpt>
      <trkpt lat="44.4251" lon="5.12471">
        <ele>772.56</ele>
        <time>2015-04-23T13:38:10Z</time>
      </trkpt>
      <trkpt lat="44.42512" lon="5.12444">
        <ele>768.23</ele>
        <time>2015-04-23T13:38:28Z</time>
      </trkpt>
      <trkpt lat="44.42517" lon="5.12421">
        <ele>761.98</ele>
        <time>2015-04-23T13:38:46Z</time>
      </trkpt>
      <trkpt lat="44.42523" lon="5.12387">
        <ele>760.06</ele>
        <time>2015-04-23T13:39:06Z</time>
      </trkpt>
      <trkpt lat="44.42517" lon="5.1238">
        <ele>757.18</ele>
        <time>2015-04-23T13:39:20Z</time>
      </trkpt>
      <trkpt lat="44.42505" lon="5.12393">
        <ele>752.37</ele>
        <time>2015-04-23T13:39:35Z</time>
      </trkpt>
      <trkpt lat="44.42491" lon="5.12409">
        <ele>750.45</ele>
        <time>2015-04-23T13:39:50Z</time>
      </trkpt>
      <trkpt lat="44.4248" lon="5.1243">
        <ele>748.04</ele>
        <time>2015-04-23T13:40:05Z</time>
      </trkpt>
      <trkpt lat="44.42466" lon="5.12455">
        <ele>747.56</ele>
        <time>2015-04-23T13:40:23Z</time>
      </trkpt>
      <trkpt lat="44.42457" lon="5.12485">
        <ele>747.56</ele>
        <time>2015-04-23T13:40:41Z</time>
      </trkpt>
      <trkpt lat="44.42456" lon="5.12492">
        <ele>744.2</ele>
        <time>2015-04-23T13:40:48Z</time>
      </trkpt>
      <trkpt lat="44.42439" lon="5.12511">
        <ele>748.52</ele>
        <time>2015-04-23T13:41:05Z</time>
      </trkpt>
      <trkpt lat="44.42427" lon="5.12503">
        <ele>748.04</ele>
        <time>2015-04-23T13:41:16Z</time>
      </trkpt>
      <trkpt lat="44.42412" lon="5.12495">
        <ele>743.72</ele>
        <time>2015-04-23T13:41:32Z</time>
      </trkpt>
      <trkpt lat="44.424" lon="5.12489">
        <ele>742.76</ele>
        <time>2015-04-23T13:41:41Z</time>
      </trkpt>
      <trkpt lat="44.42392" lon="5.12488">
        <ele>743.72</ele>
        <time>2015-04-23T13:41:47Z</time>
      </trkpt>
      <trkpt lat="44.42384" lon="5.12483">
        <ele>744.2</ele>
        <time>2015-04-23T13:41:56Z</time>
      </trkpt>
      <trkpt lat="44.42367" lon="5.12475">
        <ele>742.76</ele>
        <time>2015-04-23T13:42:12Z</time>
      </trkpt>
      <trkpt lat="44.4237" lon="5.12461">
        <ele>739.87</ele>
        <time>2015-04-23T13:42:21Z</time>
      </trkpt>
      <trkpt lat="44.42384" lon="5.1244">
        <ele>734.58</ele>
        <time>2015-04-23T13:42:39Z</time>
      </trkpt>
      <trkpt lat="44.42398" lon="5.12436">
        <ele>731.22</ele>
        <time>2015-04-23T13:42:54Z</time>
      </trkpt>
      <trkpt lat="44.42408" lon="5.12438">
        <ele>731.22</ele>
        <time>2015-04-23T13:43:02Z</time>
      </trkpt>
      <trkpt lat="44.42424" lon="5.12437">
        <ele>729.78</ele>
        <time>2015-04-23T13:43:18Z</time>
      </trkpt>
      <trkpt lat="44.4243" lon="5.12429">
        <ele>727.86</ele>
        <time>2015-04-23T13:43:32Z</time>
      </trkpt>
      <trkpt lat="44.42418" lon="5.12415">
        <ele>724.49</ele>
        <time>2015-04-23T13:43:48Z</time>
      </trkpt>
      <trkpt lat="44.42405" lon="5.12399">
        <ele>720.65</ele>
        <time>2015-04-23T13:44:04Z</time>
      </trkpt>
      <trkpt lat="44.42388" lon="5.12392">
        <ele>715.84</ele>
        <time>2015-04-23T13:44:22Z</time>
      </trkpt>
      <trkpt lat="44.42376" lon="5.124">
        <ele>712.95</ele>
        <time>2015-04-23T13:44:37Z</time>
      </trkpt>
      <trkpt lat="44.42358" lon="5.12407">
        <ele>711.03</ele>
        <time>2015-04-23T13:44:53Z</time>
      </trkpt>
      <trkpt lat="44.42341" lon="5.12405">
        <ele>711.51</ele>
        <time>2015-04-23T13:45:08Z</time>
      </trkpt>
      <trkpt lat="44.42331" lon="5.12389">
        <ele>710.55</ele>
        <time>2015-04-23T13:45:19Z</time>
      </trkpt>
      <trkpt lat="44.42324" lon="5.12363">
        <ele>708.15</ele>
        <time>2015-04-23T13:45:33Z</time>
      </trkpt>
      <trkpt lat="44.42322" lon="5.12337">
        <ele>703.34</ele>
        <time>2015-04-23T13:45:50Z</time>
      </trkpt>
      <trkpt lat="44.42318" lon="5.12316">
        <ele>699.02</ele>
        <time>2015-04-23T13:46:05Z</time>
      </trkpt>
      <trkpt lat="44.42313" lon="5.12295">
        <ele>699.5</ele>
        <time>2015-04-23T13:46:18Z</time>
      </trkpt>
      <trkpt lat="44.42313" lon="5.12286">
        <ele>699.98</ele>
        <time>2015-04-23T13:46:24Z</time>
      </trkpt>
      <trkpt lat="44.42322" lon="5.12288">
        <ele>698.53</ele>
        <time>2015-04-23T13:46:39Z</time>
      </trkpt>
      <trkpt lat="44.42327" lon="5.123">
        <ele>698.05</ele>
        <time>2015-04-23T13:46:48Z</time>
      </trkpt>
      <trkpt lat="44.42338" lon="5.12318">
        <ele>696.61</ele>
        <time>2015-04-23T13:47:04Z</time>
      </trkpt>
      <trkpt lat="44.42347" lon="5.12308">
        <ele>692.29</ele>
        <time>2015-04-23T13:47:21Z</time>
      </trkpt>
      <trkpt lat="44.42352" lon="5.12295">
        <ele>687</ele>
        <time>2015-04-23T13:47:35Z</time>
      </trkpt>
      <trkpt lat="44.42356" lon="5.12278">
        <ele>682.19</ele>
        <time>2015-04-23T13:47:51Z</time>
      </trkpt>
      <trkpt lat="44.42365" lon="5.12256">
        <ele>679.79</ele>
        <time>2015-04-23T13:48:07Z</time>
      </trkpt>
      <trkpt lat="44.42371" lon="5.12255">
        <ele>679.31</ele>
        <time>2015-04-23T13:48:12Z</time>
      </trkpt>
      <trkpt lat="44.4238" lon="5.12257">
        <ele>679.79</ele>
        <time>2015-04-23T13:48:21Z</time>
      </trkpt>
      <trkpt lat="44.42401" lon="5.12257">
        <ele>677.39</ele>
        <time>2015-04-23T13:48:39Z</time>
      </trkpt>
      <trkpt lat="44.42404" lon="5.12254">
        <ele>676.42</ele>
        <time>2015-04-23T13:48:43Z</time>
      </trkpt>
      <trkpt lat="44.4241" lon="5.12223">
        <ele>675.46</ele>
        <time>2015-04-23T13:49:03Z</time>
      </trkpt>
      <trkpt lat="44.42414" lon="5.12212">
        <ele>673.54</ele>
        <time>2015-04-23T13:49:13Z</time>
      </trkpt>
      <trkpt lat="44.4242" lon="5.1219">
        <ele>674.02</ele>
        <time>2015-04-23T13:49:30Z</time>
      </trkpt>
      <trkpt lat="44.42427" lon="5.12167">
        <ele>672.1</ele>
        <time>2015-04-23T13:49:47Z</time>
      </trkpt>
      <trkpt lat="44.42436" lon="5.12151">
        <ele>671.14</ele>
        <time>2015-04-23T13:50:03Z</time>
      </trkpt>
      <trkpt lat="44.42433" lon="5.12139">
        <ele>669.22</ele>
        <time>2015-04-23T13:50:13Z</time>
      </trkpt>
      <trkpt lat="44.4242" lon="5.12149">
        <ele>666.81</ele>
        <time>2015-04-23T13:50:32Z</time>
      </trkpt>
      <trkpt lat="44.42408" lon="5.12167">
        <ele>665.85</ele>
        <time>2015-04-23T13:50:50Z</time>
      </trkpt>
      <trkpt lat="44.42403" lon="5.12199">
        <ele>666.33</ele>
        <time>2015-04-23T13:51:06Z</time>
      </trkpt>
      <trkpt lat="44.42399" lon="5.12209">
        <ele>666.81</ele>
        <time>2015-04-23T13:51:16Z</time>
      </trkpt>
      <trkpt lat="44.42392" lon="5.12212">
        <ele>666.81</ele>
        <time>2015-04-23T13:51:22Z</time>
      </trkpt>
      <trkpt lat="44.42388" lon="5.12205">
        <ele>666.33</ele>
        <time>2015-04-23T13:51:28Z</time>
      </trkpt>
      <trkpt lat="44.42391" lon="5.1218">
        <ele>666.81</ele>
        <time>2015-04-23T13:51:45Z</time>
      </trkpt>
      <trkpt lat="44.42396" lon="5.12162">
        <ele>664.89</ele>
        <time>2015-04-23T13:51:59Z</time>
      </trkpt>
      <trkpt lat="44.42396" lon="5.12155">
        <ele>663.93</ele>
        <time>2015-04-23T13:52:04Z</time>
      </trkpt>
      <trkpt lat="44.42402" lon="5.1213">
        <ele>660.08</ele>
        <time>2015-04-23T13:52:20Z</time>
      </trkpt>
      <trkpt lat="44.42409" lon="5.1211">
        <ele>655.28</ele>
        <time>2015-04-23T13:52:36Z</time>
      </trkpt>
      <trkpt lat="44.42423" lon="5.12091">
        <ele>651.43</ele>
        <time>2015-04-23T13:52:53Z</time>
      </trkpt>
      <trkpt lat="44.42435" lon="5.12076">
        <ele>646.62</ele>
        <time>2015-04-23T13:53:08Z</time>
      </trkpt>
      <trkpt lat="44.42449" lon="5.12065">
        <ele>642.3</ele>
        <time>2015-04-23T13:53:23Z</time>
      </trkpt>
      <trkpt lat="44.42467" lon="5.12051">
        <ele>636.05</ele>
        <time>2015-04-23T13:53:40Z</time>
      </trkpt>
      <trkpt lat="44.42478" lon="5.12043">
        <ele>633.17</ele>
        <time>2015-04-23T13:53:56Z</time>
      </trkpt>
      <trkpt lat="44.42488" lon="5.12034">
        <ele>631.24</ele>
        <time>2015-04-23T13:54:10Z</time>
      </trkpt>
      <trkpt lat="44.42494" lon="5.12027">
        <ele>632.2</ele>
        <time>2015-04-23T13:54:26Z</time>
      </trkpt>
      <trkpt lat="44.42497" lon="5.12018">
        <ele>632.2</ele>
        <time>2015-04-23T13:54:41Z</time>
      </trkpt>
      <trkpt lat="44.42503" lon="5.1201">
        <ele>632.2</ele>
        <time>2015-04-23T13:54:56Z</time>
      </trkpt>
      <trkpt lat="44.42508" lon="5.12004">
        <ele>633.17</ele>
        <time>2015-04-23T13:55:13Z</time>
      </trkpt>
      <trkpt lat="44.42516" lon="5.11998">
        <ele>632.2</ele>
        <time>2015-04-23T13:55:28Z</time>
      </trkpt>
      <trkpt lat="44.42527" lon="5.11985">
        <ele>632.68</ele>
        <time>2015-04-23T13:55:46Z</time>
      </trkpt>
      <trkpt lat="44.42542" lon="5.11964">
        <ele>637.01</ele>
        <time>2015-04-23T13:56:03Z</time>
      </trkpt>
      <trkpt lat="44.42554" lon="5.11948">
        <ele>638.45</ele>
        <time>2015-04-23T13:56:21Z</time>
      </trkpt>
      <trkpt lat="44.42557" lon="5.11939">
        <ele>641.82</ele>
        <time>2015-04-23T13:56:41Z</time>
      </trkpt>
      <trkpt lat="44.42559" lon="5.11934">
        <ele>643.74</ele>
        <time>2015-04-23T13:57:07Z</time>
      </trkpt>
      <trkpt lat="44.42558" lon="5.11931">
        <ele>644.22</ele>
        <time>2015-04-23T13:57:25Z</time>
      </trkpt>
      <trkpt lat="44.42559" lon="5.11927">
        <ele>644.22</ele>
        <time>2015-04-23T13:57:48Z</time>
      </trkpt>
      <trkpt lat="44.42559" lon="5.11925">
        <ele>644.7</ele>
        <time>2015-04-23T13:58:16Z</time>
      </trkpt>
      <trkpt lat="44.42559" lon="5.11923">
        <ele>644.7</ele>
        <time>2015-04-23T13:58:42Z</time>
      </trkpt>
      <trkpt lat="44.42558" lon="5.1192">
        <ele>644.22</ele>
        <time>2015-04-23T13:59:08Z</time>
      </trkpt>
      <trkpt lat="44.42557" lon="5.11919">
        <ele>644.7</ele>
        <time>2015-04-23T13:59:29Z</time>
      </trkpt>
      <trkpt lat="44.42558" lon="5.11919">
        <ele>644.7</ele>
        <time>2015-04-23T13:59:48Z</time>
      </trkpt>
      <trkpt lat="44.42562" lon="5.11908">
        <ele>644.22</ele>
        <time>2015-04-23T14:00:05Z</time>
      </trkpt>
      <trkpt lat="44.42562" lon="5.11906">
        <ele>644.22</ele>
        <time>2015-04-23T14:00:07Z</time>
      </trkpt>
      <trkpt lat="44.42548" lon="5.11904">
        <ele>642.3</ele>
        <time>2015-04-23T14:00:27Z</time>
      </trkpt>
      <trkpt lat="44.42531" lon="5.11901">
        <ele>639.89</ele>
        <time>2015-04-23T14:00:45Z</time>
      </trkpt>
      <trkpt lat="44.42514" lon="5.11897">
        <ele>637.49</ele>
        <time>2015-04-23T14:01:01Z</time>
      </trkpt>
      <trkpt lat="44.42495" lon="5.11883">
        <ele>639.41</ele>
        <time>2015-04-23T14:01:15Z</time>
      </trkpt>
      <trkpt lat="44.4249" lon="5.11883">
        <ele>639.41</ele>
        <time>2015-04-23T14:01:22Z</time>
      </trkpt>
      <trkpt lat="44.42467" lon="5.11887">
        <ele>639.89</ele>
        <time>2015-04-23T14:01:42Z</time>
      </trkpt>
      <trkpt lat="44.42446" lon="5.11891">
        <ele>640.86</ele>
        <time>2015-04-23T14:01:59Z</time>
      </trkpt>
      <trkpt lat="44.42444" lon="5.11892">
        <ele>640.86</ele>
        <time>2015-04-23T14:02:01Z</time>
      </trkpt>
      <trkpt lat="44.42434" lon="5.119">
        <ele>639.41</ele>
        <time>2015-04-23T14:02:12Z</time>
      </trkpt>
      <trkpt lat="44.42417" lon="5.11915">
        <ele>638.93</ele>
        <time>2015-04-23T14:02:30Z</time>
      </trkpt>
      <trkpt lat="44.42406" lon="5.11931">
        <ele>638.45</ele>
        <time>2015-04-23T14:02:45Z</time>
      </trkpt>
      <trkpt lat="44.42394" lon="5.11949">
        <ele>637.49</ele>
        <time>2015-04-23T14:03:01Z</time>
      </trkpt>
      <trkpt lat="44.42381" lon="5.11966">
        <ele>636.53</ele>
        <time>2015-04-23T14:03:17Z</time>
      </trkpt>
      <trkpt lat="44.42368" lon="5.11981">
        <ele>636.05</ele>
        <time>2015-04-23T14:03:32Z</time>
      </trkpt>
      <trkpt lat="44.42352" lon="5.11994">
        <ele>635.09</ele>
        <time>2015-04-23T14:03:49Z</time>
      </trkpt>
      <trkpt lat="44.42339" lon="5.11999">
        <ele>634.61</ele>
        <time>2015-04-23T14:04:01Z</time>
      </trkpt>
      <trkpt lat="44.42322" lon="5.12007">
        <ele>633.65</ele>
        <time>2015-04-23T14:04:17Z</time>
      </trkpt>
      <trkpt lat="44.42308" lon="5.12025">
        <ele>616.82</ele>
        <time>2015-04-23T14:04:32Z</time>
      </trkpt>
      <trkpt lat="44.42306" lon="5.12024">
        <ele>615.38</ele>
        <time>2015-04-23T14:04:34Z</time>
      </trkpt>
      <trkpt lat="44.42291" lon="5.1203">
        <ele>600</ele>
        <time>2015-04-23T14:04:53Z</time>
      </trkpt>
      <trkpt lat="44.42279" lon="5.12036">
        <ele>590.87</ele>
        <time>2015-04-23T14:05:10Z</time>
      </trkpt>
      <trkpt lat="44.42263" lon="5.12039">
        <ele>584.62</ele>
        <time>2015-04-23T14:05:26Z</time>
      </trkpt>
      <trkpt lat="44.42246" lon="5.1204">
        <ele>577.41</ele>
        <time>2015-04-23T14:05:45Z</time>
      </trkpt>
      <trkpt lat="44.42242" lon="5.12039">
        <ele>576.93</ele>
        <time>2015-04-23T14:05:48Z</time>
      </trkpt>
      <trkpt lat="44.42221" lon="5.12037">
        <ele>577.89</ele>
        <time>2015-04-23T14:06:05Z</time>
      </trkpt>
      <trkpt lat="44.42207" lon="5.12044">
        <ele>578.37</ele>
        <time>2015-04-23T14:06:19Z</time>
      </trkpt>
      <trkpt lat="44.42193" lon="5.12049">
        <ele>578.85</ele>
        <time>2015-04-23T14:06:32Z</time>
      </trkpt>
      <trkpt lat="44.42173" lon="5.12051">
        <ele>579.33</ele>
        <time>2015-04-23T14:06:51Z</time>
      </trkpt>
      <trkpt lat="44.42157" lon="5.12052">
        <ele>578.85</ele>
        <time>2015-04-23T14:07:05Z</time>
      </trkpt>
      <trkpt lat="44.42153" lon="5.1205">
        <ele>578.85</ele>
        <time>2015-04-23T14:07:10Z</time>
      </trkpt>
      <trkpt lat="44.42136" lon="5.12037">
        <ele>578.37</ele>
        <time>2015-04-23T14:07:27Z</time>
      </trkpt>
      <trkpt lat="44.42124" lon="5.12033">
        <ele>578.37</ele>
        <time>2015-04-23T14:07:38Z</time>
      </trkpt>
      <trkpt lat="44.42103" lon="5.12038">
        <ele>578.37</ele>
        <time>2015-04-23T14:07:56Z</time>
      </trkpt>
      <trkpt lat="44.42085" lon="5.1205">
        <ele>578.85</ele>
        <time>2015-04-23T14:08:12Z</time>
      </trkpt>
      <trkpt lat="44.42082" lon="5.12051">
        <ele>578.85</ele>
        <time>2015-04-23T14:08:14Z</time>
      </trkpt>
      <trkpt lat="44.42059" lon="5.1205">
        <ele>577.89</ele>
        <time>2015-04-23T14:08:32Z</time>
      </trkpt>
      <trkpt lat="44.42038" lon="5.12049">
        <ele>577.89</ele>
        <time>2015-04-23T14:08:48Z</time>
      </trkpt>
      <trkpt lat="44.42014" lon="5.12048">
        <ele>577.89</ele>
        <time>2015-04-23T14:09:08Z</time>
      </trkpt>
      <trkpt lat="44.41994" lon="5.12044">
        <ele>577.41</ele>
        <time>2015-04-23T14:09:25Z</time>
      </trkpt>
      <trkpt lat="44.4197" lon="5.12049">
        <ele>576.45</ele>
        <time>2015-04-23T14:09:45Z</time>
      </trkpt>
      <trkpt lat="44.41951" lon="5.12054">
        <ele>574.53</ele>
        <time>2015-04-23T14:10:02Z</time>
      </trkpt>
      <trkpt lat="44.41941" lon="5.12057">
        <ele>571.64</ele>
        <time>2015-04-23T14:10:11Z</time>
      </trkpt>
      <trkpt lat="44.4192" lon="5.12062">
        <ele>570.2</ele>
        <time>2015-04-23T14:10:28Z</time>
      </trkpt>
      <trkpt lat="44.41903" lon="5.1207">
        <ele>565.39</ele>
        <time>2015-04-23T14:10:46Z</time>
      </trkpt>
      <trkpt lat="44.41884" lon="5.12078">
        <ele>559.62</ele>
        <time>2015-04-23T14:11:04Z</time>
      </trkpt>
      <trkpt lat="44.41872" lon="5.12082">
        <ele>554.82</ele>
        <time>2015-04-23T14:11:17Z</time>
      </trkpt>
      <trkpt lat="44.41861" lon="5.12084">
        <ele>554.82</ele>
        <time>2015-04-23T14:11:26Z</time>
      </trkpt>
      <trkpt lat="44.41855" lon="5.12082">
        <ele>554.34</ele>
        <time>2015-04-23T14:11:30Z</time>
      </trkpt>
      <trkpt lat="44.41832" lon="5.12074">
        <ele>554.82</ele>
        <time>2015-04-23T14:11:49Z</time>
      </trkpt>
      <trkpt lat="44.41819" lon="5.12068">
        <ele>555.78</ele>
        <time>2015-04-23T14:12:01Z</time>
      </trkpt>
      <trkpt lat="44.41812" lon="5.12065">
        <ele>556.26</ele>
        <time>2015-04-23T14:12:07Z</time>
      </trkpt>
      <trkpt lat="44.41787" lon="5.1207">
        <ele>557.22</ele>
        <time>2015-04-23T14:12:27Z</time>
      </trkpt>
      <trkpt lat="44.41777" lon="5.12074">
        <ele>557.22</ele>
        <time>2015-04-23T14:12:35Z</time>
      </trkpt>
      <trkpt lat="44.41766" lon="5.12073">
        <ele>558.66</ele>
        <time>2015-04-23T14:12:44Z</time>
      </trkpt>
      <trkpt lat="44.41756" lon="5.1207">
        <ele>558.66</ele>
        <time>2015-04-23T14:12:53Z</time>
      </trkpt>
      <trkpt lat="44.41737" lon="5.12067">
        <ele>559.62</ele>
        <time>2015-04-23T14:13:09Z</time>
      </trkpt>
      <trkpt lat="44.41715" lon="5.12067">
        <ele>559.14</ele>
        <time>2015-04-23T14:13:26Z</time>
      </trkpt>
      <trkpt lat="44.41691" lon="5.12068">
        <ele>559.14</ele>
        <time>2015-04-23T14:13:46Z</time>
      </trkpt>
      <trkpt lat="44.41667" lon="5.12065">
        <ele>559.14</ele>
        <time>2015-04-23T14:14:06Z</time>
      </trkpt>
      <trkpt lat="44.41647" lon="5.12058">
        <ele>558.66</ele>
        <time>2015-04-23T14:14:25Z</time>
      </trkpt>
      <trkpt lat="44.41625" lon="5.1205">
        <ele>558.66</ele>
        <time>2015-04-23T14:14:45Z</time>
      </trkpt>
      <trkpt lat="44.41613" lon="5.12045">
        <ele>558.18</ele>
        <time>2015-04-23T14:14:55Z</time>
      </trkpt>
      <trkpt lat="44.41602" lon="5.1204">
        <ele>556.74</ele>
        <time>2015-04-23T14:15:05Z</time>
      </trkpt>
      <trkpt lat="44.41585" lon="5.12028">
        <ele>552.9</ele>
        <time>2015-04-23T14:15:22Z</time>
      </trkpt>
      <trkpt lat="44.41569" lon="5.12013">
        <ele>549.05</ele>
        <time>2015-04-23T14:15:39Z</time>
      </trkpt>
      <trkpt lat="44.41559" lon="5.12007">
        <ele>546.65</ele>
        <time>2015-04-23T14:15:50Z</time>
      </trkpt>
      <trkpt lat="44.41542" lon="5.11997">
        <ele>540.4</ele>
        <time>2015-04-23T14:16:09Z</time>
      </trkpt>
      <trkpt lat="44.41525" lon="5.11988">
        <ele>533.19</ele>
        <time>2015-04-23T14:16:29Z</time>
      </trkpt>
      <trkpt lat="44.41504" lon="5.11978">
        <ele>532.71</ele>
        <time>2015-04-23T14:16:47Z</time>
      </trkpt>
      <trkpt lat="44.41491" lon="5.11968">
        <ele>529.82</ele>
        <time>2015-04-23T14:17:04Z</time>
      </trkpt>
      <trkpt lat="44.41473" lon="5.11946">
        <ele>534.63</ele>
        <time>2015-04-23T14:17:20Z</time>
      </trkpt>
      <trkpt lat="44.41457" lon="5.11926">
        <ele>535.11</ele>
        <time>2015-04-23T14:17:37Z</time>
      </trkpt>
      <trkpt lat="44.41456" lon="5.11923">
        <ele>534.63</ele>
        <time>2015-04-23T14:17:40Z</time>
      </trkpt>
      <trkpt lat="44.41456" lon="5.1192">
        <ele>534.63</ele>
        <time>2015-04-23T14:17:42Z</time>
      </trkpt>
      <trkpt lat="44.41452" lon="5.11918">
        <ele>533.67</ele>
        <time>2015-04-23T14:17:45Z</time>
      </trkpt>
      <trkpt lat="44.41444" lon="5.11902">
        <ele>532.71</ele>
        <time>2015-04-23T14:17:57Z</time>
      </trkpt>
      <trkpt lat="44.41426" lon="5.1188">
        <ele>530.3</ele>
        <time>2015-04-23T14:18:18Z</time>
      </trkpt>
      <trkpt lat="44.41415" lon="5.11867">
        <ele>529.82</ele>
        <time>2015-04-23T14:18:29Z</time>
      </trkpt>
      <trkpt lat="44.41396" lon="5.11842">
        <ele>527.42</ele>
        <time>2015-04-23T14:18:52Z</time>
      </trkpt>
      <trkpt lat="44.41385" lon="5.11821">
        <ele>525.98</ele>
        <time>2015-04-23T14:19:08Z</time>
      </trkpt>
      <trkpt lat="44.41372" lon="5.11797">
        <ele>522.61</ele>
        <time>2015-04-23T14:19:26Z</time>
      </trkpt>
      <trkpt lat="44.41358" lon="5.11776">
        <ele>518.77</ele>
        <time>2015-04-23T14:19:44Z</time>
      </trkpt>
      <trkpt lat="44.41348" lon="5.11756">
        <ele>511.56</ele>
        <time>2015-04-23T14:20:02Z</time>
      </trkpt>
      <trkpt lat="44.41338" lon="5.11729">
        <ele>505.79</ele>
        <time>2015-04-23T14:20:23Z</time>
      </trkpt>
      <trkpt lat="44.41325" lon="5.11712">
        <ele>505.79</ele>
        <time>2015-04-23T14:20:38Z</time>
      </trkpt>
      <trkpt lat="44.413" lon="5.11691">
        <ele>514.92</ele>
        <time>2015-04-23T14:20:56Z</time>
      </trkpt>
      <trkpt lat="44.41281" lon="5.11673">
        <ele>519.73</ele>
        <time>2015-04-23T14:21:12Z</time>
      </trkpt>
      <trkpt lat="44.41262" lon="5.11657">
        <ele>520.69</ele>
        <time>2015-04-23T14:21:29Z</time>
      </trkpt>
      <trkpt lat="44.41245" lon="5.11637">
        <ele>522.13</ele>
        <time>2015-04-23T14:21:46Z</time>
      </trkpt>
      <trkpt lat="44.41231" lon="5.11613">
        <ele>523.09</ele>
        <time>2015-04-23T14:22:03Z</time>
      </trkpt>
      <trkpt lat="44.41217" lon="5.11593">
        <ele>519.73</ele>
        <time>2015-04-23T14:22:22Z</time>
      </trkpt>
      <trkpt lat="44.41211" lon="5.11586">
        <ele>520.21</ele>
        <time>2015-04-23T14:22:28Z</time>
      </trkpt>
      <trkpt lat="44.41191" lon="5.11572">
        <ele>516.85</ele>
        <time>2015-04-23T14:22:47Z</time>
      </trkpt>
      <trkpt lat="44.4117" lon="5.11561">
        <ele>516.85</ele>
        <time>2015-04-23T14:23:05Z</time>
      </trkpt>
      <trkpt lat="44.41152" lon="5.11562">
        <ele>515.4</ele>
        <time>2015-04-23T14:23:20Z</time>
      </trkpt>
      <trkpt lat="44.41132" lon="5.11565">
        <ele>509.16</ele>
        <time>2015-04-23T14:23:39Z</time>
      </trkpt>
      <trkpt lat="44.41108" lon="5.11561">
        <ele>508.19</ele>
        <time>2015-04-23T14:23:57Z</time>
      </trkpt>
      <trkpt lat="44.4109" lon="5.11563">
        <ele>500.98</ele>
        <time>2015-04-23T14:24:16Z</time>
      </trkpt>
      <trkpt lat="44.41077" lon="5.11567">
        <ele>495.7</ele>
        <time>2015-04-23T14:24:36Z</time>
      </trkpt>
      <trkpt lat="44.41074" lon="5.11566">
        <ele>495.22</ele>
        <time>2015-04-23T14:24:40Z</time>
      </trkpt>
      <trkpt lat="44.41059" lon="5.11553">
        <ele>495.7</ele>
        <time>2015-04-23T14:24:56Z</time>
      </trkpt>
      <trkpt lat="44.41047" lon="5.11524">
        <ele>495.7</ele>
        <time>2015-04-23T14:25:14Z</time>
      </trkpt>
      <trkpt lat="44.41023" lon="5.11492">
        <ele>498.58</ele>
        <time>2015-04-23T14:25:33Z</time>
      </trkpt>
      <trkpt lat="44.41" lon="5.11453">
        <ele>503.87</ele>
        <time>2015-04-23T14:25:56Z</time>
      </trkpt>
      <trkpt lat="44.40993" lon="5.11421">
        <ele>503.87</ele>
        <time>2015-04-23T14:26:16Z</time>
      </trkpt>
      <trkpt lat="44.40995" lon="5.11411">
        <ele>503.39</ele>
        <time>2015-04-23T14:26:21Z</time>
      </trkpt>
      <trkpt lat="44.41004" lon="5.11367">
        <ele>503.87</ele>
        <time>2015-04-23T14:26:42Z</time>
      </trkpt>
      <trkpt lat="44.41005" lon="5.11365">
        <ele>503.39</ele>
        <time>2015-04-23T14:26:43Z</time>
      </trkpt>
      <trkpt lat="44.41005" lon="5.11326">
        <ele>499.54</ele>
        <time>2015-04-23T14:27:06Z</time>
      </trkpt>
      <trkpt lat="44.41" lon="5.1131">
        <ele>499.54</ele>
        <time>2015-04-23T14:27:17Z</time>
      </trkpt>
      <trkpt lat="44.40991" lon="5.11275">
        <ele>497.62</ele>
        <time>2015-04-23T14:27:39Z</time>
      </trkpt>
      <trkpt lat="44.40987" lon="5.11259">
        <ele>496.66</ele>
        <time>2015-04-23T14:27:57Z</time>
      </trkpt>
      <trkpt lat="44.40984" lon="5.11242">
        <ele>497.62</ele>
        <time>2015-04-23T14:28:11Z</time>
      </trkpt>
      <trkpt lat="44.40981" lon="5.11227">
        <ele>497.62</ele>
        <time>2015-04-23T14:28:25Z</time>
      </trkpt>
      <trkpt lat="44.40977" lon="5.11209">
        <ele>500.02</ele>
        <time>2015-04-23T14:28:41Z</time>
      </trkpt>
      <trkpt lat="44.40971" lon="5.11187">
        <ele>501.95</ele>
        <time>2015-04-23T14:28:58Z</time>
      </trkpt>
      <trkpt lat="44.40971" lon="5.11181">
        <ele>504.35</ele>
        <time>2015-04-23T14:29:14Z</time>
      </trkpt>
      <trkpt lat="44.40969" lon="5.1118">
        <ele>504.83</ele>
        <time>2015-04-23T14:29:31Z</time>
      </trkpt>
    </trkseg>
  </trk>
</gpx>